Mi HomeGuard - helping people stay independent longer.


Humidity


Temperature

Click to expand sensor readings.

Wed Jun 03 13:18:02

Lowest: 68%

s1 Conserv HT
Wed Jun 3 13:06, 46.3% 21.2c

Wed Jun 3 13:06, 46.3% 21.2c
Wed Jun 3 12:46, 46.0% 21.2c
Wed Jun 3 12:07, 48.6% 20.7c
Wed Jun 3 11:51, 47.7% 20.7c
Wed Jun 3 11:11, 46.4% 21.1c
Wed Jun 3 10:16, 49.8% 20.8c
Wed Jun 3 09:30, 50.7% 21.2c
Wed Jun 3 09:20, 50.8% 20.9c
Wed Jun 3 09:05, 51.3% 20.7c
Wed Jun 3 08:52, 53.2% 20.2c
Wed Jun 3 08:51, 54.3% 19.6c
Wed Jun 3 08:48, 55.2% 19.1c
Wed Jun 3 08:23, 55.7% 18.5c
Wed Jun 3 08:23, 55.8% 18.5c
Wed Jun 3 07:27, 56.8% 17.7c
Wed Jun 3 06:30, 57.0% 17.9c
Wed Jun 3 05:56, 57.2% 18.0c
Wed Jun 3 05:39, 57.4% 18.1c
Wed Jun 3 04:46, 57.6% 18.4c
Wed Jun 3 04:29, 57.7% 18.5c
Wed Jun 3 03:52, 57.8% 18.8c
Wed Jun 3 03:20, 58.0% 19.0c
Wed Jun 3 02:59, 58.1% 19.1c
Wed Jun 3 02:09, 58.0% 19.5c
Wed Jun 3 02:01, 58.0% 19.6c
Wed Jun 3 01:10, 57.6% 20.0c
Wed Jun 3 01:06, 57.6% 20.1c
Wed Jun 3 00:12, 57.0% 20.4c
Tue Jun 2 23:49, 56.9% 20.5c
Tue Jun 2 23:14, 56.5% 20.8c
Tue Jun 2 22:31, 56.1% 21.0c
Tue Jun 2 22:15, 55.9% 21.2c
Tue Jun 2 21:22, 55.1% 21.6c
Tue Jun 2 21:20, 55.0% 21.5c
Tue Jun 2 20:23, 54.0% 22.0c
Tue Jun 2 20:21, 54.2% 22.0c
Tue Jun 2 19:25, 54.9% 22.4c
Tue Jun 2 18:34, 53.1% 22.5c
Tue Jun 2 18:32, 52.9% 22.6c
Tue Jun 2 17:40, 52.2% 23.0c
Tue Jun 2 17:03, 51.9% 23.1c
Tue Jun 2 16:43, 50.8% 23.4c
Tue Jun 2 16:06, 50.0% 23.6c
Tue Jun 2 15:44, 49.1% 23.8c
Tue Jun 2 15:11, 49.5% 24.1c
Tue Jun 2 14:57, 47.4% 24.6c
Tue Jun 2 14:48, 45.5% 25.1c
Tue Jun 2 14:47, 44.6% 25.3c
Tue Jun 2 14:41, 44.1% 25.6c
Tue Jun 2 14:32, 42.4% 26.1c
Tue Jun 2 13:53, 40.8% 26.7c
Tue Jun 2 13:49, 40.6% 26.8c
Tue Jun 2 13:07, 40.6% 27.2c
Tue Jun 2 12:57, 39.9% 26.9c
Tue Jun 2 12:00, 40.9% 26.4c
Tue Jun 2 11:13, 38.9% 26.6c
Tue Jun 2 11:07, 39.0% 26.4c
Tue Jun 2 10:48, 40.6% 26.1c
Tue Jun 2 10:29, 42.2% 25.6c
Tue Jun 2 10:20, 42.1% 25.1c
Tue Jun 2 10:09, 41.6% 24.8c
Tue Jun 2 10:05, 42.4% 24.6c
Tue Jun 2 09:59, 43.5% 24.0c
Tue Jun 2 09:28, 42.5% 23.5c
Tue Jun 2 09:12, 41.8% 23.7c
Tue Jun 2 09:07, 40.4% 24.6c
Tue Jun 2 08:54, 39.4% 25.1c
Tue Jun 2 08:42, 39.8% 24.5c
Tue Jun 2 08:41, 38.8% 25.0c
Tue Jun 2 08:13, 38.6% 25.5c
Tue Jun 2 08:04, 39.5% 25.6c
Tue Jun 2 07:59, 40.2% 25.0c
Tue Jun 2 07:54, 41.0% 24.5c
Tue Jun 2 07:49, 41.7% 24.0c
Tue Jun 2 07:48, 41.0% 24.5c
Tue Jun 2 07:42, 42.0% 24.0c
Tue Jun 2 07:38, 42.7% 23.5c
Tue Jun 2 07:35, 43.7% 23.0c
Tue Jun 2 07:31, 44.8% 22.4c
Tue Jun 2 07:29, 45.5% 21.9c
Tue Jun 2 07:28, 46.5% 21.4c
Tue Jun 2 07:27, 47.4% 20.9c
Tue Jun 2 07:20, 47.9% 20.4c
Tue Jun 2 07:15, 47.0% 20.9c
Tue Jun 2 07:14, 48.0% 20.4c
Tue Jun 2 07:14, 48.2% 20.3c
Tue Jun 2 07:13, 48.8% 19.8c
Tue Jun 2 07:11, 50.0% 19.2c
Tue Jun 2 07:06, 51.0% 18.7c
Tue Jun 2 06:52, 51.1% 18.2c
Tue Jun 2 06:40, 51.8% 17.7c
Tue Jun 2 06:15, 52.8% 16.9c
Tue Jun 2 05:23, 52.8% 16.9c
Tue Jun 2 04:24, 52.4% 17.1c
Tue Jun 2 04:05, 52.3% 17.2c
Tue Jun 2 03:26, 52.1% 17.6c
Tue Jun 2 02:55, 51.8% 17.7c
Tue Jun 2 02:32, 51.4% 18.1c
Tue Jun 2 02:00, 51.1% 18.2c
Tue Jun 2 01:34, 50.7% 18.5c
Tue Jun 2 01:08, 50.0% 18.7c
Tue Jun 2 00:40, 49.9% 19.1c
Tue Jun 2 00:24, 49.8% 19.2c
Mon Jun 1 23:44, 51.3% 19.7c
Mon Jun 1 23:40, 51.4% 19.7c
Mon Jun 1 23:11, 50.9% 20.3c
Mon Jun 1 22:54, 49.7% 20.8c
Mon Jun 1 22:49, 49.3% 20.9c
Mon Jun 1 22:15, 48.8% 21.3c
Mon Jun 1 21:49, 47.8% 21.5c
Mon Jun 1 21:22, 47.0% 21.8c
Mon Jun 1 20:51, 45.7% 22.2c
Mon Jun 1 20:32, 44.7% 22.3c
Mon Jun 1 19:52, 41.2% 22.8c
Mon Jun 1 19:47, 40.9% 22.8c
Mon Jun 1 19:02, 38.4% 23.3c
Mon Jun 1 18:57, 37.9% 23.5c
Mon Jun 1 17:58, 36.8% 23.8c
Mon Jun 1 17:58, 36.6% 23.9c
Mon Jun 1 17:06, 36.4% 24.2c
Mon Jun 1 16:46, 36.5% 24.4c
Mon Jun 1 16:07, 35.9% 24.7c
Mon Jun 1 15:08, 34.3% 24.9c
Mon Jun 1 15:06, 33.7% 24.9c
Mon Jun 1 14:17, 32.4% 25.3c
Mon Jun 1 13:19, 35.0% 25.3c
Mon Jun 1 12:44, 36.4% 25.4c
Mon Jun 1 12:23, 37.0% 25.3c
Mon Jun 1 11:28, 37.8% 25.0c
Mon Jun 1 10:37, 39.3% 24.8c
Mon Jun 1 09:38, 38.7% 24.7c
Mon Jun 1 09:15, 39.7% 24.9c
Mon Jun 1 09:09, 39.0% 25.4c
Mon Jun 1 09:07, 38.1% 25.9c
Mon Jun 1 09:04, 37.0% 26.4c
Mon Jun 1 09:01, 36.3% 26.9c
Mon Jun 1 08:47, 36.3% 27.4c
Mon Jun 1 08:45, 36.1% 27.4c
Mon Jun 1 08:40, 36.7% 26.9c
Mon Jun 1 08:29, 38.0% 26.4c
Mon Jun 1 08:18, 39.2% 25.9c
Mon Jun 1 08:07, 39.5% 25.4c
Mon Jun 1 07:49, 40.2% 25.1c
Mon Jun 1 07:46, 40.6% 24.9c
Mon Jun 1 07:41, 41.3% 24.4c
Mon Jun 1 07:36, 41.9% 23.8c
Mon Jun 1 07:33, 42.6% 23.3c
Mon Jun 1 07:31, 43.5% 22.8c
Mon Jun 1 07:29, 44.4% 22.3c
Mon Jun 1 07:28, 45.4% 21.8c
Mon Jun 1 07:27, 46.3% 21.2c
Mon Jun 1 07:21, 46.7% 20.7c
Mon Jun 1 07:17, 45.7% 21.2c
Mon Jun 1 07:15, 45.0% 21.8c
Mon Jun 1 07:14, 46.0% 21.2c
Mon Jun 1 07:13, 47.0% 20.7c
Mon Jun 1 07:10, 47.8% 20.2c
Mon Jun 1 06:54, 48.8% 19.3c
Mon Jun 1 06:52, 48.2% 19.6c
Mon Jun 1 06:51, 49.2% 19.1c
Mon Jun 1 06:35, 50.0% 18.6c
Mon Jun 1 06:30, 51.0% 18.1c
Mon Jun 1 06:25, 51.8% 17.6c
Mon Jun 1 05:56, 52.1% 17.0c
Mon Jun 1 05:05, 51.6% 17.1c
Mon Jun 1 04:56, 51.4% 17.1c
Mon Jun 1 04:05, 51.0% 17.5c
Mon Jun 1 03:44, 50.8% 17.6c
Mon Jun 1 03:14, 50.7% 17.8c
Mon Jun 1 02:14, 50.8% 18.2c
Mon Jun 1 02:13, 50.8% 18.1c
Mon Jun 1 01:18, 50.1% 18.7c
Mon Jun 1 01:16, 50.3% 18.6c
Mon Jun 1 00:27, 49.7% 19.1c
Mon Jun 1 00:22, 49.5% 19.1c
Sun May 31 23:29, 48.7% 19.7c
Sun May 31 23:29, 48.7% 19.6c
Sun May 31 22:36, 47.6% 20.4c
Sun May 31 22:14, 46.8% 20.7c
Sun May 31 21:39, 46.4% 21.2c
Sun May 31 21:38, 46.3% 21.3c
Sun May 31 21:01, 46.0% 21.7c
Sun May 31 20:41, 45.4% 22.0c
Sun May 31 20:29, 45.3% 22.2c
Sun May 31 20:01, 44.8% 22.7c
Sun May 31 19:51, 44.4% 23.0c
Sun May 31 19:20, 44.0% 23.2c
Sun May 31 18:57, 43.9% 23.4c
Sun May 31 18:39, 43.2% 23.8c
Sun May 31 18:08, 37.1% 24.0c
Sun May 31 18:02, 36.4% 24.2c
Sun May 31 17:09, 36.4% 24.6c
Sun May 31 17:08, 36.4% 24.6c
Sun May 31 16:25, 30.4% 24.6c
Sun May 31 16:11, 30.3% 24.8c
Sun May 31 15:23, 30.2% 25.1c
Sun May 31 15:20, 30.6% 25.3c
Sun May 31 14:25, 27.7% 25.7c
Sun May 31 14:25, 28.2% 25.7c
Sun May 31 14:12, 29.8% 26.2c
Sun May 31 14:00, 30.2% 26.7c
Sun May 31 13:26, 36.2% 26.9c
Sun May 31 12:33, 36.6% 26.7c
Sun May 31 12:12, 36.4% 26.6c
Sun May 31 11:37, 36.7% 26.2c
Sun May 31 11:33, 36.9% 26.1c
Sun May 31 11:01, 37.0% 25.6c
Sun May 31 10:42, 38.5% 25.2c
Sun May 31 10:40, 38.5% 25.1c
Sun May 31 10:07, 37.8% 24.6c
Sun May 31 09:47, 37.9% 25.1c
Sun May 31 09:46, 37.8% 25.1c
Sun May 31 09:38, 37.6% 25.6c
Sun May 31 09:32, 37.0% 26.1c
Sun May 31 09:28, 37.4% 26.7c
Sun May 31 09:24, 36.6% 27.2c
Sun May 31 09:22, 35.8% 27.7c
Sun May 31 09:20, 35.1% 28.2c
Sun May 31 09:19, 34.5% 28.7c
Sun May 31 08:56, 34.6% 29.2c
Sun May 31 08:51, 34.9% 29.0c
Sun May 31 08:44, 35.8% 28.7c
Sun May 31 08:34, 36.4% 28.2c
Sun May 31 08:24, 37.1% 27.7c
Sun May 31 08:16, 38.0% 27.1c
Sun May 31 08:09, 38.8% 26.6c
Sun May 31 08:02, 39.6% 26.1c
Sun May 31 07:58, 40.0% 25.8c
Sun May 31 07:55, 40.6% 25.6c
Sun May 31 07:48, 41.5% 25.1c
Sun May 31 07:43, 42.4% 24.6c
Sun May 31 07:39, 43.3% 24.0c
Sun May 31 07:35, 44.2% 23.5c
Sun May 31 07:32, 45.1% 23.0c
Sun May 31 07:30, 46.0% 22.5c
Sun May 31 07:29, 47.1% 22.0c
Sun May 31 07:28, 48.1% 21.4c
Sun May 31 07:24, 49.0% 20.9c
Sun May 31 07:21, 49.7% 20.3c
Sun May 31 07:17, 48.7% 20.8c
Sun May 31 07:15, 48.0% 21.3c
Sun May 31 07:14, 49.2% 20.8c
Sun May 31 07:13, 50.0% 20.3c
Sun May 31 07:07, 51.5% 19.8c
Sun May 31 07:03, 52.5% 19.2c
Sun May 31 07:03, 52.0% 19.3c
Sun May 31 06:54, 50.1% 20.2c
Sun May 31 06:46, 49.7% 20.7c
Sun May 31 06:43, 51.1% 20.2c
Sun May 31 06:41, 52.2% 19.6c
Sun May 31 06:39, 53.7% 19.1c
Sun May 31 06:35, 54.8% 18.6c
Sun May 31 06:30, 56.3% 18.0c
Sun May 31 06:19, 57.1% 17.5c
Sun May 31 06:09, 57.3% 17.4c
Sun May 31 05:35, 58.4% 17.0c
Sun May 31 05:18, 59.9% 16.5c
Sun May 31 05:16, 60.0% 16.3c
Sun May 31 05:04, 58.7% 16.0c
Sun May 31 04:16, 57.9% 16.3c
Sun May 31 03:30, 57.6% 16.5c
Sun May 31 03:22, 57.4% 16.6c
Sun May 31 02:28, 55.8% 17.0c
Sun May 31 02:27, 55.7% 17.1c
Sun May 31 01:31, 53.8% 17.5c
Sun May 31 01:27, 53.6% 17.5c
Sun May 31 00:41, 52.5% 18.0c
Sun May 31 00:34, 52.0% 18.1c
Sat May 30 23:50, 50.6% 18.6c
Sat May 30 23:41, 50.3% 18.8c
Sat May 30 23:12, 48.9% 19.1c
Sat May 30 22:40, 47.2% 19.6c
Sat May 30 22:21, 45.5% 20.1c
Sat May 30 21:53, 44.0% 20.6c
Sat May 30 21:53, 43.9% 20.7c
Sat May 30 21:19, 43.2% 21.2c
Sat May 30 20:58, 42.9% 21.6c
Sat May 30 20:48, 42.8% 21.7c
Sat May 30 20:04, 41.6% 22.0c
Sat May 30 19:47, 40.9% 22.2c
Sat May 30 19:20, 40.2% 22.7c
Sat May 30 19:06, 40.3% 22.9c
Sat May 30 18:40, 40.1% 23.2c
Sat May 30 18:14, 40.0% 23.7c
Sat May 30 18:10, 39.7% 23.7c
Sat May 30 17:33, 40.5% 24.2c
Sat May 30 17:23, 40.1% 24.5c
Sat May 30 16:56, 39.0% 24.8c
Sat May 30 16:28, 37.9% 25.2c
Sat May 30 16:24, 37.5% 25.3c
Sat May 30 15:36, 34.1% 25.7c
Sat May 30 14:39, 34.2% 25.9c
Sat May 30 13:41, 33.5% 25.9c
Sat May 30 13:35, 33.5% 25.8c
Sat May 30 12:48, 34.2% 25.3c
Sat May 30 12:47, 33.8% 25.3c
Sat May 30 11:57, 33.9% 25.3c
Sat May 30 11:30, 31.3% 25.8c
Sat May 30 11:23, 33.6% 26.3c
Sat May 30 11:00, 34.1% 27.1c
Sat May 30 10:41, 36.1% 26.8c
Sat May 30 10:24, 35.7% 26.3c
Sat May 30 10:10, 34.9% 25.8c
Sat May 30 10:07, 34.1% 25.5c
Sat May 30 09:23, 35.1% 25.2c
Sat May 30 09:16, 34.8% 25.6c
Sat May 30 09:15, 34.6% 25.8c
Sat May 30 09:12, 35.0% 26.2c
Sat May 30 09:11, 34.7% 26.8c
Sat May 30 09:08, 34.0% 27.3c
Sat May 30 08:52, 35.2% 27.8c
Sat May 30 08:45, 35.8% 27.3c
Sat May 30 08:42, 36.1% 26.7c
Sat May 30 08:38, 36.5% 26.2c
Sat May 30 08:29, 37.2% 25.7c
Sat May 30 08:17, 38.3% 25.2c
Sat May 30 08:17, 38.0% 25.1c
Sat May 30 08:10, 38.9% 24.7c
Sat May 30 08:01, 40.6% 24.2c
Sat May 30 07:50, 42.4% 23.7c
Sat May 30 07:43, 44.8% 23.2c
Sat May 30 07:37, 45.8% 22.6c
Sat May 30 07:34, 46.9% 22.1c
Sat May 30 07:30, 48.5% 21.6c
Sat May 30 07:29, 49.2% 21.1c
Sat May 30 07:28, 50.2% 20.6c
Sat May 30 07:26, 51.7% 20.1c
Sat May 30 07:22, 53.0% 19.3c
Sat May 30 07:18, 52.0% 19.5c
Sat May 30 07:17, 50.8% 20.1c
Sat May 30 07:15, 50.1% 20.6c
Sat May 30 07:14, 51.4% 20.1c
Sat May 30 07:13, 52.4% 19.6c
Sat May 30 07:06, 53.6% 19.1c
Sat May 30 07:02, 54.3% 18.5c
Sat May 30 06:55, 52.6% 19.0c
Sat May 30 06:51, 51.9% 19.6c
Sat May 30 06:50, 53.0% 19.0c
Sat May 30 06:47, 54.1% 18.5c
Sat May 30 06:37, 55.2% 17.9c
Sat May 30 06:23, 56.1% 17.3c
Sat May 30 05:25, 55.4% 17.2c
Sat May 30 04:44, 54.8% 17.4c
Sat May 30 04:28, 54.6% 17.6c
Sat May 30 03:46, 53.8% 17.9c
Sat May 30 03:37, 53.9% 18.0c
Sat May 30 02:47, 53.0% 18.4c
Sat May 30 02:42, 53.2% 18.5c
Sat May 30 01:53, 52.5% 18.9c
Sat May 30 01:50, 52.8% 19.0c
Sat May 30 00:59, 53.9% 19.4c
Sat May 30 00:54, 54.0% 19.5c
Sat May 30 00:06, 53.7% 19.9c
Fri May 29 23:56, 53.6% 20.1c
Fri May 29 23:28, 53.1% 20.4c
Fri May 29 22:57, 52.8% 21.0c
Fri May 29 22:55, 52.9% 20.9c
Fri May 29 22:31, 53.4% 21.4c
Fri May 29 21:59, 52.0% 21.8c
Fri May 29 21:31, 51.1% 22.0c
Fri May 29 21:01, 50.3% 22.2c
Fri May 29 20:46, 48.1% 22.5c
Fri May 29 20:12, 48.8% 23.0c
Fri May 29 20:09, 48.6% 23.1c
Fri May 29 19:16, 48.5% 23.4c
Fri May 29 18:43, 45.9% 23.5c
Fri May 29 18:21, 46.1% 23.8c
Fri May 29 17:38, 46.5% 24.0c
Fri May 29 17:28, 46.5% 24.1c
Fri May 29 15:41, 45.4% 24.7c
Fri May 29 13:50, 44.8% 25.2c
Fri May 29 13:00, 44.9% 25.3c
Fri May 29 12:08, 45.7% 25.2c
Fri May 29 11:10, 45.9% 25.2c
Fri May 29 10:13, 44.3% 25.0c
Fri May 29 09:18, 45.2% 25.0c
Fri May 29 09:05, 45.8% 25.0c
Fri May 29 08:54, 44.7% 25.6c
Fri May 29 08:52, 43.7% 26.1c
Fri May 29 08:50, 42.8% 26.6c
Fri May 29 08:30, 41.9% 27.1c
Fri May 29 08:26, 42.3% 26.8c
Fri May 29 08:22, 42.5% 26.6c
Fri May 29 08:17, 43.5% 26.1c
Fri May 29 08:11, 44.0% 25.6c
Fri May 29 08:08, 43.3% 26.1c
Fri May 29 08:01, 44.2% 25.6c
Fri May 29 07:54, 44.9% 25.1c
Fri May 29 07:47, 46.2% 24.6c
Fri May 29 07:42, 46.8% 24.1c
Fri May 29 07:37, 48.0% 23.5c
Fri May 29 07:32, 49.0% 23.0c
Fri May 29 07:30, 50.3% 22.5c
Fri May 29 07:28, 51.2% 22.0c
Fri May 29 07:25, 51.9% 21.4c
Fri May 29 07:18, 52.6% 20.9c
Fri May 29 07:14, 51.9% 21.4c
Fri May 29 07:13, 53.1% 20.9c
Fri May 29 07:06, 54.1% 20.4c
Fri May 29 06:55, 53.7% 19.9c
Fri May 29 06:49, 52.5% 20.4c
Fri May 29 06:47, 51.5% 20.9c
Fri May 29 06:43, 52.4% 20.4c
Fri May 29 06:40, 53.4% 19.8c
Fri May 29 06:37, 54.3% 19.3c
Fri May 29 06:32, 55.2% 18.8c
Fri May 29 06:28, 55.7% 18.4c
Fri May 29 06:26, 55.9% 18.2c
Fri May 29 05:34, 56.3% 17.6c
Fri May 29 04:47, 56.4% 17.7c
Fri May 29 04:38, 56.4% 17.8c
Fri May 29 03:40, 56.7% 18.1c
Fri May 29 03:24, 56.7% 18.2c
Fri May 29 02:41, 56.9% 18.5c
Fri May 29 02:03, 57.3% 18.8c
Fri May 29 01:46, 57.5% 18.9c
Fri May 29 00:55, 58.4% 19.3c
Fri May 29 00:46, 58.5% 19.4c
Fri May 29 00:00, 60.3% 19.8c
Thu May 28 23:47, 60.7% 20.0c
Thu May 28 22:53, 61.1% 20.3c
Thu May 28 22:52, 61.1% 20.3c
Thu May 28 22:14, 60.3% 20.8c
Thu May 28 22:01, 59.8% 21.0c
Thu May 28 21:37, 57.8% 21.3c
Thu May 28 21:09, 56.8% 21.8c
Thu May 28 20:55, 57.4% 21.8c
Thu May 28 20:17, 54.8% 22.2c
Thu May 28 19:58, 53.1% 22.4c
Thu May 28 19:24, 53.4% 22.7c
Thu May 28 18:39, 51.8% 22.9c
Thu May 28 18:31, 51.7% 23.0c
Thu May 28 17:48, 48.3% 23.4c
Thu May 28 17:32, 47.3% 23.7c
Thu May 28 16:40, 45.6% 23.9c
Thu May 28 16:40, 45.7% 23.9c
Thu May 28 15:48, 45.0% 24.2c
Thu May 28 14:48, 43.9% 24.6c
Thu May 28 14:03, 44.9% 24.4c
Thu May 28 13:51, 45.1% 23.9c
Thu May 28 13:49, 45.3% 23.9c
Thu May 28 12:57, 44.6% 23.8c
Thu May 28 11:58, 45.3% 23.7c
Thu May 28 11:11, 47.0% 23.4c
Thu May 28 11:01, 46.1% 23.2c
Thu May 28 10:27, 47.0% 22.9c
Thu May 28 10:09, 47.1% 22.6c
Thu May 28 09:11, 46.2% 22.2c
Thu May 28 08:58, 45.7% 22.4c
Thu May 28 08:53, 44.6% 22.9c
Thu May 28 08:51, 43.6% 23.4c
Thu May 28 08:47, 42.5% 23.9c
Thu May 28 08:38, 41.4% 24.4c
Thu May 28 08:26, 42.2% 23.9c
Thu May 28 08:21, 42.5% 23.4c
Thu May 28 08:20, 42.0% 24.0c
Thu May 28 08:19, 42.0% 24.3c
Thu May 28 08:09, 44.1% 24.5c
Thu May 28 08:01, 44.8% 24.0c
Thu May 28 07:49, 44.8% 23.5c
Thu May 28 07:44, 45.3% 23.0c
Thu May 28 07:39, 46.0% 22.5c
Thu May 28 07:34, 46.9% 21.9c
Thu May 28 07:32, 47.8% 21.4c
Thu May 28 07:30, 48.8% 20.9c
Thu May 28 07:28, 49.9% 20.4c
Thu May 28 07:24, 50.7% 19.9c
Thu May 28 07:14, 50.8% 19.8c
Thu May 28 07:13, 51.9% 19.3c
Thu May 28 07:06, 52.4% 18.8c
Thu May 28 07:02, 51.5% 18.2c
Thu May 28 06:55, 51.3% 18.7c
Thu May 28 06:53, 52.7% 19.3c
Thu May 28 06:52, 53.8% 18.7c
Thu May 28 06:51, 54.9% 18.2c
Thu May 28 06:31, 57.4% 17.7c
Thu May 28 06:29, 57.8% 17.5c
Thu May 28 06:19, 58.4% 17.2c
Thu May 28 05:37, 58.4% 16.9c
Thu May 28 04:42, 56.0% 16.5c
Thu May 28 03:52, 55.9% 16.7c
Thu May 28 03:49, 56.0% 16.7c
Thu May 28 02:55, 55.9% 17.0c
Thu May 28 02:07, 55.9% 17.2c
Thu May 28 02:01, 55.9% 17.3c
Thu May 28 01:07, 55.6% 17.7c
Thu May 28 01:00, 55.5% 17.7c
Thu May 28 00:09, 55.4% 18.1c
Wed May 27 23:13, 55.2% 18.2c
Wed May 27 23:09, 55.2% 18.3c
Wed May 27 22:12, 56.5% 18.7c
Wed May 27 22:10, 56.5% 18.8c
Wed May 27 21:27, 57.8% 19.2c
Wed May 27 21:18, 57.6% 19.4c
Wed May 27 20:36, 55.8% 19.7c
Wed May 27 20:23, 55.1% 20.0c
Wed May 27 19:29, 50.5% 20.2c
Wed May 27 19:16, 49.9% 20.2c
Wed May 27 18:33, 48.1% 20.8c
Wed May 27 18:31, 48.2% 20.8c
Wed May 27 17:40, 46.0% 21.3c
Wed May 27 17:35, 46.3% 21.3c
Wed May 27 16:45, 45.5% 21.6c
Wed May 27 16:26, 44.5% 21.8c
Wed May 27 15:49, 45.1% 22.2c
Wed May 27 15:36, 44.3% 22.3c
Wed May 27 15:09, 44.4% 22.8c
Wed May 27 15:00, 44.9% 23.3c
Wed May 27 14:56, 46.2% 23.8c
Wed May 27 14:54, 48.8% 24.4c
Wed May 27 14:49, 53.3% 24.4c
Wed May 27 14:22, 55.0% 24.7c
Wed May 27 14:10, 54.4% 24.2c
Wed May 27 13:59, 53.9% 24.0c
Wed May 27 13:44, 54.6% 23.7c
Wed May 27 13:32, 55.1% 23.2c
Wed May 27 13:24, 55.4% 22.7c
Wed May 27 13:15, 53.8% 22.2c
Wed May 27 13:00, 54.6% 21.8c
Wed May 27 12:50, 55.3% 21.7c
Wed May 27 12:01, 54.0% 21.3c
Wed May 27 11:56, 54.8% 21.2c
Wed May 27 11:43, 53.4% 20.6c
Wed May 27 11:24, 54.5% 20.1c
Wed May 27 11:03, 54.2% 19.6c
Wed May 27 11:01, 54.2% 19.5c
Wed May 27 10:13, 54.7% 19.1c
Wed May 27 10:08, 55.5% 18.9c

s2 Liv-Room HT
Wed Jun 3 12:28, 47.8% 21.5c

Wed Jun 3 12:28, 47.8% 21.5c
Wed Jun 3 11:35, 47.8% 21.4c
Wed Jun 3 10:36, 50.3% 21.5c
Wed Jun 3 09:37, 53.3% 21.4c
Wed Jun 3 08:43, 50.7% 21.3c
Wed Jun 3 07:50, 50.6% 21.3c
Wed Jun 3 06:58, 50.7% 21.4c
Wed Jun 3 06:03, 50.7% 21.5c
Wed Jun 3 05:05, 50.2% 21.7c
Wed Jun 3 05:02, 50.3% 21.6c
Wed Jun 3 04:13, 50.6% 21.8c
Wed Jun 3 03:20, 50.8% 22.0c
Wed Jun 3 02:24, 51.1% 22.1c
Wed Jun 3 02:19, 51.2% 22.1c
Wed Jun 3 01:28, 51.3% 22.3c
Wed Jun 3 00:33, 51.8% 22.4c
Tue Jun 2 23:40, 52.4% 22.6c
Tue Jun 2 22:45, 53.1% 22.8c
Tue Jun 2 21:54, 54.2% 22.8c
Tue Jun 2 21:00, 54.7% 22.8c
Tue Jun 2 20:08, 53.8% 22.7c
Tue Jun 2 19:15, 53.6% 22.6c
Tue Jun 2 19:10, 53.3% 22.6c
Tue Jun 2 18:14, 51.9% 22.5c
Tue Jun 2 17:21, 52.0% 22.4c
Tue Jun 2 16:21, 52.9% 22.3c
Tue Jun 2 15:22, 52.8% 21.8c
Tue Jun 2 14:27, 49.4% 22.1c
Tue Jun 2 14:12, 48.5% 22.1c
Tue Jun 2 13:34, 47.1% 22.1c
Tue Jun 2 12:42, 46.5% 21.9c
Tue Jun 2 11:47, 44.6% 21.9c
Tue Jun 2 10:47, 44.7% 21.8c
Tue Jun 2 09:52, 45.3% 21.7c
Tue Jun 2 08:58, 43.1% 21.7c
Tue Jun 2 08:07, 43.0% 21.8c
Tue Jun 2 07:37, 42.5% 21.8c
Tue Jun 2 07:07, 42.4% 21.9c
Tue Jun 2 06:09, 42.5% 22.1c
Tue Jun 2 05:17, 42.5% 22.2c
Tue Jun 2 04:42, 42.5% 22.3c
Tue Jun 2 04:27, 42.3% 22.4c
Tue Jun 2 03:27, 42.3% 22.6c
Tue Jun 2 02:36, 42.2% 22.8c
Tue Jun 2 02:10, 42.1% 22.8c
Tue Jun 2 01:43, 42.1% 23.0c
Tue Jun 2 00:43, 42.4% 23.1c
Tue Jun 2 00:11, 42.3% 23.3c
Mon Jun 1 23:47, 42.5% 23.5c
Mon Jun 1 22:50, 41.9% 23.6c
Mon Jun 1 22:32, 41.4% 23.8c
Mon Jun 1 21:57, 41.6% 24.3c
Mon Jun 1 21:03, 40.6% 24.6c
Mon Jun 1 20:07, 37.9% 24.7c
Mon Jun 1 19:14, 36.6% 24.3c
Mon Jun 1 19:08, 36.2% 24.2c
Mon Jun 1 18:08, 36.2% 23.7c
Mon Jun 1 17:56, 36.2% 23.8c
Mon Jun 1 17:15, 36.3% 23.5c
Mon Jun 1 16:17, 36.9% 23.3c
Mon Jun 1 15:29, 35.8% 23.3c
Mon Jun 1 15:19, 35.5% 23.2c
Mon Jun 1 14:19, 34.8% 23.0c
Mon Jun 1 13:35, 37.4% 22.8c
Mon Jun 1 13:19, 38.7% 22.7c
Mon Jun 1 12:25, 42.0% 22.3c
Mon Jun 1 12:21, 42.1% 22.3c
Mon Jun 1 11:34, 41.5% 21.9c
Mon Jun 1 11:00, 43.0% 21.8c
Mon Jun 1 10:39, 44.2% 21.6c
Mon Jun 1 09:43, 43.8% 21.2c
Mon Jun 1 08:50, 44.5% 21.0c
Mon Jun 1 07:50, 43.5% 21.3c
Mon Jun 1 07:38, 43.3% 21.3c
Mon Jun 1 06:54, 43.1% 21.5c
Mon Jun 1 05:54, 42.1% 21.6c
Mon Jun 1 04:59, 41.9% 21.8c
Mon Jun 1 04:41, 41.9% 21.8c
Mon Jun 1 04:03, 41.7% 22.0c
Mon Jun 1 03:10, 42.7% 22.3c
Mon Jun 1 02:19, 43.0% 22.3c
Mon Jun 1 01:46, 42.8% 22.3c
Mon Jun 1 01:28, 42.8% 22.4c
Mon Jun 1 00:31, 42.9% 22.6c
Sun May 31 23:35, 42.9% 22.8c
Sun May 31 23:20, 43.0% 22.8c
Sun May 31 22:43, 42.5% 23.0c
Sun May 31 21:48, 42.4% 23.2c
Sun May 31 20:52, 41.1% 23.6c
Sun May 31 19:55, 41.8% 23.3c
Sun May 31 18:57, 42.5% 23.3c
Sun May 31 18:55, 42.6% 23.3c
Sun May 31 17:59, 36.6% 23.0c
Sun May 31 17:46, 37.0% 22.8c
Sun May 31 17:05, 37.2% 22.4c
Sun May 31 16:42, 34.5% 22.3c
Sun May 31 16:08, 33.0% 22.1c
Sun May 31 15:13, 33.8% 21.9c
Sun May 31 14:28, 33.3% 21.8c
Sun May 31 14:16, 35.6% 21.6c
Sun May 31 13:55, 39.3% 21.4c
Sun May 31 13:18, 44.4% 21.2c
Sun May 31 12:22, 44.4% 21.0c
Sun May 31 11:28, 44.0% 20.9c
Sun May 31 10:37, 43.8% 20.7c
Sun May 31 09:45, 44.2% 20.9c
Sun May 31 09:32, 45.3% 21.1c
Sun May 31 08:54, 46.2% 21.0c
Sun May 31 08:00, 46.2% 20.7c
Sun May 31 07:04, 45.6% 20.6c
Sun May 31 06:50, 45.7% 20.6c
Sun May 31 06:07, 45.5% 20.7c
Sun May 31 05:10, 44.9% 20.9c
Sun May 31 04:12, 44.5% 21.1c
Sun May 31 03:47, 44.4% 21.1c
Sun May 31 03:15, 44.2% 21.3c
Sun May 31 02:16, 43.5% 21.6c
Sun May 31 01:51, 43.2% 21.7c
Sun May 31 01:23, 42.8% 21.8c
Sun May 31 00:25, 42.1% 22.1c
Sun May 31 00:08, 41.9% 22.2c
Sat May 30 23:32, 41.6% 22.4c
Sat May 30 22:33, 40.3% 22.4c
Sat May 30 22:11, 39.0% 22.7c
Sat May 30 21:35, 38.5% 23.2c
Sat May 30 20:37, 38.3% 23.9c
Sat May 30 19:43, 37.8% 23.9c
Sat May 30 18:50, 40.4% 23.7c
Sat May 30 17:50, 41.7% 23.2c
Sat May 30 17:47, 41.6% 23.2c
Sat May 30 16:51, 41.7% 22.6c
Sat May 30 16:48, 41.7% 22.7c
Sat May 30 15:59, 41.2% 22.4c
Sat May 30 15:01, 41.0% 22.4c
Sat May 30 14:02, 39.1% 22.1c
Sat May 30 13:17, 37.3% 22.2c
Sat May 30 13:02, 37.7% 22.0c
Sat May 30 12:03, 38.7% 21.9c
Sat May 30 11:30, 39.7% 21.7c
Sat May 30 11:07, 40.7% 21.4c
Sat May 30 10:08, 36.9% 21.2c
Sat May 30 09:19, 39.5% 21.2c
Sat May 30 09:14, 41.8% 21.2c
Sat May 30 08:18, 44.5% 21.1c
Sat May 30 07:22, 45.6% 21.3c
Sat May 30 07:14, 45.5% 21.3c
Sat May 30 06:30, 45.7% 21.7c
Sat May 30 05:38, 45.7% 21.8c
Sat May 30 05:30, 45.7% 21.8c
Sat May 30 04:42, 45.8% 22.1c
Sat May 30 03:49, 45.9% 22.4c
Sat May 30 03:40, 45.9% 22.4c
Sat May 30 02:49, 46.5% 22.6c
Sat May 30 02:00, 46.9% 22.9c
Sat May 30 01:55, 47.0% 22.9c
Sat May 30 00:58, 47.2% 23.2c
Sat May 30 00:20, 47.3% 23.4c
Fri May 29 23:58, 47.3% 23.5c
Fri May 29 22:58, 47.2% 23.8c
Fri May 29 22:03, 46.0% 23.9c
Fri May 29 21:11, 44.5% 24.4c
Fri May 29 21:03, 43.8% 24.6c
Fri May 29 20:08, 41.4% 24.9c
Fri May 29 20:05, 41.2% 24.9c
Fri May 29 19:17, 41.9% 24.4c
Fri May 29 19:11, 42.3% 24.3c
Fri May 29 18:22, 43.5% 23.9c
Fri May 29 18:12, 43.7% 23.7c
Fri May 29 17:30, 45.3% 23.4c
Fri May 29 17:13, 46.3% 23.2c
Fri May 29 16:17, 46.8% 22.9c
Fri May 29 16:05, 47.3% 22.9c
Fri May 29 15:20, 46.7% 22.7c
Fri May 29 14:21, 47.9% 22.5c
Fri May 29 13:34, 48.3% 22.4c
Fri May 29 13:22, 48.7% 22.3c
Fri May 29 12:26, 49.6% 22.3c
Fri May 29 11:26, 50.2% 22.1c
Fri May 29 09:51, 49.9% 21.9c
Fri May 29 09:32, 49.6% 21.7c
Fri May 29 08:38, 50.9% 21.3c
Fri May 29 07:45, 50.1% 21.0c
Fri May 29 06:51, 50.4% 21.1c
Fri May 29 05:56, 50.7% 21.2c
Fri May 29 05:02, 51.0% 21.3c
Fri May 29 04:39, 51.0% 21.3c
Fri May 29 04:08, 51.1% 21.5c
Fri May 29 03:07, 51.3% 21.8c
Fri May 29 02:31, 51.4% 21.9c
Fri May 29 02:07, 51.5% 22.0c
Fri May 29 01:07, 51.7% 22.3c
Fri May 29 00:51, 51.6% 22.4c
Fri May 29 00:07, 52.5% 22.6c
Thu May 28 23:15, 52.4% 22.7c
Thu May 28 22:18, 53.0% 22.8c
Thu May 28 21:24, 51.5% 22.9c
Thu May 28 20:28, 51.7% 23.2c
Thu May 28 19:36, 51.5% 23.0c
Thu May 28 19:13, 51.1% 22.9c
Thu May 28 18:44, 50.3% 22.5c
Thu May 28 18:22, 50.5% 22.4c
Thu May 28 17:47, 49.2% 22.1c
Thu May 28 16:55, 49.0% 21.8c
Thu May 28 16:49, 48.9% 21.8c
Thu May 28 15:55, 49.1% 21.4c
Thu May 28 14:58, 49.0% 21.3c
Thu May 28 14:43, 49.0% 21.3c
Thu May 28 13:58, 50.0% 21.3c
Thu May 28 13:02, 49.0% 21.0c
Thu May 28 12:06, 48.3% 20.8c
Thu May 28 12:02, 48.5% 20.8c
Thu May 28 11:10, 50.1% 20.6c
Thu May 28 10:15, 50.4% 20.5c
Thu May 28 09:59, 54.5% 20.5c
Thu May 28 09:19, 48.2% 20.2c
Thu May 28 08:22, 49.1% 20.6c
Thu May 28 07:27, 47.8% 20.4c
Thu May 28 06:29, 48.0% 20.3c
Thu May 28 05:37, 47.7% 20.2c
Thu May 28 04:36, 48.4% 20.4c
Thu May 28 04:29, 48.5% 20.4c
Thu May 28 03:37, 48.5% 20.6c
Thu May 28 02:40, 48.7% 20.8c
Thu May 28 02:06, 48.7% 20.9c
Thu May 28 01:45, 48.9% 21.0c
Thu May 28 00:54, 49.3% 21.2c
Thu May 28 00:04, 49.5% 21.4c
Thu May 28 00:02, 49.4% 21.4c
Wed May 27 23:02, 50.1% 21.8c
Wed May 27 22:05, 50.2% 21.9c
Wed May 27 21:09, 50.5% 22.1c
Wed May 27 20:13, 47.9% 22.2c
Wed May 27 19:18, 47.1% 21.9c
Wed May 27 18:34, 45.3% 21.4c
Wed May 27 18:28, 45.3% 21.3c
Wed May 27 17:45, 44.5% 20.9c
Wed May 27 17:35, 45.3% 20.7c
Wed May 27 16:39, 45.8% 20.3c
Wed May 27 16:38, 45.8% 20.3c
Wed May 27 15:45, 46.6% 20.0c
Wed May 27 14:46, 49.1% 20.0c
Wed May 27 13:50, 49.4% 19.9c
Wed May 27 12:05, 49.5% 19.8c
Wed May 27 11:11, 49.3% 19.8c
Wed May 27 10:18, 51.5% 19.7c
Wed May 27 09:20, 51.9% 19.6c
Wed May 27 08:29, 54.6% 19.7c
Wed May 27 07:31, 52.4% 19.8c
Wed May 27 06:36, 51.0% 19.7c
Wed May 27 05:45, 50.9% 19.5c
Wed May 27 04:46, 50.7% 19.6c
Wed May 27 03:51, 50.5% 19.8c
Wed May 27 03:27, 50.4% 19.8c
Wed May 27 02:59, 50.3% 20.0c
Wed May 27 02:01, 50.0% 20.2c
Wed May 27 01:06, 49.5% 20.3c
Wed May 27 00:44, 49.5% 20.3c
Wed May 27 00:07, 49.0% 20.5c
Tue May 26 23:10, 48.1% 20.6c
Tue May 26 22:11, 46.9% 20.7c
Tue May 26 21:36, 46.8% 20.9c
Tue May 26 21:16, 46.5% 21.1c
Tue May 26 20:26, 45.4% 21.1c
Tue May 26 19:29, 50.6% 21.4c
Tue May 26 19:23, 50.7% 21.4c
Tue May 26 18:44, 52.1% 20.9c
Tue May 26 18:38, 52.2% 20.7c
Tue May 26 17:57, 50.6% 20.3c
Tue May 26 17:45, 50.4% 20.2c
Tue May 26 16:49, 48.6% 20.0c
Tue May 26 15:53, 51.9% 20.0c
Tue May 26 14:54, 52.5% 19.9c
Tue May 26 13:55, 52.8% 19.6c
Tue May 26 13:07, 52.5% 19.8c
Tue May 26 13:02, 52.3% 19.9c
Tue May 26 12:07, 56.9% 20.2c
Tue May 26 11:10, 57.2% 20.4c
Tue May 26 10:54, 56.9% 20.4c
Tue May 26 10:15, 57.0% 20.1c
Tue May 26 09:21, 56.9% 19.9c
Tue May 26 08:25, 55.6% 19.9c
Tue May 26 07:31, 54.8% 20.1c
Tue May 26 06:36, 53.0% 20.2c
Tue May 26 05:54, 53.2% 19.8c
Tue May 26 05:42, 53.3% 20.0c
Tue May 26 04:50, 53.3% 20.1c
Tue May 26 03:52, 53.2% 20.3c
Tue May 26 03:28, 53.4% 20.3c
Tue May 26 02:53, 53.8% 20.5c
Tue May 26 02:02, 53.9% 20.6c
Tue May 26 01:02, 52.9% 20.7c
Tue May 26 00:14, 53.1% 20.9c
Tue May 26 00:10, 53.1% 20.9c
Mon May 25 23:12, 53.4% 21.2c
Mon May 25 22:44, 53.8% 21.4c
Mon May 25 22:17, 54.5% 21.6c
Mon May 25 21:22, 55.1% 21.6c
Mon May 25 20:26, 54.3% 21.8c
Mon May 25 19:29, 53.6% 22.1c
Mon May 25 18:29, 49.6% 22.0c
Mon May 25 17:44, 53.4% 21.9c
Mon May 25 17:33, 53.4% 21.7c
Mon May 25 16:41, 53.9% 21.4c
Mon May 25 16:38, 53.9% 21.4c
Mon May 25 15:49, 53.9% 20.8c
Mon May 25 15:49, 54.0% 20.9c
Mon May 25 14:57, 53.7% 20.5c
Mon May 25 14:04, 55.2% 20.3c
Mon May 25 13:38, 56.1% 20.4c
Mon May 25 13:07, 58.1% 20.1c
Mon May 25 12:11, 55.4% 20.0c
Mon May 25 11:18, 55.8% 20.0c
Mon May 25 10:18, 56.6% 19.9c
Mon May 25 09:22, 58.2% 19.8c
Mon May 25 08:24, 56.1% 19.8c
Mon May 25 07:24, 54.3% 19.8c
Mon May 25 06:28, 54.0% 19.7c
Mon May 25 05:34, 54.0% 19.7c
Mon May 25 04:39, 54.1% 19.8c
Mon May 25 04:21, 54.2% 19.9c
Mon May 25 03:44, 54.2% 20.1c
Mon May 25 02:45, 54.4% 20.4c
Mon May 25 02:32, 54.6% 20.4c
Mon May 25 01:51, 54.7% 20.6c
Mon May 25 01:00, 55.1% 20.9c
Mon May 25 00:53, 55.2% 20.9c
Sun May 24 23:54, 55.9% 21.3c
Sun May 24 23:02, 55.7% 21.5c
Sun May 24 22:06, 56.3% 21.6c
Sun May 24 21:07, 56.8% 21.6c
Sun May 24 20:15, 56.9% 21.8c
Sun May 24 19:20, 58.9% 21.4c
Sun May 24 19:15, 59.0% 21.3c
Sun May 24 18:15, 54.4% 21.0c
Sun May 24 17:17, 53.1% 21.0c
Sun May 24 16:17, 52.3% 20.9c
Sun May 24 15:27, 55.3% 20.8c
Sun May 24 15:25, 55.4% 20.9c
Sun May 24 14:57, 56.6% 20.4c
Sun May 24 14:30, 56.6% 20.2c
Sun May 24 13:30, 58.6% 20.1c
Sun May 24 12:38, 55.0% 20.0c
Sun May 24 11:40, 56.1% 20.2c
Sun May 24 10:45, 56.7% 19.7c
Sun May 24 09:46, 55.1% 19.8c
Sun May 24 09:09, 53.7% 19.9c
Sun May 24 08:51, 53.1% 20.0c
Sun May 24 07:52, 51.9% 20.2c
Sun May 24 06:56, 50.9% 20.5c
Sun May 24 06:45, 51.2% 20.4c
Sun May 24 06:34, 52.0% 19.9c
Sun May 24 06:03, 51.8% 19.3c
Sun May 24 05:13, 51.4% 19.3c
Sun May 24 05:11, 51.4% 19.4c
Sun May 24 04:17, 51.0% 19.6c
Sun May 24 03:25, 50.7% 19.8c
Sun May 24 03:10, 50.7% 19.9c
Sun May 24 02:28, 50.4% 20.1c
Sun May 24 01:37, 50.0% 20.4c
Sun May 24 01:28, 50.0% 20.5c
Sun May 24 00:30, 49.5% 20.9c
Sun May 24 00:29, 49.4% 20.9c
Sat May 23 23:38, 50.1% 21.5c
Sat May 23 23:04, 50.9% 21.4c
Sat May 23 22:48, 51.3% 20.9c
Sat May 23 21:55, 52.1% 21.0c
Sat May 23 21:02, 51.2% 21.0c
Sat May 23 20:10, 52.4% 21.1c
Sat May 23 19:18, 54.2% 21.0c
Sat May 23 18:41, 54.5% 20.9c
Sat May 23 18:22, 50.5% 20.9c
Sat May 23 17:27, 50.3% 20.8c
Sat May 23 16:36, 52.5% 20.6c
Sat May 23 15:39, 53.1% 20.5c
Sat May 23 14:44, 52.6% 20.2c
Sat May 23 13:47, 52.1% 20.2c
Sat May 23 12:49, 51.1% 20.2c
Sat May 23 11:56, 50.6% 20.4c
Sat May 23 11:04, 51.2% 20.4c
Sat May 23 10:11, 49.4% 20.4c
Sat May 23 09:11, 49.0% 20.2c
Sat May 23 08:12, 49.1% 20.6c
Sat May 23 07:15, 47.7% 21.0c
Sat May 23 06:38, 48.3% 20.6c
Sat May 23 06:22, 48.9% 19.9c
Sat May 23 05:24, 49.1% 20.0c
Sat May 23 04:51, 49.1% 20.0c
Sat May 23 04:33, 49.2% 20.2c
Sat May 23 03:34, 49.4% 20.5c
Sat May 23 03:05, 49.5% 20.6c
Sat May 23 02:38, 49.8% 20.7c
Sat May 23 01:38, 50.1% 21.1c
Sat May 23 01:37, 50.2% 21.1c
Sat May 23 00:44, 50.9% 21.6c
Sat May 23 00:27, 50.9% 21.6c
Fri May 22 23:45, 50.9% 21.8c
Fri May 22 22:49, 51.8% 22.1c
Fri May 22 22:11, 51.9% 22.1c
Fri May 22 21:59, 51.6% 22.2c
Fri May 22 21:04, 51.4% 22.4c
Fri May 22 20:07, 50.7% 22.6c
Fri May 22 19:37, 50.2% 22.6c
Fri May 22 19:10, 51.1% 22.6c
Fri May 22 18:16, 50.3% 22.2c
Fri May 22 17:36, 49.4% 22.1c
Fri May 22 04:06, 51.4% 20.5c
Fri May 22 03:35, 50.7% 20.5c
Fri May 22 03:11, 50.2% 20.6c
Fri May 22 02:12, 49.2% 20.9c
Fri May 22 01:21, 49.2% 21.0c
Fri May 22 00:59, 49.7% 21.1c
Fri May 22 00:21, 50.3% 21.3c
Thu May 21 23:27, 52.0% 21.6c
Thu May 21 22:33, 52.4% 21.6c
Thu May 21 21:42, 53.8% 21.6c
Thu May 21 20:52, 51.9% 21.5c
Thu May 21 19:57, 51.9% 21.8c
Thu May 21 18:57, 48.3% 21.8c
Thu May 21 18:02, 50.5% 21.6c
Thu May 21 17:49, 51.4% 21.6c
Thu May 21 17:10, 52.0% 21.1c
Thu May 21 17:07, 51.9% 20.9c
Thu May 21 16:10, 52.1% 20.5c
Thu May 21 15:12, 52.0% 20.5c
Thu May 21 15:10, 51.9% 20.6c
Thu May 21 14:19, 51.7% 20.7c
Thu May 21 13:24, 52.2% 20.9c
Thu May 21 12:28, 53.2% 21.0c
Thu May 21 11:34, 52.6% 20.8c
Thu May 21 10:38, 52.7% 20.8c
Thu May 21 09:42, 52.4% 21.0c
Thu May 21 08:49, 50.7% 21.1c
Thu May 21 07:55, 50.5% 21.1c
Thu May 21 06:55, 50.0% 21.2c
Thu May 21 06:00, 49.4% 20.8c
Thu May 21 05:09, 49.7% 21.0c
Thu May 21 04:50, 49.6% 21.1c
Thu May 21 04:17, 49.8% 21.2c
Thu May 21 03:17, 50.0% 21.5c
Thu May 21 02:57, 50.0% 21.6c
Thu May 21 02:25, 50.0% 21.8c
Thu May 21 01:32, 50.2% 21.8c
Thu May 21 00:36, 50.2% 22.0c
Thu May 21 00:06, 50.4% 22.1c
Wed May 20 23:41, 50.6% 22.3c
Wed May 20 22:45, 51.4% 22.4c
Wed May 20 21:53, 51.0% 22.5c
Wed May 20 21:01, 47.0% 22.7c
Wed May 20 20:22, 48.2% 22.6c
Wed May 20 20:10, 48.5% 22.4c
Wed May 20 19:18, 47.2% 22.1c
Wed May 20 19:02, 47.7% 22.1c
Wed May 20 18:27, 53.2% 21.9c
Wed May 20 18:05, 53.8% 21.7c
Wed May 20 17:34, 54.9% 21.5c
Wed May 20 16:35, 55.7% 21.1c
Wed May 20 16:28, 57.0% 21.2c
Wed May 20 15:40, 58.8% 20.9c
Wed May 20 14:40, 58.6% 20.9c
Wed May 20 13:46, 58.0% 20.9c
Wed May 20 13:08, 56.8% 20.7c
Wed May 20 12:48, 55.5% 20.5c
Wed May 20 11:50, 55.5% 20.5c
Wed May 20 10:54, 56.3% 20.3c
Wed May 20 09:55, 57.7% 20.2c
Wed May 20 08:57, 57.0% 20.1c
Wed May 20 07:58, 56.0% 20.1c
Wed May 20 07:01, 55.6% 20.0c
Wed May 20 06:07, 54.8% 19.7c
Wed May 20 05:14, 54.8% 19.8c
Wed May 20 04:19, 54.9% 20.0c
Wed May 20 03:23, 55.1% 20.2c
Wed May 20 03:00, 55.1% 20.2c
Wed May 20 02:31, 55.3% 20.3c
Wed May 20 01:40, 55.6% 20.5c
Wed May 20 00:40, 56.1% 20.7c
Tue May 19 23:43, 56.8% 21.0c
Tue May 19 22:45, 56.6% 21.0c
Tue May 19 21:46, 57.8% 20.9c
Tue May 19 20:48, 56.7% 20.9c
Tue May 19 19:57, 58.0% 21.0c
Tue May 19 18:58, 58.2% 20.9c
Tue May 19 18:06, 57.3% 20.9c
Tue May 19 17:12, 58.0% 20.9c
Tue May 19 16:14, 59.3% 20.6c
Tue May 19 16:06, 59.6% 20.7c
Tue May 19 15:15, 57.0% 21.2c
Tue May 19 14:21, 58.1% 21.3c
Tue May 19 13:24, 59.7% 21.3c
Tue May 19 12:48, 58.9% 21.2c
Tue May 19 12:33, 58.8% 21.0c
Tue May 19 11:39, 57.5% 20.7c
Tue May 19 11:34, 57.8% 20.7c
Tue May 19 11:23, 58.9% 20.2c
Tue May 19 11:11, 58.9% 19.7c
Tue May 19 10:48, 56.9% 19.6c
Tue May 19 09:52, 56.1% 19.6c
Tue May 19 08:56, 55.4% 19.6c
Tue May 19 08:06, 55.5% 19.7c
Tue May 19 07:15, 54.2% 19.9c
Tue May 19 06:18, 53.6% 19.6c
Tue May 19 05:17, 53.1% 19.7c
Tue May 19 04:30, 52.9% 19.8c
Tue May 19 04:24, 53.1% 19.9c
Tue May 19 03:32, 53.1% 20.1c
Tue May 19 02:34, 53.0% 20.3c
Tue May 19 02:30, 53.2% 20.3c
Tue May 19 01:39, 53.3% 20.6c
Tue May 19 00:57, 53.4% 20.8c
Tue May 19 00:42, 53.5% 21.0c
Mon May 18 23:51, 54.2% 21.3c
Mon May 18 22:53, 54.5% 21.6c
Mon May 18 22:02, 55.5% 21.7c
Mon May 18 21:06, 54.3% 21.5c
Mon May 18 20:13, 55.5% 21.5c
Mon May 18 19:14, 57.9% 21.4c

s3 Loft HTP
Wed Jun 3 13:15, 49.0% 20.2c

Wed Jun 3 13:15, 49.0% 20.2c
1014.6 mb
Wed Jun 3 12:56, 48.8% 19.7c
1014.5 mb
Wed Jun 3 12:22, 48.6% 19.3c
1014.9 mb
Wed Jun 3 12:18, 48.6% 19.3c
1014.8 mb
Wed Jun 3 11:26, 49.6% 19.1c
1014.8 mb
Wed Jun 3 11:10, 50.3% 18.8c
1014.7 mb
Wed Jun 3 10:53, 50.5% 18.3c
1014.7 mb
Wed Jun 3 10:37, 50.5% 17.8c
1014.8 mb
Wed Jun 3 10:26, 50.2% 17.4c
1014.9 mb
Wed Jun 3 10:18, 50.0% 17.3c
1014.9 mb
Wed Jun 3 10:03, 50.4% 16.8c
1014.8 mb
Wed Jun 3 09:50, 50.2% 16.2c
1014.8 mb
Wed Jun 3 09:38, 49.7% 15.7c
1014.8 mb
Wed Jun 3 09:30, 49.5% 15.5c
1014.8 mb
Wed Jun 3 09:17, 49.8% 15.2c
1014.8 mb
Wed Jun 3 08:30, 47.5% 14.7c
1014.6 mb
Wed Jun 3 08:22, 47.6% 14.7c
1014.6 mb
Wed Jun 3 07:57, 47.0% 14.6c
1014.3 mb
Wed Jun 3 07:36, 46.5% 14.7c
1014.1 mb
Wed Jun 3 07:16, 46.2% 14.8c
1014.1 mb
Wed Jun 3 06:48, 45.9% 14.9c
1013.8 mb
Wed Jun 3 06:39, 45.8% 15.1c
1014.0 mb
Wed Jun 3 05:55, 45.1% 15.4c
1014.1 mb
Wed Jun 3 05:45, 45.0% 15.6c
1014.1 mb
Wed Jun 3 05:11, 44.6% 16.0c
1014.0 mb
Wed Jun 3 04:51, 57.6% 16.3c
1013.8 mb
Wed Jun 3 04:44, 44.5% 16.3c
1013.7 mb
Wed Jun 3 04:07, 44.0% 16.7c
1013.5 mb
Wed Jun 3 03:51, 43.9% 16.9c
1013.5 mb
Wed Jun 3 03:28, 43.5% 17.2c
1013.4 mb
Wed Jun 3 02:59, 43.2% 17.6c
1013.7 mb
Wed Jun 3 02:19, 42.9% 18.1c
1013.5 mb
Wed Jun 3 02:03, 42.4% 18.3c
1013.7 mb
Wed Jun 3 01:51, 42.3% 18.4c
1013.8 mb
Wed Jun 3 01:08, 41.5% 18.9c
1014.0 mb
Wed Jun 3 01:04, 41.3% 18.9c
1014.0 mb
Wed Jun 3 00:14, 40.5% 19.4c
1014.1 mb
Wed Jun 3 00:03, 40.1% 19.4c
1014.1 mb
Tue Jun 2 23:21, 39.7% 19.9c
1014.0 mb
Tue Jun 2 22:46, 39.1% 20.3c
1014.3 mb
Tue Jun 2 22:23, 38.9% 20.6c
1014.5 mb
Tue Jun 2 22:12, 38.8% 20.8c
1014.4 mb
Tue Jun 2 21:58, 38.5% 21.0c
1014.7 mb
Tue Jun 2 21:32, 38.2% 21.4c
1014.9 mb
Tue Jun 2 21:25, 38.2% 21.5c
1014.9 mb
Tue Jun 2 20:54, 37.8% 22.0c
1014.9 mb
Tue Jun 2 20:36, 37.3% 22.2c
1015.2 mb
Tue Jun 2 20:36, 37.4% 22.3c
1015.2 mb
Tue Jun 2 20:04, 36.9% 22.7c
1015.1 mb
Tue Jun 2 19:42, 36.4% 23.1c
1015.4 mb
Tue Jun 2 19:42, 36.4% 23.0c
1015.4 mb
Tue Jun 2 19:14, 35.7% 23.5c
1015.5 mb
Tue Jun 2 18:54, 35.2% 24.0c
1015.6 mb
Tue Jun 2 18:50, 35.2% 24.1c
1015.8 mb
Tue Jun 2 18:39, 35.0% 24.4c
1015.9 mb
Tue Jun 2 18:22, 34.4% 24.9c
1016.0 mb
Tue Jun 2 18:05, 34.0% 25.4c
1016.2 mb
Tue Jun 2 17:58, 33.7% 25.6c
1016.2 mb
Tue Jun 2 17:51, 33.5% 25.9c
1016.3 mb
Tue Jun 2 17:39, 33.1% 26.4c
1016.5 mb
Tue Jun 2 17:27, 33.0% 26.9c
1016.7 mb
Tue Jun 2 17:15, 32.5% 27.4c
1016.9 mb
Tue Jun 2 17:06, 32.6% 27.9c
1016.9 mb
Tue Jun 2 17:04, 32.5% 28.0c
1017.0 mb
Tue Jun 2 16:55, 32.2% 28.4c
1017.2 mb
Tue Jun 2 16:45, 31.8% 28.9c
1017.3 mb
Tue Jun 2 16:35, 31.6% 29.5c
1017.3 mb
Tue Jun 2 16:27, 31.3% 30.0c
1017.3 mb
Tue Jun 2 16:18, 31.6% 30.5c
1017.3 mb
Tue Jun 2 16:11, 32.0% 31.0c
1017.5 mb
Tue Jun 2 16:11, 31.9% 31.0c
1017.4 mb
Tue Jun 2 16:03, 32.0% 31.6c
1017.5 mb
Tue Jun 2 15:56, 32.2% 32.1c
1017.6 mb
Tue Jun 2 15:47, 32.1% 32.6c
1017.7 mb
Tue Jun 2 15:40, 32.0% 33.1c
1017.8 mb
Tue Jun 2 15:32, 32.0% 33.6c
1017.9 mb
Tue Jun 2 15:24, 32.1% 34.1c
1017.9 mb
Tue Jun 2 15:18, 32.1% 34.6c
1018.1 mb
Tue Jun 2 15:17, 32.1% 34.7c
1018.1 mb
Tue Jun 2 15:08, 31.9% 35.2c
1018.2 mb
Tue Jun 2 15:00, 31.7% 35.8c
1018.2 mb
Tue Jun 2 14:52, 31.9% 36.3c
1018.2 mb
Tue Jun 2 14:41, 32.3% 36.8c
1018.2 mb
Tue Jun 2 14:24, 32.5% 37.1c
1018.2 mb
Tue Jun 2 14:08, 33.4% 37.3c
1018.3 mb
Tue Jun 2 13:48, 34.4% 37.2c
1018.6 mb
Tue Jun 2 13:32, 35.3% 36.8c
1018.7 mb
Tue Jun 2 13:31, 35.3% 36.7c
1018.8 mb
Tue Jun 2 13:15, 35.9% 36.2c
1018.9 mb
Tue Jun 2 13:05, 36.0% 35.7c
1019.1 mb
Tue Jun 2 12:53, 36.2% 35.2c
1019.2 mb
Tue Jun 2 12:38, 36.5% 34.7c
1019.3 mb
Tue Jun 2 12:31, 36.5% 34.6c
1019.4 mb
Tue Jun 2 12:24, 36.9% 34.5c
1019.5 mb
Tue Jun 2 12:06, 37.2% 34.3c
1019.8 mb
Tue Jun 2 11:49, 38.7% 34.1c
1020.1 mb
Tue Jun 2 11:37, 39.1% 33.9c
1020.2 mb
Tue Jun 2 11:29, 40.3% 33.6c
1020.2 mb
Tue Jun 2 11:20, 41.4% 33.1c
1020.4 mb
Tue Jun 2 11:13, 41.3% 32.6c
1020.4 mb
Tue Jun 2 11:06, 41.9% 32.1c
1020.5 mb
Tue Jun 2 11:00, 42.0% 31.6c
1020.6 mb
Tue Jun 2 10:53, 41.4% 31.1c
1020.7 mb
Tue Jun 2 10:48, 42.1% 30.6c
1020.7 mb
Tue Jun 2 10:41, 41.7% 30.1c
1020.8 mb
Tue Jun 2 10:38, 42.0% 29.8c
1020.9 mb
Tue Jun 2 10:35, 43.0% 29.6c
1020.9 mb
Tue Jun 2 10:28, 42.1% 29.1c
1021.0 mb
Tue Jun 2 10:22, 42.6% 28.5c
1021.0 mb
Tue Jun 2 10:14, 42.6% 28.0c
1021.0 mb
Tue Jun 2 10:08, 43.2% 27.5c
1021.1 mb
Tue Jun 2 10:04, 43.5% 27.0c
1021.2 mb
Tue Jun 2 09:59, 42.7% 26.5c
1021.2 mb
Tue Jun 2 09:52, 43.1% 26.0c
1021.2 mb
Tue Jun 2 09:47, 42.9% 25.5c
1021.2 mb
Tue Jun 2 09:46, 42.6% 25.5c
1021.2 mb
Tue Jun 2 09:41, 43.2% 25.0c
1021.2 mb
Tue Jun 2 09:35, 42.8% 24.5c
1021.3 mb
Tue Jun 2 09:28, 42.9% 23.9c
1021.3 mb
Tue Jun 2 09:22, 43.3% 23.4c
1021.4 mb
Tue Jun 2 09:17, 42.7% 22.9c
1021.4 mb
Tue Jun 2 09:10, 42.3% 22.4c
1021.4 mb
Tue Jun 2 09:02, 41.8% 21.9c
1021.4 mb
Tue Jun 2 08:53, 41.9% 21.4c
1021.5 mb
Tue Jun 2 08:48, 42.4% 20.9c
1021.7 mb
Tue Jun 2 08:46, 42.0% 20.9c
1021.7 mb
Tue Jun 2 08:39, 41.7% 20.4c
1021.8 mb
Tue Jun 2 08:30, 41.4% 19.8c
1021.7 mb
Tue Jun 2 08:19, 41.2% 19.3c
1021.8 mb
Tue Jun 2 08:08, 41.0% 18.8c
1022.0 mb
Tue Jun 2 07:57, 40.7% 18.2c
1022.0 mb
Tue Jun 2 07:48, 40.4% 17.9c
1022.1 mb
Tue Jun 2 07:44, 40.4% 17.7c
1022.1 mb
Tue Jun 2 07:30, 39.8% 17.2c
1022.1 mb
Tue Jun 2 07:02, 38.5% 16.7c
1022.2 mb
Tue Jun 2 06:51, 38.4% 16.6c
1022.4 mb
Tue Jun 2 05:53, 37.6% 16.8c
1022.5 mb
Tue Jun 2 05:40, 37.4% 16.9c
1022.5 mb
Tue Jun 2 05:17, 37.1% 17.1c
1022.7 mb
Tue Jun 2 04:54, 36.9% 17.5c
1022.9 mb
Tue Jun 2 04:36, 36.7% 17.6c
1022.8 mb
Tue Jun 2 04:02, 36.5% 18.2c
1023.0 mb
Tue Jun 2 04:01, 36.5% 18.2c
1023.0 mb
Tue Jun 2 03:28, 36.1% 18.7c
1022.9 mb
Tue Jun 2 03:10, 36.0% 19.0c
1023.1 mb
Tue Jun 2 02:59, 35.8% 19.1c
1023.1 mb
Tue Jun 2 02:29, 35.4% 19.6c
1023.3 mb
Tue Jun 2 02:15, 35.4% 19.9c
1023.4 mb
Tue Jun 2 02:01, 35.2% 20.1c
1023.4 mb
Tue Jun 2 01:37, 34.7% 20.6c
1023.6 mb
Tue Jun 2 01:16, 34.5% 21.1c
1023.8 mb
Tue Jun 2 01:15, 34.4% 21.2c
1023.9 mb
Tue Jun 2 01:02, 34.1% 21.4c
1024.1 mb
Tue Jun 2 00:41, 33.8% 21.9c
1024.2 mb
Tue Jun 2 00:24, 33.6% 22.4c
1024.1 mb
Tue Jun 2 00:22, 33.6% 22.4c
1024.1 mb
Tue Jun 2 00:06, 33.3% 22.9c
1024.2 mb
Mon Jun 1 23:49, 33.0% 23.4c
1024.3 mb
Mon Jun 1 23:33, 32.8% 23.9c
1024.2 mb
Mon Jun 1 23:23, 32.6% 24.3c
1024.3 mb
Mon Jun 1 23:19, 32.5% 24.4c
1024.2 mb
Mon Jun 1 23:05, 32.3% 24.9c
1024.3 mb
Mon Jun 1 22:53, 31.9% 25.4c
1024.2 mb
Mon Jun 1 22:40, 31.7% 26.0c
1024.3 mb
Mon Jun 1 22:27, 31.4% 26.5c
1024.3 mb
Mon Jun 1 22:22, 31.3% 26.8c
1024.4 mb
Mon Jun 1 22:16, 31.1% 27.0c
1024.4 mb
Mon Jun 1 22:04, 31.0% 27.5c
1024.4 mb
Mon Jun 1 21:52, 30.6% 28.0c
1024.3 mb
Mon Jun 1 21:40, 30.5% 28.5c
1024.3 mb
Mon Jun 1 21:27, 30.4% 29.0c
1024.2 mb
Mon Jun 1 21:23, 30.4% 29.3c
1024.2 mb
Mon Jun 1 21:13, 30.4% 29.6c
1024.1 mb
Mon Jun 1 21:00, 30.1% 30.1c
1024.1 mb
Mon Jun 1 20:47, 30.0% 30.7c
1024.1 mb
Mon Jun 1 20:33, 30.0% 31.2c
1024.0 mb
Mon Jun 1 20:27, 30.0% 31.4c
1024.0 mb
Mon Jun 1 20:20, 30.0% 31.7c
1023.9 mb
Mon Jun 1 20:05, 29.8% 32.2c
1023.9 mb
Mon Jun 1 19:50, 29.9% 32.8c
1023.9 mb
Mon Jun 1 19:36, 30.1% 33.3c
1023.9 mb
Mon Jun 1 19:28, 30.2% 33.6c
1024.0 mb
Mon Jun 1 19:22, 30.5% 33.8c
1023.9 mb
Mon Jun 1 19:07, 30.4% 34.3c
1024.0 mb
Mon Jun 1 18:54, 30.6% 34.8c
1023.9 mb
Mon Jun 1 18:39, 30.9% 35.3c
1023.9 mb
Mon Jun 1 18:30, 31.2% 35.7c
1024.0 mb
Mon Jun 1 18:25, 31.2% 35.8c
1023.9 mb
Mon Jun 1 18:11, 31.6% 36.3c
1023.8 mb
Mon Jun 1 17:57, 31.8% 36.9c
1023.9 mb
Mon Jun 1 17:42, 32.4% 37.4c
1023.9 mb
Mon Jun 1 17:38, 32.7% 37.5c
1023.9 mb
Mon Jun 1 17:28, 32.7% 37.9c
1023.9 mb
Mon Jun 1 17:11, 33.1% 38.4c
1023.9 mb
Mon Jun 1 16:52, 33.4% 38.9c
1024.0 mb
Mon Jun 1 16:45, 33.5% 39.2c
1024.2 mb
Mon Jun 1 16:33, 33.9% 39.5c
1024.2 mb
Mon Jun 1 16:11, 33.9% 40.0c
1024.3 mb
Mon Jun 1 15:47, 34.1% 40.2c
1024.6 mb
Mon Jun 1 15:39, 34.6% 40.2c
1024.5 mb
Mon Jun 1 14:56, 34.6% 40.1c
1024.8 mb
Mon Jun 1 14:38, 34.8% 40.0c
1024.8 mb
Mon Jun 1 14:19, 35.4% 39.7c
1025.0 mb
Mon Jun 1 14:03, 35.9% 39.4c
1025.2 mb
Mon Jun 1 13:53, 36.2% 39.2c
1025.2 mb
Mon Jun 1 13:35, 36.6% 38.7c
1025.1 mb
Mon Jun 1 13:18, 37.3% 38.2c
1025.2 mb
Mon Jun 1 13:06, 37.5% 37.8c
1025.3 mb
Mon Jun 1 13:02, 37.6% 37.7c
1025.3 mb
Mon Jun 1 12:47, 38.6% 37.2c
1025.3 mb
Mon Jun 1 12:36, 38.7% 36.6c
1025.4 mb
Mon Jun 1 12:21, 39.5% 36.1c
1025.5 mb
Mon Jun 1 12:12, 39.8% 35.6c
1025.6 mb
Mon Jun 1 12:05, 40.9% 35.1c
1025.6 mb
Mon Jun 1 11:56, 40.6% 34.6c
1025.7 mb
Mon Jun 1 11:49, 40.7% 34.1c
1025.8 mb
Mon Jun 1 11:41, 41.6% 33.5c
1025.9 mb
Mon Jun 1 11:34, 42.2% 33.0c
1025.9 mb
Mon Jun 1 11:27, 42.3% 32.5c
1025.9 mb
Mon Jun 1 11:18, 42.3% 32.0c
1026.0 mb
Mon Jun 1 11:10, 42.7% 31.5c
1026.1 mb
Mon Jun 1 11:02, 43.7% 31.0c
1026.1 mb
Mon Jun 1 10:57, 43.6% 30.4c
1026.0 mb
Mon Jun 1 10:51, 43.8% 29.9c
1026.1 mb
Mon Jun 1 10:45, 43.5% 29.4c
1026.2 mb
Mon Jun 1 10:39, 43.8% 28.9c
1026.2 mb
Mon Jun 1 10:33, 43.8% 28.4c
1026.2 mb
Mon Jun 1 10:26, 43.9% 27.9c
1026.3 mb
Mon Jun 1 10:20, 44.1% 27.4c
1026.3 mb
Mon Jun 1 10:14, 44.2% 26.9c
1026.4 mb
Mon Jun 1 10:13, 44.3% 26.8c
1026.4 mb
Mon Jun 1 10:06, 44.3% 26.3c
1026.3 mb
Mon Jun 1 10:01, 44.2% 25.8c
1026.4 mb
Mon Jun 1 09:54, 44.7% 25.3c
1026.4 mb
Mon Jun 1 09:47, 44.4% 24.8c
1026.4 mb
Mon Jun 1 09:40, 44.6% 24.2c
1026.4 mb
Mon Jun 1 09:34, 44.8% 23.7c
1026.5 mb
Mon Jun 1 09:26, 44.6% 23.2c
1026.5 mb
Mon Jun 1 09:24, 44.6% 22.9c
1026.5 mb
Mon Jun 1 09:21, 44.2% 22.7c
1026.5 mb
Mon Jun 1 09:13, 44.3% 22.2c
1026.4 mb
Mon Jun 1 09:06, 44.3% 21.7c
1026.5 mb
Mon Jun 1 08:58, 43.9% 21.2c
1026.6 mb
Mon Jun 1 08:49, 43.8% 20.7c
1026.6 mb
Mon Jun 1 08:41, 43.4% 20.1c
1026.6 mb
Mon Jun 1 08:31, 43.1% 19.6c
1026.5 mb
Mon Jun 1 08:30, 43.2% 19.5c
1026.5 mb
Mon Jun 1 08:19, 42.9% 19.1c
1026.5 mb
Mon Jun 1 08:08, 42.7% 18.6c
1026.5 mb
Mon Jun 1 07:55, 42.5% 18.1c
1026.6 mb
Mon Jun 1 07:38, 42.0% 17.6c
1026.5 mb
Mon Jun 1 07:34, 42.0% 17.4c
1026.6 mb
Mon Jun 1 07:17, 42.0% 17.1c
1026.5 mb
Mon Jun 1 06:37, 40.0% 16.6c
1026.5 mb
Mon Jun 1 06:35, 39.9% 16.6c
1026.5 mb
Mon Jun 1 05:39, 39.1% 16.7c
1026.3 mb
Mon Jun 1 05:35, 39.2% 16.7c
1026.3 mb
Mon Jun 1 04:58, 38.8% 17.1c
1026.0 mb
Mon Jun 1 04:43, 38.6% 17.4c
1026.0 mb
Mon Jun 1 04:15, 38.4% 17.6c
1025.8 mb
Mon Jun 1 03:45, 38.2% 18.0c
1025.7 mb
Mon Jun 1 03:31, 38.0% 18.1c
1025.7 mb
Mon Jun 1 02:56, 37.6% 18.7c
1025.6 mb
Mon Jun 1 02:49, 37.4% 18.8c
1025.5 mb
Mon Jun 1 02:24, 37.1% 19.2c
1025.5 mb
Mon Jun 1 01:54, 36.5% 19.7c
1025.5 mb
Mon Jun 1 01:54, 36.6% 19.8c
1025.5 mb
Mon Jun 1 01:28, 36.1% 20.2c
1025.6 mb
Mon Jun 1 01:04, 35.6% 20.7c
1025.6 mb
Mon Jun 1 00:57, 35.5% 20.9c
1025.7 mb
Mon Jun 1 00:42, 35.3% 21.2c
1025.6 mb
Mon Jun 1 00:21, 34.9% 21.8c
1025.6 mb
Mon Jun 1 00:01, 34.6% 22.3c
1025.5 mb
Sun May 31 23:43, 34.3% 22.8c
1025.5 mb
Sun May 31 23:28, 34.1% 23.3c
1025.4 mb
Sun May 31 23:12, 33.8% 23.8c
1025.4 mb
Sun May 31 23:05, 33.7% 24.1c
1025.4 mb
Sun May 31 22:59, 33.5% 24.3c
1025.4 mb
Sun May 31 22:46, 33.4% 24.8c
1025.4 mb
Sun May 31 22:33, 33.1% 25.3c
1025.2 mb
Sun May 31 22:21, 32.8% 25.8c
1025.2 mb
Sun May 31 22:09, 32.1% 26.3c
1025.1 mb
Sun May 31 22:05, 32.1% 26.5c
1025.2 mb
Sun May 31 21:57, 32.0% 26.9c
1025.1 mb
Sun May 31 21:45, 31.9% 27.4c
1025.0 mb
Sun May 31 21:34, 31.9% 27.9c
1024.9 mb
Sun May 31 21:22, 31.4% 28.4c
1024.8 mb
Sun May 31 21:11, 31.8% 28.9c
1024.6 mb
Sun May 31 21:10, 31.7% 29.0c
1024.6 mb
Sun May 31 20:59, 31.6% 29.4c
1024.4 mb
Sun May 31 20:48, 31.7% 29.9c
1024.3 mb
Sun May 31 20:37, 31.8% 30.4c
1024.1 mb
Sun May 31 20:26, 31.9% 30.9c
1024.0 mb
Sun May 31 20:18, 31.8% 31.3c
1024.0 mb
Sun May 31 20:15, 32.0% 31.4c
1024.0 mb
Sun May 31 20:04, 31.8% 31.9c
1023.9 mb
Sun May 31 19:52, 31.7% 32.5c
1023.8 mb
Sun May 31 19:41, 31.7% 33.0c
1023.7 mb
Sun May 31 19:30, 31.7% 33.5c
1023.6 mb
Sun May 31 19:26, 31.8% 33.8c
1023.6 mb
Sun May 31 19:20, 32.0% 34.0c
1023.6 mb
Sun May 31 19:11, 32.0% 34.5c
1023.6 mb
Sun May 31 19:00, 32.4% 35.1c
1023.5 mb
Sun May 31 18:50, 32.7% 35.6c
1023.5 mb
Sun May 31 18:38, 33.0% 36.1c
1023.5 mb
Sun May 31 18:35, 33.4% 36.3c
1023.5 mb
Sun May 31 18:26, 34.2% 36.6c
1023.4 mb
Sun May 31 18:09, 35.0% 37.1c
1023.4 mb
Sun May 31 17:49, 35.2% 37.4c
1023.1 mb
Sun May 31 17:36, 34.7% 37.5c
1023.3 mb
Sun May 31 16:44, 36.1% 37.3c
1023.3 mb
Sun May 31 16:26, 35.6% 37.5c
1023.4 mb
Sun May 31 15:49, 36.2% 37.5c
1023.7 mb
Sun May 31 15:39, 36.6% 37.4c
1023.7 mb
Sun May 31 15:19, 35.2% 37.2c
1023.9 mb
Sun May 31 14:57, 36.4% 36.9c
1024.0 mb
Sun May 31 14:46, 35.9% 36.8c
1024.0 mb
Sun May 31 14:19, 37.2% 36.2c
1024.1 mb
Sun May 31 14:00, 38.7% 35.7c
1024.1 mb
Sun May 31 13:58, 38.9% 35.6c
1024.1 mb
Sun May 31 13:44, 39.9% 35.2c
1024.2 mb
Sun May 31 13:28, 40.6% 34.7c
1024.2 mb
Sun May 31 13:13, 41.5% 34.1c
1024.3 mb
Sun May 31 13:05, 41.4% 33.9c

s4 Hallway PiR
Wed Jun 3 13:17, status motion

Wed Jun 3 13:17, status motion
Wed Jun 3 13:13, status motion
Wed Jun 3 13:11, status motion
Wed Jun 3 13:09, status motion
Wed Jun 3 12:36, no_motion 30m
Wed Jun 3 12:26, no_motion 20m
Wed Jun 3 12:16, no_motion 10m
Wed Jun 3 12:06, status motion
Wed Jun 3 12:02, status motion
Wed Jun 3 12:00, status motion
Wed Jun 3 11:51, status motion
Wed Jun 3 11:50, status motion
Wed Jun 3 11:49, status motion
Wed Jun 3 11:48, status motion
Wed Jun 3 11:46, status motion
Wed Jun 3 11:39, no_motion 10m
Wed Jun 3 11:29, status motion
Wed Jun 3 11:23, status motion
Wed Jun 3 11:20, status motion
Wed Jun 3 11:18, status motion
Wed Jun 3 11:15, status motion
Wed Jun 3 11:13, status motion
Wed Jun 3 11:11, status motion
Wed Jun 3 11:09, status motion
Wed Jun 3 11:05, status motion
Wed Jun 3 11:04, status motion
Wed Jun 3 10:26, no_motion 30m
Wed Jun 3 10:16, no_motion 20m
Wed Jun 3 10:06, no_motion 10m
Wed Jun 3 09:56, status motion
Wed Jun 3 09:48, no_motion 10m
Wed Jun 3 09:38, status motion
Wed Jun 3 09:36, status motion
Wed Jun 3 09:35, status motion
Wed Jun 3 09:34, status motion
Wed Jun 3 09:32, status motion
Wed Jun 3 09:32, no_motion 10m
Wed Jun 3 09:22, status motion
Wed Jun 3 09:19, status motion
Wed Jun 3 09:16, no_motion 20m
Wed Jun 3 09:06, no_motion 10m
Wed Jun 3 08:56, status motion
Wed Jun 3 08:55, status motion
Wed Jun 3 08:50, status motion
Wed Jun 3 08:45, status motion
Wed Jun 3 08:43, status motion
Wed Jun 3 08:37, no_motion 10m
Wed Jun 3 08:27, status motion
Wed Jun 3 08:26, status motion
Wed Jun 3 08:17, no_motion 30m
Wed Jun 3 08:07, no_motion 20m
Wed Jun 3 07:57, no_motion 10m
Wed Jun 3 07:47, status motion
Wed Jun 3 07:41, status motion
Wed Jun 3 07:31, no_motion 30m
Wed Jun 3 07:21, no_motion 20m
Wed Jun 3 07:11, no_motion 10m
Wed Jun 3 07:01, status motion
Wed Jun 3 06:01, no_motion 30m
Wed Jun 3 05:51, no_motion 20m
Wed Jun 3 05:41, no_motion 10m
Wed Jun 3 05:31, status motion
Wed Jun 3 05:29, status motion
Wed Jun 3 05:24, status motion
Wed Jun 3 01:38, no_motion 30m
Wed Jun 3 01:28, no_motion 20m
Wed Jun 3 01:18, no_motion 10m
Wed Jun 3 01:08, status motion
Wed Jun 3 01:07, status motion
Tue Jun 2 23:28, no_motion 30m
Tue Jun 2 23:18, no_motion 20m
Tue Jun 2 23:08, no_motion 10m
Tue Jun 2 22:58, status motion
Tue Jun 2 22:56, status motion
Tue Jun 2 22:42, no_motion 30m
Tue Jun 2 22:33, no_motion 20m
Tue Jun 2 22:23, no_motion 10m
Tue Jun 2 22:13, status motion
Tue Jun 2 22:12, status motion
Tue Jun 2 20:57, no_motion 30m
Tue Jun 2 20:47, no_motion 20m
Tue Jun 2 20:37, no_motion 10m
Tue Jun 2 20:27, status motion
Tue Jun 2 20:22, no_motion 10m
Tue Jun 2 20:12, status motion
Tue Jun 2 20:11, status motion
Tue Jun 2 20:10, status motion
Tue Jun 2 20:08, no_motion 20m
Tue Jun 2 19:58, no_motion 10m
Tue Jun 2 19:48, status motion
Tue Jun 2 19:47, status motion
Tue Jun 2 19:29, no_motion 30m
Tue Jun 2 19:19, no_motion 20m
Tue Jun 2 19:09, no_motion 10m
Tue Jun 2 18:59, status motion
Tue Jun 2 18:57, status motion
Tue Jun 2 18:47, status motion
Tue Jun 2 18:39, status motion
Tue Jun 2 18:32, status motion
Tue Jun 2 18:29, status motion
Tue Jun 2 17:55, no_motion 30m
Tue Jun 2 17:45, no_motion 20m
Tue Jun 2 17:35, no_motion 10m
Tue Jun 2 17:25, status motion
Tue Jun 2 17:24, status motion
Tue Jun 2 15:54, no_motion 30m
Tue Jun 2 15:44, no_motion 20m
Tue Jun 2 15:34, no_motion 10m
Tue Jun 2 15:24, status motion
Tue Jun 2 15:21, status motion
Tue Jun 2 15:20, status motion
Tue Jun 2 15:11, no_motion 20m
Tue Jun 2 15:01, no_motion 10m
Tue Jun 2 14:51, status motion
Tue Jun 2 14:46, status motion
Tue Jun 2 14:44, status motion
Tue Jun 2 14:42, status motion
Tue Jun 2 14:40, no_motion 30m
Tue Jun 2 14:30, no_motion 20m
Tue Jun 2 14:20, no_motion 10m
Tue Jun 2 14:10, status motion
Tue Jun 2 14:07, status motion
Tue Jun 2 14:00, no_motion 20m
Tue Jun 2 13:50, no_motion 10m
Tue Jun 2 13:40, status motion
Tue Jun 2 13:39, status motion
Tue Jun 2 13:35, status motion
Tue Jun 2 13:32, status motion
Tue Jun 2 13:30, status motion
Tue Jun 2 10:40, no_motion 30m
Tue Jun 2 10:30, no_motion 20m
Tue Jun 2 10:20, no_motion 10m
Tue Jun 2 10:10, status motion
Tue Jun 2 10:09, status motion
Tue Jun 2 10:07, status motion
Tue Jun 2 10:02, status motion
Tue Jun 2 09:55, status motion
Tue Jun 2 09:53, status motion
Tue Jun 2 09:52, status motion
Tue Jun 2 09:50, status motion
Tue Jun 2 09:47, status motion
Tue Jun 2 09:43, status motion
Tue Jun 2 09:40, status motion
Tue Jun 2 09:34, status motion
Tue Jun 2 09:30, no_motion 10m
Tue Jun 2 09:20, status motion
Tue Jun 2 09:15, status motion
Tue Jun 2 09:06, status motion
Tue Jun 2 09:05, status motion
Tue Jun 2 09:02, status motion
Tue Jun 2 08:55, no_motion 30m
Tue Jun 2 08:45, no_motion 20m
Tue Jun 2 08:35, no_motion 10m
Tue Jun 2 08:25, status motion
Tue Jun 2 08:16, status motion
Tue Jun 2 08:08, status motion
Tue Jun 2 08:07, status motion
Tue Jun 2 08:00, no_motion 20m
Tue Jun 2 07:50, no_motion 10m
Tue Jun 2 07:40, status motion
Tue Jun 2 07:37, status motion
Tue Jun 2 07:35, status motion
Tue Jun 2 07:34, no_motion 20m
Tue Jun 2 07:24, no_motion 10m
Tue Jun 2 07:14, status motion
Tue Jun 2 07:06, no_motion 30m
Tue Jun 2 06:56, no_motion 20m
Tue Jun 2 06:46, no_motion 10m
Tue Jun 2 06:36, status motion
Tue Jun 2 06:29, status motion
Tue Jun 2 06:26, status motion
Tue Jun 2 06:25, no_motion 10m
Tue Jun 2 06:15, status motion
Mon Jun 1 23:28, no_motion 30m
Mon Jun 1 23:18, no_motion 20m
Mon Jun 1 23:08, no_motion 10m
Mon Jun 1 22:58, status motion
Mon Jun 1 22:55, status motion
Mon Jun 1 22:17, no_motion 30m
Mon Jun 1 22:07, no_motion 20m
Mon Jun 1 21:57, no_motion 10m
Mon Jun 1 21:47, status motion
Mon Jun 1 21:42, status motion
Mon Jun 1 21:41, status motion
Mon Jun 1 21:38, status motion
Mon Jun 1 21:34, status motion
Mon Jun 1 21:30, no_motion 10m
Mon Jun 1 21:20, status motion
Mon Jun 1 21:19, status motion
Mon Jun 1 21:17, no_motion 20m
Mon Jun 1 21:07, no_motion 10m
Mon Jun 1 20:57, status motion
Mon Jun 1 20:56, status motion
Mon Jun 1 20:48, status motion
Mon Jun 1 20:43, status motion
Mon Jun 1 20:38, status motion
Mon Jun 1 20:29, status motion
Mon Jun 1 20:28, status motion
Mon Jun 1 20:27, status motion
Mon Jun 1 19:34, no_motion 30m
Mon Jun 1 19:24, no_motion 20m
Mon Jun 1 19:14, no_motion 10m
Mon Jun 1 19:04, status motion
Mon Jun 1 19:02, status motion
Mon Jun 1 19:01, status motion
Mon Jun 1 18:58, status motion
Mon Jun 1 18:56, status motion
Mon Jun 1 18:49, no_motion 30m
Mon Jun 1 18:39, no_motion 20m
Mon Jun 1 18:29, no_motion 10m
Mon Jun 1 18:19, status motion
Mon Jun 1 18:18, status motion
Mon Jun 1 18:17, status motion
Mon Jun 1 18:16, status motion
Mon Jun 1 18:14, status motion
Mon Jun 1 18:13, status motion
Mon Jun 1 18:07, status motion
Mon Jun 1 18:06, status motion
Mon Jun 1 18:05, status motion
Mon Jun 1 18:04, no_motion 10m
Mon Jun 1 17:54, status motion
Mon Jun 1 17:50, no_motion 30m
Mon Jun 1 17:40, no_motion 20m
Mon Jun 1 17:30, no_motion 10m
Mon Jun 1 17:20, status motion
Mon Jun 1 17:18, status motion
Mon Jun 1 17:10, no_motion 20m
Mon Jun 1 17:00, no_motion 10m
Mon Jun 1 16:50, status motion
Mon Jun 1 16:47, status motion
Mon Jun 1 16:46, status motion
Mon Jun 1 16:05, no_motion 30m
Mon Jun 1 15:55, no_motion 20m
Mon Jun 1 15:45, no_motion 10m
Mon Jun 1 15:35, status motion
Mon Jun 1 15:29, no_motion 20m
Mon Jun 1 15:19, no_motion 10m
Mon Jun 1 15:09, status motion
Mon Jun 1 15:08, status motion
Mon Jun 1 15:06, status motion
Mon Jun 1 14:59, no_motion 10m
Mon Jun 1 14:49, status motion
Mon Jun 1 14:47, status motion
Mon Jun 1 14:45, status motion
Mon Jun 1 14:40, no_motion 20m
Mon Jun 1 14:30, no_motion 10m
Mon Jun 1 14:20, status motion
Mon Jun 1 13:23, no_motion 30m
Mon Jun 1 13:13, no_motion 20m
Mon Jun 1 13:03, no_motion 10m
Mon Jun 1 12:53, status motion
Mon Jun 1 12:49, no_motion 30m
Mon Jun 1 12:39, no_motion 20m
Mon Jun 1 12:29, no_motion 10m
Mon Jun 1 12:19, status motion
Mon Jun 1 12:17, no_motion 10m
Mon Jun 1 12:07, status motion
Mon Jun 1 12:06, status motion
Mon Jun 1 12:05, no_motion 10m
Mon Jun 1 11:55, status motion
Mon Jun 1 11:23, no_motion 30m
Mon Jun 1 11:13, no_motion 20m
Mon Jun 1 11:03, no_motion 10m
Mon Jun 1 10:53, status motion
Mon Jun 1 10:48, status motion
Mon Jun 1 10:45, status motion
Mon Jun 1 10:41, status motion
Mon Jun 1 10:40, status motion
Mon Jun 1 10:39, status motion
Mon Jun 1 10:35, status motion
Mon Jun 1 10:32, status motion
Mon Jun 1 10:27, status motion
Mon Jun 1 10:26, status motion
Mon Jun 1 10:25, status motion
Mon Jun 1 10:24, no_motion 10m
Mon Jun 1 10:14, status motion
Mon Jun 1 10:10, status motion
Mon Jun 1 10:03, status motion
Mon Jun 1 10:02, status motion
Mon Jun 1 09:57, status motion
Mon Jun 1 09:54, status motion
Mon Jun 1 09:52, status motion
Mon Jun 1 09:43, no_motion 30m
Mon Jun 1 09:33, no_motion 20m
Mon Jun 1 09:23, no_motion 10m
Mon Jun 1 09:13, status motion
Mon Jun 1 09:12, status motion
Mon Jun 1 09:09, status motion
Mon Jun 1 09:08, status motion
Mon Jun 1 09:05, status motion
Mon Jun 1 08:59, status motion
Mon Jun 1 08:53, status motion
Mon Jun 1 08:45, no_motion 10m
Mon Jun 1 08:35, status motion
Mon Jun 1 08:34, status motion
Mon Jun 1 08:26, status motion
Mon Jun 1 08:21, status motion
Mon Jun 1 08:19, status motion
Mon Jun 1 08:14, status motion
Mon Jun 1 08:05, status motion
Mon Jun 1 07:59, no_motion 10m
Mon Jun 1 07:49, status motion
Mon Jun 1 07:47, status motion
Mon Jun 1 07:40, status motion
Mon Jun 1 07:36, no_motion 20m
Mon Jun 1 07:26, no_motion 10m
Mon Jun 1 07:16, status motion
Mon Jun 1 07:13, status motion
Mon Jun 1 07:11, status motion
Mon Jun 1 07:00, no_motion 30m
Mon Jun 1 06:50, no_motion 20m
Mon Jun 1 06:40, no_motion 10m
Mon Jun 1 06:30, status motion
Mon Jun 1 06:26, no_motion 10m
Mon Jun 1 06:16, status motion
Mon Jun 1 06:12, status motion
Mon Jun 1 06:03, status motion
Mon Jun 1 03:49, no_motion 30m
Mon Jun 1 03:39, no_motion 20m
Mon Jun 1 03:29, no_motion 10m
Mon Jun 1 03:19, status motion
Mon Jun 1 02:19, no_motion 30m
Mon Jun 1 02:09, no_motion 20m
Mon Jun 1 01:59, no_motion 10m
Mon Jun 1 01:49, status motion
Sun May 31 23:07, no_motion 30m
Sun May 31 22:57, no_motion 20m
Sun May 31 22:47, no_motion 10m
Sun May 31 22:37, status motion
Sun May 31 22:31, no_motion 10m
Sun May 31 22:21, status motion
Sun May 31 22:13, status motion
Sun May 31 22:06, no_motion 30m
Sun May 31 21:56, no_motion 20m
Sun May 31 21:46, no_motion 10m
Sun May 31 21:36, status motion
Sun May 31 21:33, status motion
Sun May 31 21:27, status motion
Sun May 31 21:19, no_motion 10m
Sun May 31 21:09, status motion
Sun May 31 21:08, status motion
Sun May 31 20:44, no_motion 30m
Sun May 31 20:34, no_motion 20m
Sun May 31 20:24, no_motion 10m
Sun May 31 20:14, status motion
Sun May 31 20:06, status motion
Sun May 31 20:05, status motion
Sun May 31 20:03, status motion
Sun May 31 20:02, no_motion 10m
Sun May 31 19:52, status motion
Sun May 31 19:52, no_motion 30m
Sun May 31 19:42, no_motion 20m
Sun May 31 19:32, no_motion 10m
Sun May 31 19:22, status motion
Sun May 31 19:12, status motion
Sun May 31 19:11, status motion
Sun May 31 19:08, status motion
Sun May 31 19:07, status motion
Sun May 31 19:04, status motion
Sun May 31 19:00, no_motion 30m
Sun May 31 18:50, no_motion 20m
Sun May 31 18:40, no_motion 10m
Sun May 31 18:30, status motion
Sun May 31 18:21, status motion
Sun May 31 18:19, status motion
Sun May 31 18:13, status motion
Sun May 31 18:10, status motion
Sun May 31 18:07, status motion
Sun May 31 18:05, status motion
Sun May 31 18:04, status motion
Sun May 31 18:01, status motion
Sun May 31 17:09, no_motion 30m
Sun May 31 16:59, no_motion 20m
Sun May 31 16:49, no_motion 10m
Sun May 31 16:39, status motion
Sun May 31 16:38, status motion
Sun May 31 16:37, no_motion 10m
Sun May 31 16:27, status motion
Sun May 31 16:25, status motion
Sun May 31 16:23, status motion
Sun May 31 16:22, status motion
Sun May 31 16:21, status motion
Sun May 31 16:19, status motion
Sun May 31 16:09, status motion
Sun May 31 16:04, status motion
Sun May 31 15:58, status motion
Sun May 31 15:52, status motion
Sun May 31 15:47, status motion
Sun May 31 15:39, status motion
Sun May 31 15:38, status motion
Sun May 31 15:36, status motion
Sun May 31 15:34, status motion
Sun May 31 15:30, no_motion 10m
Sun May 31 15:20, status motion
Sun May 31 15:18, status motion
Sun May 31 15:17, status motion
Sun May 31 15:14, status motion
Sun May 31 15:06, no_motion 20m
Sun May 31 14:56, no_motion 10m
Sun May 31 14:46, status motion
Sun May 31 14:35, no_motion 30m
Sun May 31 14:25, no_motion 20m
Sun May 31 14:15, no_motion 10m
Sun May 31 14:05, status motion
Sun May 31 14:04, status motion
Sun May 31 13:59, status motion
Sun May 31 13:57, status motion
Sun May 31 13:51, no_motion 20m
Sun May 31 13:41, no_motion 10m
Sun May 31 13:31, status motion
Sun May 31 13:30, status motion
Sun May 31 13:28, status motion
Sun May 31 13:26, status motion
Sun May 31 11:04, no_motion 30m
Sun May 31 10:54, no_motion 20m
Sun May 31 10:44, no_motion 10m
Sun May 31 10:34, status motion
Sun May 31 10:33, status motion
Sun May 31 10:31, status motion
Sun May 31 10:22, status motion
Sun May 31 10:21, status motion
Sun May 31 10:18, status motion
Sun May 31 10:15, status motion
Sun May 31 10:08, status motion
Sun May 31 10:04, no_motion 10m
Sun May 31 09:54, status motion
Sun May 31 09:53, status motion
Sun May 31 09:52, no_motion 30m
Sun May 31 09:42, no_motion 20m
Sun May 31 09:32, no_motion 10m
Sun May 31 09:22, status motion
Sun May 31 09:20, no_motion 10m
Sun May 31 09:10, status motion
Sun May 31 09:08, status motion
Sun May 31 09:04, no_motion 30m
Sun May 31 08:54, no_motion 20m
Sun May 31 08:44, no_motion 10m
Sun May 31 08:34, status motion
Sun May 31 08:32, status motion
Sun May 31 08:26, status motion
Sun May 31 08:23, status motion
Sun May 31 07:20, no_motion 30m
Sun May 31 07:10, no_motion 20m
Sun May 31 07:00, no_motion 10m
Sun May 31 06:50, status motion
Sun May 31 06:45, status motion
Sun May 31 06:41, no_motion 10m
Sun May 31 06:31, status motion
Sun May 31 05:33, no_motion 30m
Sun May 31 05:23, no_motion 20m
Sun May 31 05:13, no_motion 10m
Sun May 31 05:03, status motion
Sun May 31 05:00, status motion
Sat May 30 23:17, no_motion 30m
Sat May 30 23:07, no_motion 20m
Sat May 30 22:57, no_motion 10m
Sat May 30 22:47, status motion
Sat May 30 22:44, status motion
Sat May 30 22:43, no_motion 20m
Sat May 30 22:33, no_motion 10m
Sat May 30 22:23, status motion
Sat May 30 22:20, no_motion 10m
Sat May 30 22:10, status motion
Sat May 30 22:10, no_motion 20m
Sat May 30 22:00, no_motion 10m
Sat May 30 21:50, status motion
Sat May 30 21:15, no_motion 30m
Sat May 30 21:05, no_motion 20m
Sat May 30 20:55, no_motion 10m
Sat May 30 20:45, status motion
Sat May 30 20:42, no_motion 20m
Sat May 30 20:32, no_motion 10m
Sat May 30 20:22, status motion
Sat May 30 20:16, no_motion 10m
Sat May 30 20:06, status motion
Sat May 30 20:05, status motion
Sat May 30 20:03, status motion
Sat May 30 20:02, status motion
Sat May 30 20:02, no_motion 20m
Sat May 30 19:52, no_motion 10m
Sat May 30 19:42, status motion
Sat May 30 19:40, status motion
Sat May 30 19:38, status motion
Sat May 30 19:36, status motion
Sat May 30 19:35, status motion
Sat May 30 19:23, no_motion 30m
Sat May 30 19:13, no_motion 20m
Sat May 30 19:03, no_motion 10m
Sat May 30 18:53, status motion
Sat May 30 18:51, status motion
Sat May 30 18:50, status motion
Sat May 30 18:48, status motion
Sat May 30 14:12, no_motion 30m
Sat May 30 14:02, no_motion 20m
Sat May 30 13:52, no_motion 10m
Sat May 30 13:42, status motion
Sat May 30 13:39, status motion
Sat May 30 13:38, status motion
Sat May 30 13:36, status motion
Sat May 30 13:35, status motion
Sat May 30 13:34, status motion
Sat May 30 13:33, status motion
Sat May 30 13:29, status motion
Sat May 30 13:28, status motion
Sat May 30 13:26, status motion
Sat May 30 13:24, status motion
Sat May 30 13:20, no_motion 20m
Sat May 30 13:10, no_motion 10m
Sat May 30 13:00, status motion
Sat May 30 12:58, status motion
Sat May 30 12:56, status motion
Sat May 30 12:55, status motion
Sat May 30 12:54, status motion
Sat May 30 12:53, status motion
Sat May 30 12:51, no_motion 10m
Sat May 30 12:41, status motion
Sat May 30 12:35, status motion
Sat May 30 12:33, status motion
Sat May 30 12:32, no_motion 20m
Sat May 30 12:22, no_motion 10m
Sat May 30 12:12, status motion
Sat May 30 12:11, no_motion 30m
Sat May 30 12:01, no_motion 20m
Sat May 30 11:51, no_motion 10m
Sat May 30 11:41, status motion
Sat May 30 11:40, no_motion 20m
Sat May 30 11:30, no_motion 10m
Sat May 30 11:20, status motion
Sat May 30 11:14, status motion
Sat May 30 11:08, status motion
Sat May 30 11:06, status motion
Sat May 30 11:01, status motion
Sat May 30 10:43, no_motion 30m
Sat May 30 10:33, no_motion 20m
Sat May 30 10:23, no_motion 10m
Sat May 30 10:13, status motion
Sat May 30 10:12, status motion
Sat May 30 10:09, status motion
Sat May 30 10:08, status motion
Sat May 30 10:05, no_motion 30m
Sat May 30 09:55, no_motion 20m
Sat May 30 09:45, no_motion 10m
Sat May 30 09:35, status motion
Sat May 30 09:32, status motion
Sat May 30 09:31, status motion
Sat May 30 09:28, status motion
Sat May 30 09:26, status motion
Sat May 30 09:22, status motion
Sat May 30 09:21, status motion
Sat May 30 09:18, status motion
Sat May 30 09:11, status motion
Sat May 30 09:10, status motion
Sat May 30 09:05, status motion
Sat May 30 09:03, status motion
Sat May 30 09:00, no_motion 10m
Sat May 30 08:51, status motion
Sat May 30 08:47, status motion
Sat May 30 08:45, status motion
Sat May 30 08:44, status motion
Sat May 30 08:39, status motion
Sat May 30 08:37, status motion
Sat May 30 08:36, status motion
Sat May 30 08:29, no_motion 20m
Sat May 30 08:19, no_motion 10m
Sat May 30 08:09, status motion
Sat May 30 08:08, status motion
Sat May 30 08:07, status motion
Sat May 30 08:04, no_motion 30m
Sat May 30 07:54, no_motion 20m

s5 Liv-Room PiR
Wed Jun 3 13:13, status motion

Wed Jun 3 13:13, status motion
Wed Jun 3 13:11, status motion
Wed Jun 3 13:10, status motion
Wed Jun 3 13:09, status motion
Wed Jun 3 13:07, status motion
Wed Jun 3 13:01, status motion
Wed Jun 3 12:57, status motion
Wed Jun 3 12:55, status motion
Wed Jun 3 12:49, status motion
Wed Jun 3 12:43, status motion
Wed Jun 3 12:42, status motion
Wed Jun 3 12:41, status motion
Wed Jun 3 12:39, status motion
Wed Jun 3 12:37, status motion
Wed Jun 3 12:34, no_motion 10m
Wed Jun 3 12:24, status motion
Wed Jun 3 12:21, status motion
Wed Jun 3 12:12, status motion
Wed Jun 3 12:06, status motion
Wed Jun 3 12:02, status motion
Wed Jun 3 11:56, status motion
Wed Jun 3 11:52, status motion
Wed Jun 3 11:50, status motion
Wed Jun 3 11:47, status motion
Wed Jun 3 11:42, status motion
Wed Jun 3 11:38, no_motion 10m
Wed Jun 3 11:28, status motion
Wed Jun 3 11:23, status motion
Wed Jun 3 11:20, status motion
Wed Jun 3 11:18, status motion
Wed Jun 3 11:13, status motion
Wed Jun 3 11:10, status motion
Wed Jun 3 11:05, status motion
Wed Jun 3 11:03, status motion
Wed Jun 3 10:59, no_motion 10m
Wed Jun 3 10:49, status motion
Wed Jun 3 10:41, status motion
Wed Jun 3 10:39, status motion
Wed Jun 3 10:36, status motion
Wed Jun 3 10:33, status motion
Wed Jun 3 10:30, status motion
Wed Jun 3 10:28, status motion
Wed Jun 3 10:24, status motion
Wed Jun 3 10:23, status motion
Wed Jun 3 10:19, status motion
Wed Jun 3 10:15, status motion
Wed Jun 3 10:09, status motion
Wed Jun 3 10:03, status motion
Wed Jun 3 09:59, status motion
Wed Jun 3 09:58, status motion
Wed Jun 3 09:57, status motion
Wed Jun 3 09:51, no_motion 10m
Wed Jun 3 09:41, status motion
Wed Jun 3 09:36, status motion
Wed Jun 3 09:35, status motion
Wed Jun 3 09:32, no_motion 10m
Wed Jun 3 09:22, status motion
Wed Jun 3 09:13, no_motion 30m
Wed Jun 3 09:04, no_motion 20m
Wed Jun 3 08:54, no_motion 10m
Wed Jun 3 08:44, status motion
Wed Jun 3 08:13, no_motion 30m
Wed Jun 3 08:03, no_motion 20m
Wed Jun 3 07:53, no_motion 10m
Wed Jun 3 07:43, status motion
Wed Jun 3 07:42, status motion
Wed Jun 3 07:26, no_motion 30m
Wed Jun 3 07:16, no_motion 20m
Wed Jun 3 07:06, no_motion 10m
Wed Jun 3 06:56, status motion
Wed Jun 3 06:05, no_motion 30m
Wed Jun 3 05:55, no_motion 20m
Wed Jun 3 05:45, no_motion 10m
Wed Jun 3 05:35, status motion
Wed Jun 3 05:29, status motion
Wed Jun 3 05:28, status motion
Wed Jun 3 05:27, status motion
Tue Jun 2 23:25, no_motion 30m
Tue Jun 2 23:15, no_motion 20m
Tue Jun 2 23:05, no_motion 10m
Tue Jun 2 22:55, status motion
Tue Jun 2 22:52, status motion
Tue Jun 2 22:47, status motion
Tue Jun 2 22:39, no_motion 20m
Tue Jun 2 22:29, no_motion 10m
Tue Jun 2 22:19, status motion
Tue Jun 2 22:16, status motion
Tue Jun 2 22:13, status motion
Tue Jun 2 22:11, status motion
Tue Jun 2 22:10, status motion
Tue Jun 2 22:06, no_motion 10m
Tue Jun 2 21:56, status motion
Tue Jun 2 21:50, status motion
Tue Jun 2 21:47, status motion
Tue Jun 2 21:39, no_motion 10m
Tue Jun 2 21:29, status motion
Tue Jun 2 21:26, status motion
Tue Jun 2 21:25, no_motion 10m
Tue Jun 2 21:15, status motion
Tue Jun 2 21:14, status motion
Tue Jun 2 21:05, no_motion 10m
Tue Jun 2 20:55, status motion
Tue Jun 2 20:52, status motion
Tue Jun 2 20:45, status motion
Tue Jun 2 20:43, status motion
Tue Jun 2 20:34, status motion
Tue Jun 2 20:29, status motion
Tue Jun 2 20:28, status motion
Tue Jun 2 20:24, status motion
Tue Jun 2 20:23, status motion
Tue Jun 2 20:20, status motion
Tue Jun 2 20:19, status motion
Tue Jun 2 20:14, status motion
Tue Jun 2 20:05, status motion
Tue Jun 2 20:04, status motion
Tue Jun 2 20:01, status motion
Tue Jun 2 19:57, no_motion 10m
Tue Jun 2 19:47, status motion
Tue Jun 2 19:46, status motion
Tue Jun 2 19:45, status motion
Tue Jun 2 19:41, no_motion 10m
Tue Jun 2 19:31, status motion
Tue Jun 2 19:30, status motion
Tue Jun 2 19:27, status motion
Tue Jun 2 19:25, status motion
Tue Jun 2 19:23, no_motion 10m
Tue Jun 2 19:13, status motion
Tue Jun 2 19:06, status motion
Tue Jun 2 19:00, status motion
Tue Jun 2 18:59, status motion
Tue Jun 2 18:57, status motion
Tue Jun 2 18:55, status motion
Tue Jun 2 18:53, status motion
Tue Jun 2 18:52, status motion
Tue Jun 2 18:50, status motion
Tue Jun 2 18:47, status motion
Tue Jun 2 18:46, status motion
Tue Jun 2 18:44, status motion
Tue Jun 2 18:43, status motion
Tue Jun 2 18:38, status motion
Tue Jun 2 18:37, status motion
Tue Jun 2 18:34, status motion
Tue Jun 2 18:31, status motion
Tue Jun 2 18:29, status motion
Tue Jun 2 18:28, status motion
Tue Jun 2 18:26, status motion
Tue Jun 2 18:25, status motion
Tue Jun 2 18:23, status motion
Tue Jun 2 18:20, no_motion 10m
Tue Jun 2 18:10, status motion
Tue Jun 2 18:04, status motion
Tue Jun 2 18:03, status motion
Tue Jun 2 17:55, status motion
Tue Jun 2 17:51, status motion
Tue Jun 2 17:50, status motion
Tue Jun 2 17:49, status motion
Tue Jun 2 17:46, status motion
Tue Jun 2 17:41, status motion
Tue Jun 2 17:35, no_motion 10m
Tue Jun 2 17:25, status motion
Tue Jun 2 17:23, status motion
Tue Jun 2 17:15, status motion
Tue Jun 2 17:06, status motion
Tue Jun 2 17:05, status motion
Tue Jun 2 17:03, status motion
Tue Jun 2 17:00, status motion
Tue Jun 2 16:58, status motion
Tue Jun 2 16:51, status motion
Tue Jun 2 16:45, no_motion 10m
Tue Jun 2 16:36, status motion
Tue Jun 2 16:33, status motion
Tue Jun 2 16:23, no_motion 20m
Tue Jun 2 16:13, no_motion 10m
Tue Jun 2 16:03, status motion
Tue Jun 2 16:02, status motion
Tue Jun 2 16:01, status motion
Tue Jun 2 15:55, status motion
Tue Jun 2 15:54, status motion
Tue Jun 2 15:53, status motion
Tue Jun 2 15:52, no_motion 10m
Tue Jun 2 15:42, status motion
Tue Jun 2 15:41, no_motion 10m
Tue Jun 2 15:31, status motion
Tue Jun 2 15:26, status motion
Tue Jun 2 15:25, status motion
Tue Jun 2 15:24, status motion
Tue Jun 2 15:19, status motion
Tue Jun 2 15:13, status motion
Tue Jun 2 15:12, status motion
Tue Jun 2 15:11, status motion
Tue Jun 2 15:08, status motion
Tue Jun 2 15:04, status motion
Tue Jun 2 15:03, status motion
Tue Jun 2 15:01, status motion
Tue Jun 2 15:00, status motion
Tue Jun 2 14:59, status motion
Tue Jun 2 14:58, status motion
Tue Jun 2 14:57, status motion
Tue Jun 2 14:55, status motion
Tue Jun 2 14:53, status motion
Tue Jun 2 14:52, status motion
Tue Jun 2 14:51, status motion
Tue Jun 2 14:44, status motion
Tue Jun 2 14:42, status motion
Tue Jun 2 14:41, status motion
Tue Jun 2 14:39, status motion
Tue Jun 2 14:37, status motion
Tue Jun 2 14:30, no_motion 20m
Tue Jun 2 14:20, no_motion 10m
Tue Jun 2 14:10, status motion
Tue Jun 2 14:07, status motion
Tue Jun 2 10:40, no_motion 30m
Tue Jun 2 10:30, no_motion 20m
Tue Jun 2 10:20, no_motion 10m
Tue Jun 2 10:10, status motion
Tue Jun 2 10:02, status motion
Tue Jun 2 10:00, status motion
Tue Jun 2 09:59, status motion
Tue Jun 2 09:58, status motion
Tue Jun 2 09:56, status motion
Tue Jun 2 09:55, status motion
Tue Jun 2 09:54, status motion
Tue Jun 2 09:52, status motion
Tue Jun 2 09:44, no_motion 10m
Tue Jun 2 09:34, status motion
Tue Jun 2 09:32, no_motion 10m
Tue Jun 2 09:22, status motion
Tue Jun 2 09:20, status motion
Tue Jun 2 09:15, status motion
Tue Jun 2 09:09, status motion
Tue Jun 2 09:06, status motion
Tue Jun 2 09:04, status motion
Tue Jun 2 08:54, no_motion 10m
Tue Jun 2 08:44, status motion
Tue Jun 2 08:41, no_motion 30m
Tue Jun 2 08:31, no_motion 20m
Tue Jun 2 08:21, no_motion 10m
Tue Jun 2 08:11, status motion
Tue Jun 2 08:09, status motion
Tue Jun 2 08:01, no_motion 30m
Tue Jun 2 07:51, no_motion 20m
Tue Jun 2 07:41, no_motion 10m
Tue Jun 2 07:31, status motion
Tue Jun 2 07:28, status motion
Tue Jun 2 07:25, status motion
Tue Jun 2 07:22, status motion
Tue Jun 2 07:18, status motion
Tue Jun 2 07:17, status motion
Tue Jun 2 07:16, status motion
Tue Jun 2 07:15, status motion
Tue Jun 2 07:01, no_motion 30m
Tue Jun 2 06:51, no_motion 20m
Tue Jun 2 06:41, no_motion 10m
Tue Jun 2 06:31, status motion
Mon Jun 1 23:25, no_motion 30m
Mon Jun 1 23:15, no_motion 20m
Mon Jun 1 23:05, no_motion 10m
Mon Jun 1 22:54, status motion
Mon Jun 1 22:50, status motion
Mon Jun 1 22:49, status motion
Mon Jun 1 22:39, status motion
Mon Jun 1 22:35, no_motion 10m
Mon Jun 1 22:25, status motion
Mon Jun 1 22:22, status motion
Mon Jun 1 22:19, status motion
Mon Jun 1 22:17, status motion
Mon Jun 1 22:16, status motion
Mon Jun 1 22:14, status motion
Mon Jun 1 22:13, status motion
Mon Jun 1 22:11, status motion
Mon Jun 1 22:10, status motion
Mon Jun 1 22:01, status motion
Mon Jun 1 22:00, status motion
Mon Jun 1 21:56, status motion
Mon Jun 1 21:54, status motion
Mon Jun 1 21:52, status motion
Mon Jun 1 21:51, status motion
Mon Jun 1 21:49, status motion
Mon Jun 1 21:47, status motion
Mon Jun 1 21:41, status motion
Mon Jun 1 21:38, status motion
Mon Jun 1 21:33, status motion
Mon Jun 1 21:28, status motion
Mon Jun 1 21:26, status motion
Mon Jun 1 21:24, status motion
Mon Jun 1 21:22, status motion
Mon Jun 1 21:21, status motion
Mon Jun 1 21:18, status motion
Mon Jun 1 21:15, no_motion 20m
Mon Jun 1 21:05, no_motion 10m
Mon Jun 1 20:55, status motion
Mon Jun 1 20:54, status motion
Mon Jun 1 20:44, status motion
Mon Jun 1 20:43, status motion
Mon Jun 1 20:40, no_motion 10m
Mon Jun 1 20:30, status motion
Mon Jun 1 19:26, no_motion 30m
Mon Jun 1 19:16, no_motion 20m
Mon Jun 1 19:06, no_motion 10m
Mon Jun 1 18:56, status motion
Mon Jun 1 18:47, no_motion 20m
Mon Jun 1 18:37, no_motion 10m
Mon Jun 1 18:27, status motion
Mon Jun 1 18:26, status motion
Mon Jun 1 18:25, status motion
Mon Jun 1 18:24, status motion
Mon Jun 1 18:22, status motion
Mon Jun 1 18:21, status motion
Mon Jun 1 18:17, no_motion 10m
Mon Jun 1 18:07, status motion
Mon Jun 1 18:03, status motion
Mon Jun 1 17:58, status motion
Mon Jun 1 17:54, status motion
Mon Jun 1 17:52, no_motion 10m
Mon Jun 1 17:42, status motion
Mon Jun 1 17:41, status motion
Mon Jun 1 17:20, no_motion 30m
Mon Jun 1 17:10, no_motion 20m
Mon Jun 1 17:00, no_motion 10m
Mon Jun 1 16:50, status motion
Mon Jun 1 16:47, no_motion 10m
Mon Jun 1 16:37, status motion
Mon Jun 1 16:30, no_motion 10m
Mon Jun 1 16:20, status motion
Mon Jun 1 16:18, status motion
Mon Jun 1 16:14, status motion
Mon Jun 1 16:13, no_motion 20m
Mon Jun 1 16:03, no_motion 10m
Mon Jun 1 15:53, status motion
Mon Jun 1 15:48, status motion
Mon Jun 1 15:46, status motion
Mon Jun 1 15:39, status motion
Mon Jun 1 15:35, status motion
Mon Jun 1 15:30, no_motion 10m
Mon Jun 1 15:20, status motion
Mon Jun 1 15:18, status motion
Mon Jun 1 15:12, status motion
Mon Jun 1 15:10, status motion
Mon Jun 1 15:08, no_motion 30m
Mon Jun 1 14:58, no_motion 20m
Mon Jun 1 14:48, no_motion 10m
Mon Jun 1 14:38, status motion
Mon Jun 1 14:33, status motion
Mon Jun 1 14:26, status motion
Mon Jun 1 14:21, status motion
Mon Jun 1 13:37, no_motion 30m
Mon Jun 1 13:27, no_motion 20m
Mon Jun 1 13:17, no_motion 10m
Mon Jun 1 13:07, status motion
Mon Jun 1 13:00, status motion
Mon Jun 1 12:58, status motion
Mon Jun 1 12:54, status motion
Mon Jun 1 12:52, status motion
Mon Jun 1 12:43, status motion
Mon Jun 1 12:42, no_motion 20m
Mon Jun 1 12:32, no_motion 10m
Mon Jun 1 12:22, status motion
Mon Jun 1 12:21, status motion
Mon Jun 1 12:20, status motion
Mon Jun 1 12:19, status motion
Mon Jun 1 12:14, status motion
Mon Jun 1 12:07, status motion
Mon Jun 1 12:01, status motion
Mon Jun 1 11:55, no_motion 20m
Mon Jun 1 11:46, no_motion 10m
Mon Jun 1 11:36, status motion
Mon Jun 1 11:29, no_motion 10m
Mon Jun 1 11:19, status motion
Mon Jun 1 11:16, no_motion 20m
Mon Jun 1 11:06, no_motion 10m
Mon Jun 1 10:56, status motion
Mon Jun 1 10:54, status motion
Mon Jun 1 10:53, status motion
Mon Jun 1 10:51, status motion
Mon Jun 1 10:48, status motion
Mon Jun 1 10:47, status motion
Mon Jun 1 10:45, status motion
Mon Jun 1 10:39, status motion
Mon Jun 1 10:37, status motion
Mon Jun 1 10:36, status motion
Mon Jun 1 10:35, status motion
Mon Jun 1 10:34, status motion
Mon Jun 1 10:32, status motion
Mon Jun 1 10:26, status motion
Mon Jun 1 10:24, status motion
Mon Jun 1 10:23, status motion
Mon Jun 1 10:22, status motion
Mon Jun 1 10:14, status motion
Mon Jun 1 10:13, no_motion 10m
Mon Jun 1 10:03, status motion
Mon Jun 1 09:59, status motion
Mon Jun 1 09:38, no_motion 30m
Mon Jun 1 09:28, no_motion 20m
Mon Jun 1 09:18, no_motion 10m
Mon Jun 1 09:08, status motion
Mon Jun 1 09:06, status motion
Mon Jun 1 09:05, status motion
Mon Jun 1 08:49, no_motion 30m
Mon Jun 1 08:39, no_motion 20m
Mon Jun 1 08:29, no_motion 10m
Mon Jun 1 08:19, status motion
Mon Jun 1 08:13, status motion
Mon Jun 1 08:11, status motion
Mon Jun 1 08:10, status motion
Mon Jun 1 08:08, no_motion 10m
Mon Jun 1 07:58, status motion
Mon Jun 1 07:50, status motion
Mon Jun 1 07:48, status motion
Mon Jun 1 07:47, status motion
Mon Jun 1 06:57, no_motion 30m
Mon Jun 1 06:47, no_motion 20m
Mon Jun 1 06:37, no_motion 10m
Mon Jun 1 06:27, status motion
Mon Jun 1 06:19, status motion
Mon Jun 1 06:11, status motion
Mon Jun 1 06:05, status motion
Mon Jun 1 06:04, status motion
Mon Jun 1 03:49, no_motion 30m
Mon Jun 1 03:39, no_motion 20m
Mon Jun 1 03:29, no_motion 10m
Mon Jun 1 03:19, status motion
Mon Jun 1 03:14, status motion
Mon Jun 1 03:07, status motion
Mon Jun 1 02:49, no_motion 30m
Mon Jun 1 02:39, no_motion 20m
Mon Jun 1 02:29, no_motion 10m
Mon Jun 1 02:19, status motion
Mon Jun 1 02:13, no_motion 20m
Mon Jun 1 02:03, no_motion 10m
Mon Jun 1 01:53, status motion
Sun May 31 23:06, no_motion 30m
Sun May 31 22:56, no_motion 20m
Sun May 31 22:46, no_motion 10m
Sun May 31 22:36, status motion
Sun May 31 22:35, status motion
Sun May 31 22:31, status motion
Sun May 31 22:21, status motion
Sun May 31 22:20, status motion
Sun May 31 22:18, status motion
Sun May 31 22:13, status motion
Sun May 31 22:09, status motion
Sun May 31 22:06, no_motion 10m
Sun May 31 21:56, status motion
Sun May 31 21:53, no_motion 10m
Sun May 31 21:43, status motion
Sun May 31 21:42, status motion
Sun May 31 21:40, status motion
Sun May 31 21:37, status motion
Sun May 31 21:33, status motion
Sun May 31 21:30, status motion
Sun May 31 21:28, no_motion 20m
Sun May 31 21:18, no_motion 10m
Sun May 31 21:08, status motion
Sun May 31 21:07, status motion
Sun May 31 21:05, status motion
Sun May 31 21:04, status motion
Sun May 31 21:03, status motion
Sun May 31 21:02, status motion
Sun May 31 20:59, status motion
Sun May 31 20:57, status motion
Sun May 31 20:56, status motion
Sun May 31 20:51, status motion
Sun May 31 20:46, status motion
Sun May 31 20:43, status motion
Sun May 31 20:40, status motion
Sun May 31 20:34, status motion
Sun May 31 20:32, status motion
Sun May 31 20:28, status motion
Sun May 31 20:18, status motion
Sun May 31 20:14, status motion
Sun May 31 20:12, status motion
Sun May 31 20:10, status motion
Sun May 31 20:06, status motion
Sun May 31 20:03, status motion
Sun May 31 20:01, status motion
Sun May 31 19:52, status motion
Sun May 31 19:50, status motion
Sun May 31 19:49, status motion
Sun May 31 19:48, status motion
Sun May 31 19:47, status motion
Sun May 31 19:43, status motion
Sun May 31 19:42, status motion
Sun May 31 19:40, status motion
Sun May 31 19:39, status motion
Sun May 31 19:38, status motion
Sun May 31 19:35, status motion
Sun May 31 19:28, status motion
Sun May 31 19:25, status motion
Sun May 31 19:24, status motion
Sun May 31 19:23, status motion
Sun May 31 19:22, status motion
Sun May 31 19:19, status motion
Sun May 31 19:17, status motion
Sun May 31 19:16, status motion
Sun May 31 19:14, status motion
Sun May 31 19:13, status motion
Sun May 31 19:12, status motion
Sun May 31 19:10, status motion
Sun May 31 19:08, status motion
Sun May 31 19:07, status motion
Sun May 31 19:05, status motion
Sun May 31 19:03, status motion
Sun May 31 19:01, status motion
Sun May 31 18:57, status motion
Sun May 31 18:56, status motion
Sun May 31 18:54, status motion
Sun May 31 18:51, status motion
Sun May 31 18:50, status motion
Sun May 31 18:49, status motion
Sun May 31 18:48, status motion
Sun May 31 18:47, status motion
Sun May 31 18:45, status motion
Sun May 31 18:44, status motion
Sun May 31 18:43, status motion
Sun May 31 18:42, status motion
Sun May 31 18:40, status motion
Sun May 31 18:39, status motion
Sun May 31 18:35, status motion
Sun May 31 18:34, status motion
Sun May 31 18:33, status motion
Sun May 31 18:32, status motion
Sun May 31 18:31, status motion
Sun May 31 18:30, status motion
Sun May 31 18:28, status motion
Sun May 31 18:27, status motion
Sun May 31 18:26, status motion
Sun May 31 18:21, status motion
Sun May 31 18:20, status motion
Sun May 31 18:19, status motion
Sun May 31 18:18, status motion
Sun May 31 18:15, status motion
Sun May 31 18:13, status motion
Sun May 31 18:12, status motion
Sun May 31 18:10, status motion
Sun May 31 18:08, status motion
Sun May 31 18:07, status motion
Sun May 31 18:06, status motion
Sun May 31 18:03, status motion
Sun May 31 18:01, status motion
Sun May 31 17:56, status motion
Sun May 31 17:10, no_motion 30m
Sun May 31 17:00, no_motion 20m
Sun May 31 16:50, no_motion 10m
Sun May 31 16:40, status motion
Sun May 31 16:39, status motion
Sun May 31 16:38, status motion
Sun May 31 16:31, status motion
Sun May 31 16:23, status motion
Sun May 31 16:22, status motion
Sun May 31 16:21, status motion
Sun May 31 16:19, status motion
Sun May 31 16:18, status motion
Sun May 31 16:17, status motion
Sun May 31 16:16, status motion
Sun May 31 16:11, status motion
Sun May 31 16:09, status motion
Sun May 31 16:05, status motion
Sun May 31 16:04, status motion
Sun May 31 16:01, status motion
Sun May 31 16:00, status motion
Sun May 31 15:59, status motion
Sun May 31 15:58, status motion
Sun May 31 15:52, status motion
Sun May 31 15:47, status motion
Sun May 31 15:39, status motion
Sun May 31 15:38, status motion
Sun May 31 15:36, status motion
Sun May 31 15:34, status motion
Sun May 31 15:30, no_motion 10m
Sun May 31 15:20, status motion
Sun May 31 15:18, status motion
Sun May 31 15:17, status motion
Sun May 31 15:14, status motion
Sun May 31 15:12, status motion
Sun May 31 15:11, status motion
Sun May 31 15:10, status motion
Sun May 31 15:09, status motion

s6 Kitchen PiR
Wed Jun 3 13:17, status motion

Wed Jun 3 13:17, status motion
Wed Jun 3 13:13, status motion
Wed Jun 3 13:11, status motion
Wed Jun 3 13:09, status motion
Wed Jun 3 13:06, status motion
Wed Jun 3 13:05, status motion
Wed Jun 3 13:04, status motion
Wed Jun 3 13:03, status motion
Wed Jun 3 13:02, status motion
Wed Jun 3 13:01, status motion
Wed Jun 3 12:57, status motion
Wed Jun 3 12:55, status motion
Wed Jun 3 12:48, status motion
Wed Jun 3 12:47, status motion
Wed Jun 3 12:46, status motion
Wed Jun 3 12:45, status motion
Wed Jun 3 12:44, status motion
Wed Jun 3 12:43, status motion
Wed Jun 3 12:42, status motion
Wed Jun 3 12:41, status motion
Wed Jun 3 12:40, status motion
Wed Jun 3 12:39, status motion
Wed Jun 3 12:38, status motion
Wed Jun 3 12:37, status motion
Wed Jun 3 12:36, status motion
Wed Jun 3 12:34, status motion
Wed Jun 3 12:33, status motion
Wed Jun 3 12:32, status motion
Wed Jun 3 12:31, status motion
Wed Jun 3 12:30, status motion
Wed Jun 3 12:29, status motion
Wed Jun 3 12:28, status motion
Wed Jun 3 12:26, status motion
Wed Jun 3 12:25, status motion
Wed Jun 3 12:24, status motion
Wed Jun 3 12:16, no_motion 10m
Wed Jun 3 12:06, status motion
Wed Jun 3 12:02, status motion
Wed Jun 3 12:00, status motion
Wed Jun 3 11:59, status motion
Wed Jun 3 11:58, status motion
Wed Jun 3 11:57, status motion
Wed Jun 3 11:56, status motion
Wed Jun 3 11:51, status motion
Wed Jun 3 11:49, status motion
Wed Jun 3 11:48, status motion
Wed Jun 3 11:46, status motion
Wed Jun 3 11:41, status motion
Wed Jun 3 11:40, status motion
Wed Jun 3 11:39, status motion
Wed Jun 3 11:38, status motion
Wed Jun 3 11:37, status motion
Wed Jun 3 11:36, status motion
Wed Jun 3 11:35, status motion
Wed Jun 3 11:34, status motion
Wed Jun 3 11:33, status motion
Wed Jun 3 11:32, status motion
Wed Jun 3 11:31, status motion
Wed Jun 3 11:29, status motion
Wed Jun 3 11:28, status motion
Wed Jun 3 11:27, status motion
Wed Jun 3 11:26, status motion
Wed Jun 3 11:25, status motion
Wed Jun 3 11:24, status motion
Wed Jun 3 11:23, status motion
Wed Jun 3 11:22, status motion
Wed Jun 3 11:21, status motion
Wed Jun 3 11:20, status motion
Wed Jun 3 11:19, status motion
Wed Jun 3 11:18, status motion
Wed Jun 3 11:17, status motion
Wed Jun 3 11:16, status motion
Wed Jun 3 11:15, status motion
Wed Jun 3 11:13, status motion
Wed Jun 3 11:10, status motion
Wed Jun 3 11:05, status motion
Wed Jun 3 11:04, status motion
Wed Jun 3 11:01, no_motion 20m
Wed Jun 3 10:51, no_motion 10m
Wed Jun 3 10:41, status motion
Wed Jun 3 10:32, status motion
Wed Jun 3 10:31, status motion
Wed Jun 3 10:30, status motion
Wed Jun 3 10:29, status motion
Wed Jun 3 10:24, status motion
Wed Jun 3 10:23, status motion
Wed Jun 3 10:17, status motion
Wed Jun 3 10:16, status motion
Wed Jun 3 10:15, status motion
Wed Jun 3 10:07, status motion
Wed Jun 3 10:06, status motion
Wed Jun 3 10:04, status motion
Wed Jun 3 10:03, status motion
Wed Jun 3 09:56, status motion
Wed Jun 3 09:51, no_motion 10m
Wed Jun 3 09:41, status motion
Wed Jun 3 09:38, status motion
Wed Jun 3 09:37, status motion
Wed Jun 3 09:35, status motion
Wed Jun 3 09:34, status motion
Wed Jun 3 09:32, status motion
Wed Jun 3 09:31, status motion
Wed Jun 3 09:30, status motion
Wed Jun 3 09:29, status motion
Wed Jun 3 09:28, status motion
Wed Jun 3 09:27, status motion
Wed Jun 3 09:26, status motion
Wed Jun 3 09:22, status motion
Wed Jun 3 09:21, status motion
Wed Jun 3 09:20, status motion
Wed Jun 3 09:19, status motion
Wed Jun 3 09:15, status motion
Wed Jun 3 09:14, status motion
Wed Jun 3 09:13, status motion
Wed Jun 3 09:12, status motion
Wed Jun 3 09:11, status motion
Wed Jun 3 09:10, status motion
Wed Jun 3 09:09, status motion
Wed Jun 3 09:08, status motion
Wed Jun 3 09:06, status motion
Wed Jun 3 09:05, status motion
Wed Jun 3 09:04, status motion
Wed Jun 3 09:03, status motion
Wed Jun 3 09:02, status motion
Wed Jun 3 09:00, status motion
Wed Jun 3 08:59, status motion
Wed Jun 3 08:57, status motion
Wed Jun 3 08:56, status motion
Wed Jun 3 08:55, status motion
Wed Jun 3 08:54, status motion
Wed Jun 3 08:53, status motion
Wed Jun 3 08:52, status motion
Wed Jun 3 08:51, status motion
Wed Jun 3 08:44, status motion
Wed Jun 3 08:43, status motion
Wed Jun 3 08:36, no_motion 10m
Wed Jun 3 08:26, status motion
Wed Jun 3 08:16, no_motion 30m
Wed Jun 3 08:06, no_motion 20m
Wed Jun 3 07:56, no_motion 10m
Wed Jun 3 07:46, status motion
Wed Jun 3 07:45, status motion
Wed Jun 3 07:44, status motion
Wed Jun 3 07:43, status motion
Wed Jun 3 07:41, status motion
Wed Jun 3 07:30, no_motion 30m
Wed Jun 3 07:20, no_motion 20m
Wed Jun 3 07:10, no_motion 10m
Wed Jun 3 07:00, status motion
Wed Jun 3 06:59, status motion
Wed Jun 3 06:58, status motion
Wed Jun 3 06:57, status motion
Wed Jun 3 06:04, no_motion 30m
Wed Jun 3 05:54, no_motion 20m
Wed Jun 3 05:44, no_motion 10m
Wed Jun 3 05:34, status motion
Wed Jun 3 05:33, status motion
Wed Jun 3 05:31, status motion
Wed Jun 3 05:29, status motion
Wed Jun 3 05:26, status motion
Wed Jun 3 05:24, status motion
Tue Jun 2 23:25, no_motion 30m
Tue Jun 2 23:15, no_motion 20m
Tue Jun 2 23:05, no_motion 10m
Tue Jun 2 22:55, status motion
Tue Jun 2 22:52, status motion
Tue Jun 2 22:48, no_motion 30m
Tue Jun 2 22:38, no_motion 20m
Tue Jun 2 22:28, no_motion 10m
Tue Jun 2 22:18, status motion
Tue Jun 2 22:17, status motion
Tue Jun 2 22:16, status motion
Tue Jun 2 22:13, status motion
Tue Jun 2 22:11, status motion
Tue Jun 2 22:10, no_motion 20m
Tue Jun 2 22:00, no_motion 10m
Tue Jun 2 21:50, status motion
Tue Jun 2 21:49, status motion
Tue Jun 2 21:48, status motion
Tue Jun 2 20:58, no_motion 30m
Tue Jun 2 20:48, no_motion 20m
Tue Jun 2 20:38, no_motion 10m
Tue Jun 2 20:28, status motion
Tue Jun 2 20:27, status motion
Tue Jun 2 20:26, status motion
Tue Jun 2 20:25, status motion
Tue Jun 2 20:24, status motion
Tue Jun 2 20:23, status motion
Tue Jun 2 20:20, status motion
Tue Jun 2 20:13, status motion
Tue Jun 2 20:11, status motion
Tue Jun 2 20:06, no_motion 20m
Tue Jun 2 19:56, no_motion 10m
Tue Jun 2 19:46, status motion
Tue Jun 2 19:39, no_motion 10m
Tue Jun 2 19:29, status motion
Tue Jun 2 19:28, status motion
Tue Jun 2 19:27, status motion
Tue Jun 2 19:26, status motion
Tue Jun 2 19:25, status motion
Tue Jun 2 19:16, no_motion 10m
Tue Jun 2 19:06, status motion
Tue Jun 2 19:00, status motion
Tue Jun 2 18:59, status motion
Tue Jun 2 18:58, status motion
Tue Jun 2 18:57, status motion
Tue Jun 2 18:56, status motion
Tue Jun 2 18:55, status motion
Tue Jun 2 18:51, status motion
Tue Jun 2 18:47, status motion
Tue Jun 2 18:42, status motion
Tue Jun 2 18:41, status motion
Tue Jun 2 18:40, status motion
Tue Jun 2 18:37, status motion
Tue Jun 2 18:29, status motion
Tue Jun 2 18:28, status motion
Tue Jun 2 18:27, status motion
Tue Jun 2 18:26, status motion
Tue Jun 2 18:25, status motion
Tue Jun 2 18:24, status motion
Tue Jun 2 18:23, no_motion 20m
Tue Jun 2 18:13, no_motion 10m
Tue Jun 2 18:03, status motion
Tue Jun 2 18:02, status motion
Tue Jun 2 18:01, status motion
Tue Jun 2 18:00, status motion
Tue Jun 2 17:59, status motion
Tue Jun 2 17:58, status motion
Tue Jun 2 17:56, status motion
Tue Jun 2 17:54, status motion
Tue Jun 2 17:53, status motion
Tue Jun 2 17:52, status motion
Tue Jun 2 17:35, no_motion 30m
Tue Jun 2 17:25, no_motion 20m
Tue Jun 2 17:15, no_motion 10m
Tue Jun 2 17:05, status motion
Tue Jun 2 17:04, status motion
Tue Jun 2 17:03, status motion
Tue Jun 2 17:02, status motion
Tue Jun 2 17:00, status motion
Tue Jun 2 16:59, status motion
Tue Jun 2 16:58, status motion
Tue Jun 2 16:53, status motion
Tue Jun 2 16:52, status motion
Tue Jun 2 16:51, status motion
Tue Jun 2 16:24, no_motion 30m
Tue Jun 2 16:14, no_motion 20m
Tue Jun 2 16:05, no_motion 10m
Tue Jun 2 15:55, status motion
Tue Jun 2 15:52, no_motion 10m
Tue Jun 2 15:43, status motion
Tue Jun 2 15:41, no_motion 10m
Tue Jun 2 15:31, status motion
Tue Jun 2 15:24, status motion
Tue Jun 2 15:23, status motion
Tue Jun 2 15:22, status motion
Tue Jun 2 15:21, status motion
Tue Jun 2 15:20, status motion
Tue Jun 2 15:19, status motion
Tue Jun 2 15:13, no_motion 10m
Tue Jun 2 15:03, status motion
Tue Jun 2 15:01, status motion
Tue Jun 2 15:01, no_motion 10m
Tue Jun 2 14:51, status motion
Tue Jun 2 14:49, status motion
Tue Jun 2 14:48, status motion
Tue Jun 2 14:47, status motion
Tue Jun 2 14:46, status motion
Tue Jun 2 14:45, status motion
Tue Jun 2 14:44, status motion
Tue Jun 2 14:42, status motion
Tue Jun 2 14:39, status motion
Tue Jun 2 14:36, no_motion 10m
Tue Jun 2 14:26, status motion
Tue Jun 2 14:24, status motion
Tue Jun 2 14:20, no_motion 10m
Tue Jun 2 14:10, status motion
Tue Jun 2 14:07, status motion
Tue Jun 2 14:07, no_motion 20m
Tue Jun 2 13:57, no_motion 10m
Tue Jun 2 13:47, status motion
Tue Jun 2 13:40, status motion
Tue Jun 2 13:38, status motion
Tue Jun 2 13:37, status motion
Tue Jun 2 13:36, status motion
Tue Jun 2 13:35, status motion
Tue Jun 2 13:34, status motion
Tue Jun 2 13:33, status motion
Tue Jun 2 13:32, status motion
Tue Jun 2 13:31, status motion
Tue Jun 2 13:30, status motion
Tue Jun 2 10:40, no_motion 30m
Tue Jun 2 10:30, no_motion 20m
Tue Jun 2 10:20, no_motion 10m
Tue Jun 2 10:10, status motion
Tue Jun 2 10:09, status motion
Tue Jun 2 10:07, status motion
Tue Jun 2 10:02, status motion
Tue Jun 2 09:59, status motion
Tue Jun 2 09:56, status motion
Tue Jun 2 09:55, status motion
Tue Jun 2 09:54, status motion
Tue Jun 2 09:53, status motion
Tue Jun 2 09:52, status motion
Tue Jun 2 09:51, status motion
Tue Jun 2 09:50, status motion
Tue Jun 2 09:43, status motion
Tue Jun 2 09:42, status motion
Tue Jun 2 09:41, status motion
Tue Jun 2 09:40, status motion
Tue Jun 2 09:39, status motion
Tue Jun 2 09:38, status motion
Tue Jun 2 09:37, status motion
Tue Jun 2 09:36, status motion
Tue Jun 2 09:35, status motion
Tue Jun 2 09:33, status motion
Tue Jun 2 09:32, status motion
Tue Jun 2 09:31, status motion
Tue Jun 2 09:30, status motion
Tue Jun 2 09:29, status motion
Tue Jun 2 09:28, status motion
Tue Jun 2 09:27, status motion
Tue Jun 2 09:26, status motion
Tue Jun 2 09:25, status motion
Tue Jun 2 09:24, status motion
Tue Jun 2 09:23, status motion
Tue Jun 2 09:20, status motion
Tue Jun 2 09:15, status motion
Tue Jun 2 09:09, status motion
Tue Jun 2 09:06, status motion
Tue Jun 2 09:05, status motion
Tue Jun 2 09:03, status motion
Tue Jun 2 09:02, status motion
Tue Jun 2 08:59, status motion
Tue Jun 2 08:54, no_motion 10m
Tue Jun 2 08:44, status motion
Tue Jun 2 08:43, status motion
Tue Jun 2 08:41, no_motion 10m
Tue Jun 2 08:31, status motion
Tue Jun 2 08:27, status motion
Tue Jun 2 08:25, status motion
Tue Jun 2 08:25, no_motion 10m
Tue Jun 2 08:15, status motion
Tue Jun 2 08:14, status motion
Tue Jun 2 08:13, status motion
Tue Jun 2 08:12, status motion
Tue Jun 2 08:11, status motion
Tue Jun 2 08:08, status motion
Tue Jun 2 08:06, status motion
Tue Jun 2 08:05, status motion
Tue Jun 2 08:04, status motion
Tue Jun 2 08:03, status motion
Tue Jun 2 08:02, status motion
Tue Jun 2 08:00, status motion
Tue Jun 2 07:59, status motion
Tue Jun 2 07:58, status motion
Tue Jun 2 07:56, status motion
Tue Jun 2 07:55, status motion
Tue Jun 2 07:54, status motion
Tue Jun 2 07:53, status motion
Tue Jun 2 07:52, status motion
Tue Jun 2 07:49, status motion
Tue Jun 2 07:48, status motion
Tue Jun 2 07:45, status motion
Tue Jun 2 07:42, status motion
Tue Jun 2 07:41, status motion
Tue Jun 2 07:40, status motion
Tue Jun 2 07:39, status motion
Tue Jun 2 07:37, status motion
Tue Jun 2 07:34, status motion
Tue Jun 2 07:33, status motion
Tue Jun 2 07:32, status motion
Tue Jun 2 07:28, status motion
Tue Jun 2 07:25, status motion
Tue Jun 2 07:24, status motion
Tue Jun 2 07:23, status motion
Tue Jun 2 07:21, status motion
Tue Jun 2 07:20, status motion
Tue Jun 2 07:19, status motion
Tue Jun 2 07:18, status motion
Tue Jun 2 07:17, status motion
Tue Jun 2 07:15, status motion
Tue Jun 2 07:06, no_motion 30m
Tue Jun 2 06:56, no_motion 20m
Tue Jun 2 06:46, no_motion 10m
Tue Jun 2 06:36, status motion
Tue Jun 2 06:35, status motion
Tue Jun 2 06:34, status motion
Tue Jun 2 06:33, status motion
Tue Jun 2 06:32, status motion
Tue Jun 2 06:31, status motion
Tue Jun 2 06:29, status motion
Mon Jun 1 23:23, no_motion 30m
Mon Jun 1 23:13, no_motion 20m
Mon Jun 1 23:03, no_motion 10m
Mon Jun 1 22:53, status motion
Mon Jun 1 22:52, status motion
Mon Jun 1 22:51, status motion
Mon Jun 1 22:45, no_motion 20m
Mon Jun 1 22:35, no_motion 10m
Mon Jun 1 22:25, status motion
Mon Jun 1 22:24, status motion
Mon Jun 1 22:23, status motion
Mon Jun 1 22:18, status motion
Mon Jun 1 22:11, status motion
Mon Jun 1 22:05, no_motion 10m
Mon Jun 1 21:55, status motion
Mon Jun 1 21:52, no_motion 10m
Mon Jun 1 21:42, status motion
Mon Jun 1 21:41, status motion
Mon Jun 1 21:33, status motion
Mon Jun 1 21:30, no_motion 10m
Mon Jun 1 21:20, status motion
Mon Jun 1 21:19, status motion
Mon Jun 1 21:18, status motion
Mon Jun 1 21:08, no_motion 20m
Mon Jun 1 20:58, no_motion 10m
Mon Jun 1 20:48, status motion
Mon Jun 1 20:43, status motion
Mon Jun 1 20:39, status motion
Mon Jun 1 20:30, status motion
Mon Jun 1 20:29, status motion
Mon Jun 1 20:28, status motion
Mon Jun 1 19:32, no_motion 30m
Mon Jun 1 19:22, no_motion 20m
Mon Jun 1 19:12, no_motion 10m
Mon Jun 1 19:02, status motion
Mon Jun 1 19:01, status motion
Mon Jun 1 18:59, status motion
Mon Jun 1 18:58, status motion
Mon Jun 1 18:57, status motion
Mon Jun 1 18:56, status motion
Mon Jun 1 18:55, status motion
Mon Jun 1 18:45, no_motion 10m
Mon Jun 1 18:35, status motion
Mon Jun 1 18:34, status motion
Mon Jun 1 18:33, status motion
Mon Jun 1 18:32, status motion
Mon Jun 1 18:31, status motion
Mon Jun 1 18:30, status motion
Mon Jun 1 18:29, status motion
Mon Jun 1 18:28, status motion
Mon Jun 1 18:27, status motion
Mon Jun 1 18:23, status motion
Mon Jun 1 18:20, status motion
Mon Jun 1 18:15, status motion
Mon Jun 1 18:14, status motion
Mon Jun 1 18:08, status motion
Mon Jun 1 18:07, status motion
Mon Jun 1 18:05, status motion
Mon Jun 1 18:04, status motion
Mon Jun 1 18:03, status motion
Mon Jun 1 17:57, status motion
Mon Jun 1 17:56, status motion
Mon Jun 1 17:55, status motion
Mon Jun 1 17:54, status motion
Mon Jun 1 17:45, no_motion 20m
Mon Jun 1 17:35, no_motion 10m
Mon Jun 1 17:25, status motion
Mon Jun 1 17:21, status motion
Mon Jun 1 17:20, status motion
Mon Jun 1 17:18, status motion
Mon Jun 1 17:16, status motion
Mon Jun 1 17:07, no_motion 20m
Mon Jun 1 16:57, no_motion 10m
Mon Jun 1 16:47, status motion
Mon Jun 1 16:46, status motion
Mon Jun 1 16:45, status motion
Mon Jun 1 16:37, status motion
Mon Jun 1 16:09, no_motion 30m
Mon Jun 1 15:59, no_motion 20m
Mon Jun 1 15:49, no_motion 10m
Mon Jun 1 15:39, status motion
Mon Jun 1 15:38, status motion
Mon Jun 1 15:37, status motion
Mon Jun 1 15:36, status motion
Mon Jun 1 15:35, status motion
Mon Jun 1 15:33, no_motion 20m
Mon Jun 1 15:23, no_motion 10m
Mon Jun 1 15:13, status motion
Mon Jun 1 15:12, status motion
Mon Jun 1 15:08, status motion
Mon Jun 1 15:07, status motion
Mon Jun 1 15:06, status motion
Mon Jun 1 14:57, status motion
Mon Jun 1 14:56, status motion
Mon Jun 1 14:51, status motion
Mon Jun 1 14:50, status motion
Mon Jun 1 14:49, status motion
Mon Jun 1 14:48, status motion
Mon Jun 1 14:47, status motion
Mon Jun 1 14:45, status motion
Mon Jun 1 14:44, status motion
Mon Jun 1 14:43, status motion
Mon Jun 1 14:39, status motion
Mon Jun 1 14:33, status motion
Mon Jun 1 14:32, status motion
Mon Jun 1 14:31, status motion
Mon Jun 1 14:30, status motion
Mon Jun 1 14:29, status motion
Mon Jun 1 14:28, status motion
Mon Jun 1 14:27, status motion
Mon Jun 1 14:26, status motion
Mon Jun 1 14:25, status motion
Mon Jun 1 14:24, status motion
Mon Jun 1 14:23, status motion
Mon Jun 1 14:21, status motion
Mon Jun 1 14:20, status motion
Mon Jun 1 13:30, no_motion 30m
Mon Jun 1 13:20, no_motion 20m
Mon Jun 1 13:10, no_motion 10m
Mon Jun 1 13:00, status motion
Mon Jun 1 12:58, status motion
Mon Jun 1 12:57, status motion
Mon Jun 1 12:56, status motion
Mon Jun 1 12:55, status motion
Mon Jun 1 12:54, status motion
Mon Jun 1 12:53, status motion
Mon Jun 1 12:47, no_motion 30m
Mon Jun 1 12:37, no_motion 20m
Mon Jun 1 12:27, no_motion 10m
Mon Jun 1 12:17, status motion
Mon Jun 1 12:15, status motion
Mon Jun 1 12:14, status motion
Mon Jun 1 12:13, status motion
Mon Jun 1 12:12, status motion
Mon Jun 1 12:11, status motion
Mon Jun 1 12:10, status motion
Mon Jun 1 12:09, status motion
Mon Jun 1 12:08, status motion
Mon Jun 1 12:07, status motion
Mon Jun 1 12:06, status motion
Mon Jun 1 12:04, status motion
Mon Jun 1 12:03, status motion
Mon Jun 1 12:02, status motion
Mon Jun 1 12:01, status motion
Mon Jun 1 12:00, status motion
Mon Jun 1 11:59, status motion
Mon Jun 1 11:58, status motion
Mon Jun 1 11:57, status motion
Mon Jun 1 11:56, status motion
Mon Jun 1 11:55, status motion
Mon Jun 1 11:54, status motion
Mon Jun 1 11:52, status motion
Mon Jun 1 11:51, status motion
Mon Jun 1 11:50, status motion
Mon Jun 1 11:49, status motion
Mon Jun 1 11:48, status motion
Mon Jun 1 11:47, status motion
Mon Jun 1 11:44, status motion
Mon Jun 1 11:43, status motion
Mon Jun 1 11:42, status motion
Mon Jun 1 11:41, status motion
Mon Jun 1 11:40, status motion
Mon Jun 1 11:39, status motion
Mon Jun 1 11:27, no_motion 30m
Mon Jun 1 11:17, no_motion 20m
Mon Jun 1 11:07, no_motion 10m
Mon Jun 1 10:57, status motion
Mon Jun 1 10:54, status motion
Mon Jun 1 10:48, status motion
Mon Jun 1 10:47, status motion
Mon Jun 1 10:44, status motion
Mon Jun 1 10:43, status motion
Mon Jun 1 10:41, status motion
Mon Jun 1 10:40, status motion
Mon Jun 1 10:39, status motion
Mon Jun 1 10:37, status motion
Mon Jun 1 10:35, status motion
Mon Jun 1 10:32, status motion
Mon Jun 1 10:27, status motion
Mon Jun 1 10:24, status motion
Mon Jun 1 10:23, status motion
Mon Jun 1 10:22, status motion
Mon Jun 1 10:15, status motion
Mon Jun 1 10:14, status motion
Mon Jun 1 10:11, status motion
Mon Jun 1 10:10, status motion
Mon Jun 1 10:09, status motion
Mon Jun 1 10:05, status motion
Mon Jun 1 10:03, status motion
Mon Jun 1 10:01, status motion
Mon Jun 1 10:00, status motion
Mon Jun 1 09:58, status motion
Mon Jun 1 09:57, status motion
Mon Jun 1 09:56, status motion
Mon Jun 1 09:52, status motion
Mon Jun 1 09:50, no_motion 30m
Mon Jun 1 09:40, no_motion 20m
Mon Jun 1 09:30, no_motion 10m
Mon Jun 1 09:20, status motion
Mon Jun 1 09:17, status motion
Mon Jun 1 09:16, status motion
Mon Jun 1 09:14, status motion
Mon Jun 1 09:13, status motion
Mon Jun 1 09:08, status motion
Mon Jun 1 09:04, status motion
Mon Jun 1 09:03, status motion
Mon Jun 1 09:00, status motion
Mon Jun 1 08:59, status motion
Mon Jun 1 08:54, status motion
Mon Jun 1 08:53, status motion
Mon Jun 1 08:52, status motion
Mon Jun 1 08:46, no_motion 10m
Mon Jun 1 08:36, status motion
Mon Jun 1 08:35, status motion
Mon Jun 1 08:34, status motion
Mon Jun 1 08:31, no_motion 10m
Mon Jun 1 08:21, status motion
Mon Jun 1 08:13, status motion
Mon Jun 1 08:10, status motion
Mon Jun 1 08:09, status motion
Mon Jun 1 08:08, status motion
Mon Jun 1 08:07, status motion
Mon Jun 1 08:06, status motion
Mon Jun 1 08:04, status motion
Mon Jun 1 08:03, status motion
Mon Jun 1 08:02, status motion
Mon Jun 1 08:01, status motion
Mon Jun 1 08:00, status motion
Mon Jun 1 07:59, status motion
Mon Jun 1 07:58, status motion
Mon Jun 1 07:57, status motion
Mon Jun 1 07:56, status motion
Mon Jun 1 07:49, status motion
Mon Jun 1 07:47, status motion
Mon Jun 1 07:46, status motion
Mon Jun 1 07:45, status motion
Mon Jun 1 07:43, status motion
Mon Jun 1 07:42, status motion
Mon Jun 1 07:41, status motion
Mon Jun 1 07:36, no_motion 20m
Mon Jun 1 07:26, no_motion 10m
Mon Jun 1 07:16, status motion
Mon Jun 1 07:15, status motion
Mon Jun 1 07:14, status motion
Mon Jun 1 07:11, status motion
Mon Jun 1 06:59, no_motion 30m
Mon Jun 1 06:49, no_motion 20m
Mon Jun 1 06:39, no_motion 10m
Mon Jun 1 06:29, status motion
Mon Jun 1 06:28, status motion
Mon Jun 1 06:27, status motion
Mon Jun 1 06:18, status motion
Mon Jun 1 06:17, status motion
Mon Jun 1 06:16, status motion
Mon Jun 1 06:12, status motion
Mon Jun 1 06:03, status motion
Mon Jun 1 03:49, no_motion 30m
Mon Jun 1 03:39, no_motion 20m
Mon Jun 1 03:29, no_motion 10m
Mon Jun 1 03:19, status motion
Mon Jun 1 02:22, no_motion 30m
Mon Jun 1 02:12, no_motion 20m
Mon Jun 1 02:02, no_motion 10m
Mon Jun 1 01:52, status motion
Mon Jun 1 01:51, status motion
Mon Jun 1 01:50, status motion
Sun May 31 23:07, no_motion 30m
Sun May 31 22:57, no_motion 20m
Sun May 31 22:47, no_motion 10m

s7 Alarm Arm
Fri May 29 07:51, disarmed

Fri May 29 07:51, disarmed
Fri May 29 07:51, ARM..
Thu May 28 21:17, click
Mon May 18 10:33, click
Wed Feb 26 13:20, click
Wed Feb 26 13:20, click
Wed Feb 26 11:47, click
Wed Feb 26 11:46, click
Sun Feb 16 17:43, disarmed
Sun Feb 16 17:43, ARM..
Sat Feb 15 11:51, click
Wed Feb 12 12:35, click
Tue Feb 11 12:32, click
Sun Feb 9 11:28, click
Wed Jan 29 07:00, disarmed
Wed Jan 29 06:59, ARM..
Sat Jan 4 09:29, disarmed
Sat Jan 4 09:29, ARM..
Sat Jan 4 09:29, disarmed
Sat Jan 4 09:29, ARM..
Sat Jan 4 06:35, disarmed
Sat Jan 4 06:34, ARM..
Sat Jan 4 06:13, disarmed
Sat Jan 4 06:12, ARM..
Sat Jan 4 06:10, disarmed
Sat Jan 4 06:09, ARM..
Sat Jan 4 06:07, disarmed
Sat Jan 4 06:07, ARM..
Sat Jan 4 05:56, disarmed
Sat Jan 4 05:55, ARM..
Fri Jan 3 22:46, disarmed
Fri Jan 3 22:46, ARM..
Wed Jan 1 13:34, disarmed
Wed Jan 1 13:34, ARM..
Wed Jan 1 10:31, click
Tue Dec 31 19:29, disarmed
Tue Dec 31 19:29, ALARM
Tue Dec 31 16:39, ARM..
Tue Dec 31 16:05, disarmed
Tue Dec 31 15:46, ARM..
Mon Dec 30 16:05, disarmed
Mon Dec 30 15:54, ALARM
Mon Dec 30 15:53, ARM..
Mon Dec 30 15:49, disarmed
Mon Dec 30 15:19, ALARM
Mon Dec 30 15:15, ARM..
Mon Dec 30 15:15, disarmed
Mon Dec 30 15:04, ARM..
Mon Dec 30 00:16, disarmed
Sun Dec 29 18:17, ALARM
Sun Dec 29 18:15, ARM..
Sun Dec 29 17:58, disarmed
Sun Dec 29 17:58, ARM..
Sat Dec 28 16:37, disarmed
Sat Dec 28 16:37, ARM..
Tue Dec 24 11:56, disarmed
Tue Dec 24 11:56, ARM..
Tue Dec 24 11:56, click
Tue Dec 24 11:56, click
Tue Dec 24 11:56, click
Sun Dec 22 09:04, disarmed
Sat Dec 21 22:02, ARM..
Sat Dec 21 22:02, disarmed
Sat Dec 21 16:59, ALARM
Sat Dec 21 16:56, ARM..
Fri Dec 20 10:04, disarmed
Fri Dec 20 10:04, ALARM
Fri Dec 20 10:02, ARM..
Fri Dec 13 14:23, disarmed
Fri Dec 13 14:22, ALARM
Fri Dec 13 13:50, ARM..
Tue Dec 10 18:53, click
Sat Dec 7 12:32, click
Sat Dec 7 11:58, OFF
Sat Dec 7 11:57, ARM..
Wed Nov 27 18:24, OFF
Wed Nov 27 18:23, ARM..
Wed Nov 27 18:23, OFF
Wed Nov 27 18:22, ARM..
Mon Nov 25 14:37, OFF
Mon Nov 25 14:36, ARM..
Mon Nov 25 14:35, OFF
Mon Nov 25 14:35, ARM..
Mon Nov 25 14:34, OFF
Mon Nov 25 14:34, ARM..
Mon Nov 25 14:33, OFF
Mon Nov 25 14:33, ARM..
Mon Nov 25 14:32, OFF
Mon Nov 25 14:32, ARM..
Mon Nov 25 14:19, OFF
Mon Nov 25 14:18, ARM..
Thu Nov 21 15:46, click
Sat Nov 2 17:07, OFF
Sat Nov 2 17:07, ARM..
Fri Nov 1 11:34, ARM..
Fri Nov 1 11:34, OFF
Fri Nov 1 10:25, ARM..
Thu Oct 31 16:26, OFF
Thu Oct 31 14:58, ARM..
Thu Oct 31 14:58, ARM..
Thu Oct 31 08:53, OFF
Thu Oct 31 08:53, ARM..
Thu Oct 31 08:53, OFF
Thu Oct 31 08:52, ARM..
Wed Oct 30 12:54, OFF
Wed Oct 30 12:45, ARM..
Wed Oct 30 11:56, OFF
Wed Oct 30 11:51, ARM..
Wed Oct 30 11:45, OFF
Wed Oct 30 11:41, ARM..
Tue Oct 29 19:17, click
Tue Oct 29 19:17, long_press
Mon Oct 28 22:16, OFF
Mon Oct 28 22:15, ARM..
Mon Oct 28 21:38, OFF
Mon Oct 28 21:37, ARM..
Mon Oct 28 21:36, OFF
Mon Oct 28 21:36, ARM..
Mon Oct 28 21:03, OFF
Mon Oct 28 21:03, ARM..
Mon Oct 28 17:04, OFF
Mon Oct 28 17:02, double_click
Mon Oct 28 16:56, OFF
Mon Oct 28 16:55, double_click
Mon Oct 28 16:53, OFF
Mon Oct 28 16:51, double_click
Mon Oct 28 16:51, OFF
Mon Oct 28 16:50, double_click
Mon Oct 28 16:44, OFF
Mon Oct 28 16:43, double_click
Mon Oct 28 16:41, double_click
Mon Oct 28 16:40, double_click
Mon Oct 28 16:40, double_click
Mon Oct 28 16:39, double_click
Mon Oct 28 16:21, OFF
Mon Oct 28 16:20, double_click
Mon Oct 28 16:20, OFF
Mon Oct 28 16:20, double_click
Sun Oct 27 17:16, OFF
Sun Oct 27 17:15, double_click
Sun Oct 27 13:34, OFF
Sun Oct 27 13:33, double_click
Sun Oct 27 13:32, OFF
Sun Oct 27 13:32, double_click
Sun Oct 27 13:32, OFF
Sun Oct 27 13:32, double_click
Sun Oct 27 13:32, double_click
Sun Oct 27 13:24, OFF
Sun Oct 27 13:24, double_click
Sun Oct 27 13:23, OFF
Sun Oct 27 13:23, double_click
Sun Oct 27 13:22, OFF
Sun Oct 27 13:22, double_click
Sun Oct 27 13:21, OFF
Sun Oct 27 13:20, double_click
Sun Oct 27 13:20, double_click
Sun Oct 27 13:19, double_click
Sun Oct 27 13:17, double_click
Sun Oct 27 13:17, double_click
Sun Oct 27 13:17, double_click
Sun Oct 27 13:16, double_click
Sun Oct 27 13:06, double_click
Sun Oct 27 13:06, double_click
Sun Oct 27 13:06, double_click
Sun Oct 27 13:05, double_click
Sun Oct 27 13:05, double_click
Sun Oct 27 13:05, double_click
Sun Oct 27 13:03, double_click
Sun Oct 27 13:03, double_click
Sun Oct 27 12:59, double_click
Sun Oct 27 12:59, double_click
Sun Oct 27 12:58, double_click
Sun Oct 27 12:55, double_click
Sun Oct 27 12:54, double_click
Sun Oct 27 12:54, double_click
Sun Oct 27 12:03, double_click
Sun Oct 27 12:03, double_click
Sun Oct 27 12:02, double_click
Sun Oct 27 12:02, double_click
Sat Oct 26 07:04, double_click
Sat Oct 26 07:03, double_click
Sat Oct 26 06:58, double_click
Sat Oct 26 06:57, double_click
Fri Oct 25 15:48, double_click
Fri Oct 25 15:47, double_click
Fri Oct 25 15:46, double_click
Fri Oct 25 15:45, double_click
Fri Oct 25 15:43, double_click
Fri Oct 25 15:43, double_click
Fri Oct 25 15:42, double_click
Fri Oct 25 15:39, double_click
Fri Oct 25 15:38, double_click
Fri Oct 25 15:36, double_click
Fri Oct 25 15:36, double_click
Fri Oct 25 15:34, double_click
Fri Oct 25 12:06, double_click
Fri Oct 25 12:00, double_click
Fri Oct 25 11:40, double_click
Fri Oct 25 11:39, double_click
Fri Oct 25 11:39, click
Fri Oct 25 11:32, click
Fri Oct 25 11:30, click
Tue Jun 4 11:23, click
Wed May 29 12:46, click
Wed May 29 12:37, click
Wed May 29 11:52, click
Wed May 29 11:52, click
Wed May 29 11:46, click
Wed May 29 11:43, click
Wed May 29 11:41, click
Wed May 29 11:41, click
Wed May 29 11:40, click
Wed May 29 11:40, click
Wed May 29 11:40, click
Wed May 29 11:39, click
Wed May 29 11:39, click
Wed May 29 11:39, click
Wed May 29 11:39, click
Wed May 29 11:38, click
Wed May 29 11:38, click
Wed May 29 11:38, click
Wed May 29 11:38, click
Wed May 29 11:37, click
Wed May 29 11:37, click
Wed May 29 11:31, click
Wed May 29 11:26, click
Mon May 27 13:15, click
Sat May 25 15:45, double_click
Sat May 25 15:44, double_click
Sat May 25 15:43, double_click
Sat May 25 15:43, double_click
Sat May 25 15:43, click
Sat May 25 15:37, double_click
Sat May 25 15:37, double_click
Sat May 25 15:34, double_click
Sat May 25 15:34, double_click
Sat May 25 15:33, double_click
Sat May 25 15:33, double_click
Fri May 24 16:22, click
Fri May 24 16:00, click
Fri May 24 15:45, click
Fri May 24 15:37, click
Fri May 24 15:31, click
Fri May 24 15:30, click
Fri May 24 15:14, click
Fri May 24 15:08, click
Fri May 24 15:07, click
Sat Mar 16 12:08, click
Tue Mar 12 12:19, click
Sun Mar 3 10:15, click
Fri Jan 25 15:56, click
Fri Nov 16 15:53, double_click
Fri Nov 16 15:53, double_click
Mon Nov 12 16:22, click
Mon Nov 12 16:20, click
Sun Nov 11 16:39, double_click
Sun Nov 11 16:38, click
Sun Nov 11 16:38, long_press
Sun Nov 11 16:38, click
Sun Nov 11 16:38, long_press
Sun Nov 11 16:38, click
Sun Nov 11 16:38, click
Sun Nov 11 16:38, long_press
Sun Nov 11 16:38, click
Sun Nov 11 16:38, click
Sun Nov 11 16:38, click
Sun Nov 11 16:38, click
Sun Nov 11 16:38, click
Sun Nov 11 16:38, click
Sun Nov 11 16:38, click
Sun Nov 11 16:38, click
Sat Nov 10 07:36, double_click
Sat Nov 10 06:48, double_click
Sat Nov 10 06:47, double_click
Fri Nov 9 17:17, double_click
Fri Nov 9 17:16, double_click
Thu Oct 25 17:15, click
Sat Oct 20 12:06, double_click
Sat Oct 20 12:06, double_click
Sat Oct 20 00:29, double_click
Fri Oct 19 19:13, double_click
Fri Oct 19 19:09, click
Thu Oct 18 09:58, double_click
Thu Oct 18 09:56, double_click
Sat Sep 29 18:38, double_click
Sat Sep 29 18:37, double_click
Sat Sep 29 18:37, click
Sat Sep 29 18:37, click
Sun Sep 23 12:38, double_click
Sun Sep 23 12:38, double_click
Sun Sep 23 12:37, double_click
Sun Sep 23 12:37, click
Sat Sep 22 23:37, double_click
Sat Sep 22 23:37, click
Sat Sep 22 23:37, click
Sat Sep 22 17:22, double_click
Sat Sep 22 17:13, double_click
Sat Sep 22 17:13, double_click
Sun Sep 16 17:48, long_release
Sun Sep 16 17:48, long_press
Sun Sep 9 06:51, double_click
Sun Sep 9 06:51, double_click
Sun Sep 9 06:41, double_click
Sun Sep 9 06:41, double_click
Sat Sep 8 23:20, double_click
Sat Sep 8 13:31, double_click
Sat Sep 8 13:26, double_click
Sat Sep 8 13:26, double_click
Mon Sep 3 09:50, double_click
Mon Sep 3 09:49, double_click
Mon Sep 3 09:49, click
Mon Sep 3 09:49, long_press
Mon Sep 3 09:48, click
Mon Sep 3 09:47, click
Mon Sep 3 09:47, double_click
Mon Sep 3 09:47, long_release
Mon Sep 3 09:47, long_press
Mon Sep 3 09:45, double_click
Mon Sep 3 09:45, double_click
Mon Sep 3 09:45, double_click
Mon Sep 3 09:44, double_click
Fri Aug 17 10:59, click
Fri Aug 17 08:34, double_click
Fri Aug 17 08:32, double_click
Wed Aug 15 12:40, click
Wed Aug 15 10:29, double_click
Wed Aug 15 10:28, double_click
Wed Aug 15 10:28, click
Wed Aug 15 10:28, click
Wed Aug 15 10:28, click
Wed Aug 15 10:28, double_click
Wed Aug 15 10:26, double_click
Tue Aug 14 20:35, double_click
Tue Aug 14 20:35, double_click
Tue Aug 14 20:33, click
Tue Aug 14 17:21, double_click
Tue Aug 14 17:09, double_click
Tue Aug 14 17:04, double_click
Tue Aug 14 17:04, double_click
Tue Aug 14 17:04, click
Tue Aug 14 17:04, double_click
Wed May 30 19:10, click
Sat May 5 13:33, click
Fri May 4 06:34, click
Fri May 4 06:33, click
Thu May 3 16:55, click
Thu May 3 15:47, click
Thu May 3 15:47, click
Thu May 3 15:47, click
Thu May 3 15:47, click
Thu May 3 15:46, click
Thu May 3 15:46, click
Thu May 3 15:46, click
Thu May 3 15:46, click
Thu May 3 15:46, click
Thu May 3 15:45, click
Thu May 3 15:45, click
Thu May 3 15:26, click
Fri Apr 20 09:11, click
Fri Apr 13 16:02, double_click
Fri Apr 13 09:33, click
Fri Mar 16 10:05, click
Fri Mar 16 08:19, click
Fri Mar 16 07:55, click
Fri Mar 16 07:50, click
Fri Mar 16 07:48, click
Fri Mar 16 07:46, click
Thu Mar 15 16:28, click
Thu Mar 15 16:28, click
Mon Mar 5 16:53, click
Mon Mar 5 14:27, click
Mon Mar 5 14:24, click
Mon Mar 5 14:24, click
Tue Feb 20 06:27, click
Tue Feb 20 06:25, click
Tue Feb 20 06:15, click
Tue Feb 20 06:10, click
Mon Feb 19 22:08, click

s8 FLOOD !
Wed Jun 3 12:34, no_leak

Wed Jun 3 12:34, no_leak
Wed Jun 3 11:44, no_leak
Wed Jun 3 10:54, no_leak
Wed Jun 3 10:03, no_leak
Wed Jun 3 09:13, no_leak
Wed Jun 3 08:23, no_leak
Wed Jun 3 07:33, no_leak
Wed Jun 3 06:42, no_leak
Wed Jun 3 05:52, no_leak
Wed Jun 3 05:02, no_leak
Wed Jun 3 04:12, no_leak
Wed Jun 3 03:21, no_leak
Wed Jun 3 02:31, no_leak
Wed Jun 3 01:41, no_leak
Wed Jun 3 00:51, no_leak
Wed Jun 3 00:01, no_leak
Tue Jun 2 23:10, no_leak
Tue Jun 2 22:20, no_leak
Tue Jun 2 21:30, no_leak
Tue Jun 2 20:40, no_leak
Tue Jun 2 19:50, no_leak
Tue Jun 2 18:59, no_leak
Tue Jun 2 18:09, no_leak
Tue Jun 2 17:19, no_leak
Tue Jun 2 16:29, no_leak
Tue Jun 2 15:39, no_leak
Tue Jun 2 14:48, no_leak
Tue Jun 2 13:58, no_leak
Tue Jun 2 13:08, no_leak
Tue Jun 2 12:18, no_leak
Tue Jun 2 11:28, no_leak
Tue Jun 2 10:38, no_leak
Tue Jun 2 09:48, no_leak
Tue Jun 2 08:57, no_leak
Tue Jun 2 08:07, no_leak
Tue Jun 2 07:17, no_leak
Tue Jun 2 06:27, no_leak
Tue Jun 2 05:36, no_leak
Tue Jun 2 04:46, no_leak
Tue Jun 2 03:56, no_leak
Tue Jun 2 03:06, no_leak
Tue Jun 2 02:16, no_leak
Tue Jun 2 01:25, no_leak
Tue Jun 2 00:35, no_leak
Mon Jun 1 23:45, no_leak
Mon Jun 1 22:55, no_leak
Mon Jun 1 22:05, no_leak
Mon Jun 1 21:14, no_leak
Mon Jun 1 20:24, no_leak
Mon Jun 1 19:34, no_leak
Mon Jun 1 18:44, no_leak
Mon Jun 1 17:54, no_leak
Mon Jun 1 17:03, no_leak
Mon Jun 1 16:13, no_leak
Mon Jun 1 15:23, no_leak
Mon Jun 1 14:33, no_leak
Mon Jun 1 13:43, no_leak
Mon Jun 1 12:52, no_leak
Mon Jun 1 12:02, no_leak
Mon Jun 1 11:12, no_leak
Mon Jun 1 10:22, no_leak
Mon Jun 1 09:32, no_leak
Mon Jun 1 08:41, no_leak
Mon Jun 1 07:51, no_leak
Mon Jun 1 07:01, no_leak
Mon Jun 1 06:11, no_leak
Mon Jun 1 05:21, no_leak
Mon Jun 1 04:30, no_leak
Mon Jun 1 03:40, no_leak
Mon Jun 1 02:50, no_leak
Mon Jun 1 02:00, no_leak
Mon Jun 1 01:10, no_leak
Mon Jun 1 00:19, no_leak
Sun May 31 23:29, no_leak
Sun May 31 22:39, no_leak
Sun May 31 21:49, no_leak
Sun May 31 20:59, no_leak
Sun May 31 20:08, no_leak
Sun May 31 19:18, no_leak
Sun May 31 18:28, no_leak
Sun May 31 17:38, no_leak
Sun May 31 16:48, no_leak
Sun May 31 15:57, no_leak
Sun May 31 15:07, no_leak
Sun May 31 14:17, no_leak
Sun May 31 13:27, no_leak
Sun May 31 12:37, no_leak
Sun May 31 11:47, no_leak
Sun May 31 10:56, no_leak
Sun May 31 10:06, no_leak
Sun May 31 09:16, no_leak
Sun May 31 08:26, no_leak
Sun May 31 07:36, no_leak
Sun May 31 06:45, no_leak
Sun May 31 05:55, no_leak
Sun May 31 05:05, no_leak
Sun May 31 04:15, no_leak
Sun May 31 03:24, no_leak
Sun May 31 02:34, no_leak
Sun May 31 01:44, no_leak
Sun May 31 00:54, no_leak
Sun May 31 00:03, no_leak
Sat May 30 23:13, no_leak
Sat May 30 22:23, no_leak
Sat May 30 21:33, no_leak
Sat May 30 20:43, no_leak
Sat May 30 19:02, no_leak
Sat May 30 18:12, no_leak
Sat May 30 17:22, no_leak
Sat May 30 16:32, no_leak
Sat May 30 15:41, no_leak
Sat May 30 14:51, no_leak
Sat May 30 14:01, no_leak
Sat May 30 13:11, no_leak
Sat May 30 12:21, no_leak
Sat May 30 11:31, no_leak
Sat May 30 10:41, no_leak
Sat May 30 09:50, no_leak
Sat May 30 09:00, no_leak
Sat May 30 08:10, no_leak
Sat May 30 07:20, no_leak
Sat May 30 06:30, no_leak
Sat May 30 05:39, no_leak
Sat May 30 04:49, no_leak
Sat May 30 03:59, no_leak
Sat May 30 03:09, no_leak
Sat May 30 02:18, no_leak
Sat May 30 01:28, no_leak
Sat May 30 00:38, no_leak
Fri May 29 23:48, no_leak
Fri May 29 22:58, no_leak
Fri May 29 22:08, no_leak
Fri May 29 21:17, no_leak
Fri May 29 20:27, no_leak
Fri May 29 19:37, no_leak
Fri May 29 18:47, no_leak
Fri May 29 17:57, no_leak
Fri May 29 17:06, no_leak
Fri May 29 16:16, no_leak
Fri May 29 15:26, no_leak
Fri May 29 14:36, no_leak
Fri May 29 13:46, no_leak
Fri May 29 12:55, no_leak
Fri May 29 12:05, no_leak
Fri May 29 11:15, no_leak
Fri May 29 10:25, no_leak
Fri May 29 09:35, no_leak
Fri May 29 08:45, no_leak
Fri May 29 07:54, no_leak
Fri May 29 07:04, no_leak
Fri May 29 06:14, no_leak
Fri May 29 05:24, no_leak
Fri May 29 04:34, no_leak
Fri May 29 03:43, no_leak
Fri May 29 02:53, no_leak
Fri May 29 02:03, no_leak
Fri May 29 01:13, no_leak
Fri May 29 00:22, no_leak
Thu May 28 23:32, no_leak
Thu May 28 22:42, no_leak
Thu May 28 21:52, no_leak
Thu May 28 21:02, no_leak
Thu May 28 20:12, no_leak
Thu May 28 19:21, no_leak
Thu May 28 18:31, no_leak
Thu May 28 17:41, no_leak
Thu May 28 16:51, no_leak
Thu May 28 16:01, no_leak
Thu May 28 15:10, no_leak
Thu May 28 14:20, no_leak
Thu May 28 13:30, no_leak
Thu May 28 12:40, no_leak
Thu May 28 11:50, no_leak
Thu May 28 11:00, no_leak
Thu May 28 10:09, no_leak
Thu May 28 09:19, no_leak
Thu May 28 08:29, no_leak
Thu May 28 07:39, no_leak
Thu May 28 06:48, no_leak
Thu May 28 05:58, no_leak
Thu May 28 05:08, no_leak
Thu May 28 04:18, no_leak
Thu May 28 03:28, no_leak
Thu May 28 02:37, no_leak
Thu May 28 01:47, no_leak
Thu May 28 00:57, no_leak
Thu May 28 00:07, no_leak
Wed May 27 23:17, no_leak
Wed May 27 22:26, no_leak
Wed May 27 21:36, no_leak
Wed May 27 20:46, no_leak
Wed May 27 19:56, no_leak
Wed May 27 19:06, no_leak
Wed May 27 18:15, no_leak
Wed May 27 17:25, no_leak
Wed May 27 16:35, no_leak
Wed May 27 15:45, no_leak
Wed May 27 14:55, no_leak
Wed May 27 14:04, no_leak
Wed May 27 13:14, no_leak
Wed May 27 12:24, no_leak
Wed May 27 11:34, no_leak
Wed May 27 10:44, no_leak
Wed May 27 09:53, no_leak
Wed May 27 09:03, no_leak
Wed May 27 08:13, no_leak
Wed May 27 07:23, no_leak
Wed May 27 06:32, no_leak
Wed May 27 05:42, no_leak
Wed May 27 04:52, no_leak
Wed May 27 04:02, no_leak
Wed May 27 03:11, no_leak
Wed May 27 02:21, no_leak
Wed May 27 01:31, no_leak
Wed May 27 00:41, no_leak
Tue May 26 23:51, no_leak
Tue May 26 23:00, no_leak
Tue May 26 22:10, no_leak
Tue May 26 21:20, no_leak
Tue May 26 20:30, no_leak
Tue May 26 19:39, no_leak
Tue May 26 18:49, no_leak
Tue May 26 17:59, no_leak
Tue May 26 17:09, no_leak
Tue May 26 16:19, no_leak
Tue May 26 15:29, no_leak
Tue May 26 14:38, no_leak
Tue May 26 13:48, no_leak
Tue May 26 12:58, no_leak
Tue May 26 12:08, no_leak
Tue May 26 11:18, no_leak
Tue May 26 10:27, no_leak
Tue May 26 09:37, no_leak
Tue May 26 08:47, no_leak
Tue May 26 07:57, no_leak
Tue May 26 07:06, no_leak
Tue May 26 06:16, no_leak
Tue May 26 05:26, no_leak
Tue May 26 04:36, no_leak
Tue May 26 03:46, no_leak
Tue May 26 02:55, no_leak
Tue May 26 02:05, no_leak
Tue May 26 01:15, no_leak
Tue May 26 00:25, no_leak
Mon May 25 23:35, no_leak
Mon May 25 22:44, no_leak
Mon May 25 21:54, no_leak
Mon May 25 21:04, no_leak
Mon May 25 20:14, no_leak
Mon May 25 19:24, no_leak
Mon May 25 18:33, no_leak
Mon May 25 17:43, no_leak
Mon May 25 16:53, no_leak
Mon May 25 16:03, no_leak
Mon May 25 15:13, no_leak
Mon May 25 14:22, no_leak
Mon May 25 13:32, no_leak
Mon May 25 12:42, no_leak
Mon May 25 11:52, no_leak
Mon May 25 11:02, no_leak
Mon May 25 10:11, no_leak
Mon May 25 09:21, no_leak
Mon May 25 08:31, no_leak
Mon May 25 07:41, no_leak
Mon May 25 06:51, no_leak
Mon May 25 06:00, no_leak
Mon May 25 05:10, no_leak
Mon May 25 04:20, no_leak
Mon May 25 03:30, no_leak
Mon May 25 02:39, no_leak
Mon May 25 01:49, no_leak
Mon May 25 00:59, no_leak
Mon May 25 00:09, no_leak
Sun May 24 23:19, no_leak
Sun May 24 22:28, no_leak
Sun May 24 21:38, no_leak
Sun May 24 20:48, no_leak
Sun May 24 19:58, no_leak
Sun May 24 19:07, no_leak
Sun May 24 18:17, no_leak
Sun May 24 17:27, no_leak
Sun May 24 16:37, no_leak
Sun May 24 15:47, no_leak
Sun May 24 14:56, no_leak
Sun May 24 14:06, no_leak
Sun May 24 13:16, no_leak
Sun May 24 12:26, no_leak
Sun May 24 11:36, no_leak
Sun May 24 10:45, no_leak
Sun May 24 09:55, no_leak
Sun May 24 09:05, no_leak
Sun May 24 08:15, no_leak
Sun May 24 07:25, no_leak
Sun May 24 06:34, no_leak
Sun May 24 05:44, no_leak
Sun May 24 04:54, no_leak
Sun May 24 04:04, no_leak
Sun May 24 03:13, no_leak
Sun May 24 01:33, no_leak
Sun May 24 00:43, no_leak
Sat May 23 23:52, no_leak
Sat May 23 23:02, no_leak
Sat May 23 22:12, no_leak
Sat May 23 21:22, no_leak
Sat May 23 20:32, no_leak
Sat May 23 19:41, no_leak
Sat May 23 18:51, no_leak
Sat May 23 18:01, no_leak
Sat May 23 17:11, no_leak
Sat May 23 16:21, no_leak
Sat May 23 15:30, no_leak
Sat May 23 14:40, no_leak
Sat May 23 13:50, no_leak
Sat May 23 13:00, no_leak
Sat May 23 12:09, no_leak
Sat May 23 11:19, no_leak
Sat May 23 10:29, no_leak
Sat May 23 09:39, no_leak
Sat May 23 08:48, no_leak
Sat May 23 07:58, no_leak
Sat May 23 07:08, no_leak
Sat May 23 06:18, no_leak
Sat May 23 05:28, no_leak
Sat May 23 04:37, no_leak
Sat May 23 03:47, no_leak
Sat May 23 02:57, no_leak
Sat May 23 02:07, no_leak
Sat May 23 01:16, no_leak
Sat May 23 00:26, no_leak
Fri May 22 23:36, no_leak
Fri May 22 22:46, no_leak
Fri May 22 21:56, no_leak
Fri May 22 21:05, no_leak
Fri May 22 20:15, no_leak
Fri May 22 19:25, no_leak
Fri May 22 18:35, no_leak
Fri May 22 17:45, no_leak
Fri May 22 04:21, no_leak
Fri May 22 03:31, no_leak
Fri May 22 02:41, no_leak
Fri May 22 01:51, no_leak
Fri May 22 01:00, no_leak
Fri May 22 00:10, no_leak
Thu May 21 23:20, no_leak
Thu May 21 22:30, no_leak
Thu May 21 21:40, no_leak
Thu May 21 20:49, no_leak
Thu May 21 19:59, no_leak
Thu May 21 19:09, no_leak
Thu May 21 18:19, no_leak
Thu May 21 17:29, no_leak
Thu May 21 16:38, no_leak
Thu May 21 15:48, no_leak
Thu May 21 14:58, no_leak
Thu May 21 14:08, no_leak
Thu May 21 13:18, no_leak
Thu May 21 12:27, no_leak
Thu May 21 11:37, no_leak
Thu May 21 10:47, no_leak
Thu May 21 09:57, no_leak
Thu May 21 09:06, no_leak
Thu May 21 08:16, no_leak
Thu May 21 07:26, no_leak
Thu May 21 06:36, no_leak
Thu May 21 05:46, no_leak
Thu May 21 04:55, no_leak
Thu May 21 04:05, no_leak
Thu May 21 03:15, no_leak
Thu May 21 02:25, no_leak
Thu May 21 01:34, no_leak
Thu May 21 00:44, no_leak
Wed May 20 23:54, no_leak
Wed May 20 23:04, no_leak
Wed May 20 22:14, no_leak
Wed May 20 21:23, no_leak
Wed May 20 20:33, no_leak
Wed May 20 19:43, no_leak
Wed May 20 18:53, no_leak
Wed May 20 18:03, no_leak
Wed May 20 17:12, no_leak
Wed May 20 16:22, no_leak
Wed May 20 15:32, no_leak
Wed May 20 14:42, no_leak
Wed May 20 13:52, no_leak
Wed May 20 13:02, no_leak
Wed May 20 12:11, no_leak
Wed May 20 11:21, no_leak
Wed May 20 10:31, no_leak
Wed May 20 09:41, no_leak
Wed May 20 08:51, no_leak
Wed May 20 08:00, no_leak
Wed May 20 07:10, no_leak
Wed May 20 06:20, no_leak
Wed May 20 05:30, no_leak
Wed May 20 04:39, no_leak
Wed May 20 03:49, no_leak
Wed May 20 02:59, no_leak
Wed May 20 02:09, no_leak
Wed May 20 01:19, no_leak
Wed May 20 00:28, no_leak
Tue May 19 23:38, no_leak
Tue May 19 22:48, no_leak
Tue May 19 21:58, no_leak
Tue May 19 21:08, no_leak
Tue May 19 20:17, no_leak
Tue May 19 19:27, no_leak
Tue May 19 18:37, no_leak
Tue May 19 17:47, no_leak
Tue May 19 16:56, no_leak
Tue May 19 16:06, no_leak
Tue May 19 15:16, no_leak
Tue May 19 14:26, no_leak
Tue May 19 13:36, no_leak
Tue May 19 12:45, no_leak
Tue May 19 11:55, no_leak
Tue May 19 11:05, no_leak
Tue May 19 10:15, no_leak
Tue May 19 08:34, no_leak
Tue May 19 07:44, no_leak
Tue May 19 06:54, no_leak
Tue May 19 06:03, no_leak
Tue May 19 05:13, no_leak
Tue May 19 04:23, no_leak
Tue May 19 03:33, no_leak
Tue May 19 02:43, no_leak
Tue May 19 01:52, no_leak
Tue May 19 01:02, no_leak
Tue May 19 00:12, no_leak
Mon May 18 23:22, no_leak
Mon May 18 21:41, no_leak
Mon May 18 20:00, no_leak
Mon May 18 19:10, no_leak
Mon May 18 18:20, no_leak
Mon May 18 17:30, no_leak
Mon May 18 16:40, no_leak
Mon May 18 15:49, no_leak
Mon May 18 14:59, no_leak
Mon May 18 14:09, no_leak
Mon May 18 13:19, no_leak
Mon May 18 12:29, no_leak
Mon May 18 11:38, no_leak
Mon May 18 10:48, no_leak
Mon May 18 09:58, no_leak
Mon May 18 09:08, no_leak
Mon May 18 08:17, no_leak
Mon May 18 07:27, no_leak
Mon May 18 06:37, no_leak
Mon May 18 05:47, no_leak
Mon May 18 04:56, no_leak
Mon May 18 04:06, no_leak
Mon May 18 03:16, no_leak
Mon May 18 01:36, no_leak
Mon May 18 00:45, no_leak
Sun May 17 23:55, no_leak
Sun May 17 23:05, no_leak
Sun May 17 22:15, no_leak
Sun May 17 21:24, no_leak
Sun May 17 20:34, no_leak
Sun May 17 19:44, no_leak
Sun May 17 18:54, no_leak
Sun May 17 18:03, no_leak
Sun May 17 17:13, no_leak
Sun May 17 16:23, no_leak
Sun May 17 15:33, no_leak
Sun May 17 14:42, no_leak
Sun May 17 13:52, no_leak
Sun May 17 13:02, no_leak
Sun May 17 12:12, no_leak
Sun May 17 11:22, no_leak
Sun May 17 10:31, no_leak
Sun May 17 09:41, no_leak
Sun May 17 08:51, no_leak
Sun May 17 08:01, no_leak
Sun May 17 07:11, no_leak
Sun May 17 06:20, no_leak
Sun May 17 05:30, no_leak
Sun May 17 04:40, no_leak
Sun May 17 03:49, no_leak
Sun May 17 02:59, no_leak
Sun May 17 02:09, no_leak
Sun May 17 01:19, no_leak
Sun May 17 00:29, no_leak
Sat May 16 23:38, no_leak
Sat May 16 22:48, no_leak
Sat May 16 21:58, no_leak
Sat May 16 21:08, no_leak
Sat May 16 20:17, no_leak
Sat May 16 19:27, no_leak
Sat May 16 18:37, no_leak
Sat May 16 17:47, no_leak
Sat May 16 16:57, no_leak
Sat May 16 16:06, no_leak
Sat May 16 15:16, no_leak
Sat May 16 14:26, no_leak
Sat May 16 13:36, no_leak
Sat May 16 12:46, no_leak
Sat May 16 11:55, no_leak
Sat May 16 11:05, no_leak
Sat May 16 10:15, no_leak
Sat May 16 09:25, no_leak
Sat May 16 08:35, no_leak
Sat May 16 07:44, no_leak
Sat May 16 06:54, no_leak
Sat May 16 06:04, no_leak
Sat May 16 05:14, no_leak
Sat May 16 04:23, no_leak
Sat May 16 03:33, no_leak
Sat May 16 02:43, no_leak
Fri May 15 11:39, no_leak
Fri May 15 10:49, no_leak
Fri May 15 09:59, no_leak
Fri May 15 09:08, no_leak
Fri May 15 08:18, no_leak
Fri May 15 07:28, no_leak
Fri May 15 06:38, no_leak

s9 Front Door
Tue Jun 2 13:30:25, status close

Tue Jun 2 13:30:25, status close
Tue Jun 2 13:30:15, status open
Tue Jun 2 10:11:26, status close
Tue Jun 2 09:57:56, no_close 5m
Tue Jun 2 09:53:55, no_close 1m
Tue Jun 2 09:52:56, status open
Mon Jun 1 20:28:40, status close
Mon Jun 1 20:28:36, status open
Mon Jun 1 20:27:19, status close
Mon Jun 1 20:27:14, status open
Mon Jun 1 19:04:14, status close
Mon Jun 1 19:03:58, no_close 1m
Mon Jun 1 19:02:59, status open
Mon Jun 1 14:20:30, status close
Mon Jun 1 14:20:26, status open
Mon Jun 1 12:07:16, status close
Mon Jun 1 12:06:25, status open
Mon Jun 1 10:48:35, status close
Mon Jun 1 10:48:26, status open
Mon Jun 1 10:45:23, status close
Mon Jun 1 10:45:20, status open
Mon Jun 1 08:19:10, status close
Mon Jun 1 08:15:12, no_close 1m
Mon Jun 1 08:14:12, status open
Sun May 31 20:06:58, status close
Sun May 31 20:06:33, status open
Sun May 31 19:08:43, status close
Sun May 31 19:08:34, no_close 1m
Sun May 31 19:07:35, status open
Sun May 31 19:07:17, status close
Sun May 31 19:07:15, status open
Sun May 31 18:19:58, status close
Sun May 31 18:19:54, status open
Sun May 31 18:19:25, status close
Sun May 31 18:19:21, status open
Sun May 31 16:39:51, status close
Sun May 31 16:39:25, no_close 1m
Sun May 31 16:38:25, status open
Sun May 31 16:23:35, status close
Sun May 31 16:21:59, no_close 5m
Sun May 31 16:18:00, no_close 1m
Sun May 31 16:17:00, status open
Sun May 31 15:52:16, status close
Sun May 31 15:52:13, status open
Sun May 31 15:48:46, status close
Sun May 31 15:48:40, no_close 1m
Sun May 31 15:47:40, status open
Sun May 31 15:42:42, status close
Sun May 31 15:39:46, no_close 5m
Sun May 31 15:35:46, no_close 1m
Sun May 31 15:34:46, status open
Sun May 31 15:24:05, status close
Sun May 31 15:24:02, no_close 5m
Sun May 31 15:20:00, no_close 1m
Sun May 31 15:19:00, status open
Sun May 31 13:28:32, status close
Sun May 31 13:27:24, no_close 1m
Sun May 31 13:26:25, status open
Sun May 31 10:34:17, status close
Sun May 31 10:34:16, status open
Sun May 31 10:34:15, status close
Sun May 31 10:32:56, no_close 1m
Sun May 31 10:31:57, status open
Sat May 30 18:49:01, status close
Sat May 30 18:48:55, status open
Sat May 30 13:42:32, status close
Sat May 30 13:42:27, status open
Sat May 30 13:42:14, status close
Sat May 30 13:40:11, no_close 1m
Sat May 30 13:39:11, status open
Sat May 30 13:29:36, status close
Sat May 30 13:29:33, status open
Sat May 30 13:28:19, status close
Sat May 30 13:28:16, status open
Sat May 30 13:00:22, status close
Sat May 30 13:00:17, status open
Sat May 30 12:54:02, status close
Sat May 30 12:53:59, status open
Sat May 30 12:53:32, status close
Sat May 30 12:52:59, status open
Sat May 30 12:42:27, status close
Sat May 30 12:42:15, status open
Sat May 30 12:42:01, status close
Sat May 30 12:41:58, status open
Sat May 30 12:33:45, status close
Sat May 30 12:33:43, status open
Sat May 30 12:12:25, status close
Sat May 30 12:12:22, status open
Sat May 30 11:41:20, status close
Sat May 30 11:41:18, status open
Sat May 30 11:01:15, status close
Sat May 30 11:01:12, status open
Sat May 30 10:13:13, status close
Sat May 30 10:13:05, no_close 1m
Sat May 30 10:12:06, status open
Sat May 30 07:25:29, status close
Sat May 30 07:25:24, status open
Sat May 30 07:20:08, status close
Sat May 30 07:20:05, status open
Sat May 30 07:16:18, status close
Sat May 30 07:16:16, status open
Fri May 29 22:46:22, status close
Fri May 29 22:46:18, status open
Fri May 29 19:37:57, status close
Fri May 29 19:37:48, status open
Fri May 29 19:37:34, status close
Fri May 29 19:37:31, status open
Fri May 29 19:36:45, status close
Fri May 29 19:36:43, status open
Fri May 29 18:56:27, status close
Fri May 29 18:56:23, status open
Fri May 29 18:54:56, status close
Fri May 29 18:54:53, status open
Fri May 29 18:01:00, status close
Fri May 29 18:00:29, status open
Fri May 29 17:59:41, status close
Fri May 29 17:59:10, status open
Fri May 29 15:14:54, status close
Fri May 29 15:14:52, status open
Fri May 29 14:33:31, status close
Fri May 29 14:32:56, no_close 1m
Fri May 29 14:31:56, status open
Fri May 29 11:11:36, status close
Fri May 29 11:11:32, status open
Fri May 29 10:50:38, status close
Fri May 29 10:50:29, status open
Fri May 29 09:19:05, status close
Fri May 29 09:19:00, status open
Fri May 29 09:11:06, status close
Fri May 29 09:09:53, no_close 5m
Fri May 29 09:05:51, no_close 1m
Fri May 29 09:04:52, status open
Thu May 28 21:35:16, status close
Thu May 28 21:35:13, status open
Thu May 28 21:07:00, status close
Thu May 28 21:06:46, status open
Thu May 28 21:06:22, status close
Thu May 28 21:06:17, status open
Thu May 28 20:49:42, status close
Thu May 28 20:49:32, status open
Thu May 28 19:31:41, status close
Thu May 28 19:31:38, status open
Thu May 28 19:23:27, status close
Thu May 28 19:23:23, status open
Thu May 28 18:02:13, status close
Thu May 28 18:02:08, status open
Thu May 28 18:01:45, status close
Thu May 28 18:01:29, status open
Thu May 28 17:36:50, status close
Thu May 28 17:36:47, no_close 1m
Thu May 28 17:35:47, status open
Thu May 28 17:14:03, status close
Thu May 28 17:13:59, status open
Thu May 28 17:13:22, status close
Thu May 28 17:13:12, status open
Thu May 28 15:34:40, status close
Thu May 28 15:34:28, status open
Thu May 28 13:54:50, status close
Thu May 28 13:54:45, status open
Thu May 28 11:21:42, status close
Thu May 28 11:21:39, status open
Thu May 28 08:57:43, status close
Thu May 28 08:57:40, status open
Wed May 27 19:54:55, status close
Wed May 27 18:11:51, no_close 5m
Wed May 27 18:07:51, no_close 1m
Wed May 27 18:06:51, status open
Wed May 27 18:06:50, status close
Wed May 27 17:43:28, no_close 5m
Wed May 27 17:39:26, no_close 1m
Wed May 27 17:38:27, status open
Wed May 27 17:02:13, status close
Wed May 27 17:02:10, status open
Wed May 27 16:57:25, status close
Wed May 27 16:57:22, status open
Wed May 27 16:56:12, status close
Wed May 27 16:56:04, status open
Wed May 27 14:52:11, status close
Wed May 27 13:55:57, no_close 5m
Wed May 27 13:51:56, no_close 1m
Wed May 27 13:50:57, status open
Wed May 27 13:49:12, status close
Wed May 27 13:49:08, status open
Wed May 27 13:47:47, status close
Wed May 27 13:46:17, no_close 1m
Wed May 27 13:45:16, status open
Wed May 27 13:15:42, status close
Wed May 27 13:15:26, status open
Wed May 27 10:49:11, status close
Wed May 27 10:48:55, status open
Tue May 26 20:55:53, status close
Tue May 26 20:55:35, status open
Tue May 26 19:32:40, status close
Tue May 26 19:32:35, no_close 1m
Tue May 26 19:31:36, status open
Tue May 26 19:31:20, status close
Tue May 26 19:22:28, no_close 5m
Tue May 26 19:18:27, no_close 1m
Tue May 26 19:17:27, status open
Tue May 26 19:17:26, status close
Tue May 26 19:17:15, no_close 1m
Tue May 26 19:16:16, status open
Tue May 26 19:00:18, status close
Tue May 26 19:00:08, status open
Tue May 26 18:50:07, status close
Tue May 26 18:49:32, status open
Tue May 26 17:33:27, status close
Tue May 26 17:33:21, status open
Tue May 26 17:32:54, status close
Tue May 26 17:32:50, status open
Tue May 26 17:32:46, status close
Tue May 26 17:32:43, status open
Tue May 26 16:55:46, status close
Tue May 26 16:55:41, status open
Tue May 26 16:00:35, status close
Tue May 26 16:00:17, status open
Tue May 26 13:55:20, status close
Tue May 26 13:55:02, status open
Tue May 26 12:35:23, status close
Tue May 26 12:35:07, status open
Tue May 26 12:01:00, status close
Tue May 26 12:00:57, status open
Tue May 26 12:00:32, status close
Tue May 26 12:00:29, status open
Tue May 26 11:59:14, status close
Tue May 26 11:58:49, status open
Tue May 26 11:58:21, status close
Tue May 26 11:58:18, status open
Tue May 26 10:59:42, status close
Tue May 26 10:59:40, status open
Tue May 26 10:27:10, status close
Tue May 26 10:25:55, no_close 1m
Tue May 26 10:24:56, status open
Tue May 26 09:29:20, status close
Tue May 26 09:29:05, status open
Mon May 25 20:10:26, status close
Mon May 25 20:10:19, no_close 1m
Mon May 25 20:09:20, status open
Mon May 25 13:00:48, status close
Mon May 25 13:00:36, status open
Mon May 25 10:59:38, status close
Mon May 25 10:58:42, no_close 5m
Mon May 25 10:54:41, no_close 1m
Mon May 25 10:53:41, status open
Sun May 24 17:52:37, status close
Sun May 24 17:49:47, no_close 1m
Sun May 24 17:48:47, status open
Sun May 24 14:07:29, status close
Sun May 24 13:59:23, no_close 5m
Sun May 24 13:55:21, no_close 1m
Sun May 24 13:54:21, status open
Sun May 24 12:41:47, status close
Sun May 24 12:41:16, status open
Sun May 24 11:31:32, status close
Sun May 24 11:31:29, status open
Sat May 23 12:17:48, status close
Sat May 23 12:17:44, status open
Sat May 23 12:08:06, status close
Sat May 23 12:08:02, status open
Fri May 22 19:12:32, status close
Fri May 22 19:12:27, status open
Fri May 22 19:10:54, status close
Fri May 22 19:10:49, status open
Thu May 21 20:01:33, status close
Thu May 21 20:01:02, no_close 1m
Thu May 21 20:00:02, status open
Thu May 21 17:54:01, status close
Thu May 21 17:53:18, status open
Thu May 21 17:44:05, status close
Thu May 21 17:44:02, status open
Thu May 21 16:33:17, status close
Thu May 21 16:20:36, no_close 5m
Thu May 21 16:16:35, no_close 1m
Thu May 21 16:15:34, status open
Thu May 21 16:08:32, status close
Thu May 21 16:08:30, status open
Thu May 21 15:40:16, status close
Thu May 21 15:40:15, status open
Thu May 21 15:05:04, status close
Thu May 21 15:05:01, status open
Thu May 21 07:34:23, status close
Thu May 21 07:34:20, status open
Thu May 21 07:22:18, status close
Thu May 21 07:21:50, status open
Wed May 20 22:16:21, status close
Wed May 20 22:16:17, status open
Wed May 20 22:12:16, status close
Wed May 20 22:12:12, status open
Wed May 20 20:58:25, status close
Wed May 20 20:58:24, status open
Wed May 20 19:31:48, status close
Wed May 20 19:31:47, status open
Wed May 20 18:10:39, status close
Wed May 20 18:10:35, status open
Wed May 20 18:08:11, status close
Wed May 20 18:06:51, no_close 5m
Wed May 20 18:02:52, no_close 1m
Wed May 20 18:01:52, status open
Wed May 20 18:01:51, status close
Wed May 20 18:01:47, status open
Wed May 20 17:51:36, status close
Wed May 20 17:51:32, status open
Wed May 20 17:48:00, status close
Wed May 20 17:47:57, status open
Wed May 20 17:44:01, status close
Wed May 20 17:30:39, no_close 5m
Wed May 20 17:26:38, no_close 1m
Wed May 20 17:25:38, status open
Wed May 20 14:10:03, status close
Wed May 20 14:09:08, status open
Wed May 20 13:38:10, status close
Wed May 20 12:35:16, no_close 5m
Wed May 20 12:31:18, no_close 1m
Wed May 20 12:30:17, status open
Wed May 20 12:25:54, status close
Wed May 20 12:25:11, no_close 5m
Wed May 20 12:21:10, no_close 1m
Wed May 20 12:20:09, status open
Wed May 20 10:08:50, status close
Wed May 20 10:08:31, no_close 5m
Wed May 20 10:04:29, no_close 1m
Wed May 20 10:03:30, status open
Wed May 20 09:55:40, status close
Wed May 20 09:55:36, status open
Wed May 20 09:42:33, status close
Wed May 20 09:42:26, status open
Tue May 19 17:55:34, status close
Tue May 19 17:55:18, no_close 1m
Tue May 19 17:54:18, status open
Tue May 19 17:52:06, status close
Tue May 19 17:51:55, status open
Tue May 19 17:50:49, status close
Tue May 19 17:50:48, status open
Tue May 19 15:08:35, status close
Tue May 19 15:08:22, status open
Tue May 19 14:00:38, status close
Tue May 19 14:00:31, status open
Tue May 19 13:25:40, status close
Tue May 19 13:25:30, status open
Tue May 19 11:34:43, status close
Tue May 19 11:34:39, status open
Tue May 19 10:49:26, status close
Tue May 19 10:39:05, no_close 5m
Tue May 19 10:35:04, no_close 1m
Tue May 19 10:34:03, status open
Tue May 19 10:04:31, status close
Tue May 19 10:03:02, no_close 1m
Tue May 19 10:02:03, status open
Mon May 18 16:38:48, status close
Mon May 18 16:35:45, no_close 1m
Mon May 18 16:34:45, status open
Sun May 17 17:40:27, status close
Sun May 17 17:37:35, no_close 1m
Sun May 17 17:36:36, status open
Sun May 17 11:27:33, status close
Sun May 17 11:27:25, status open
Sun May 17 11:27:07, status close
Sun May 17 11:27:02, status open
Sun May 17 11:23:32, status close
Sun May 17 11:23:10, no_close 1m
Sun May 17 11:22:10, status open
Sun May 17 10:25:14, status close
Sun May 17 10:25:05, status open
Sat May 16 19:06:13, status close
Sat May 16 19:06:11, status open
Sat May 16 18:57:22, status close
Sat May 16 18:54:49, no_close 1m
Sat May 16 18:53:50, status open
Sat May 16 15:47:30, status close
Sat May 16 15:47:18, status open
Sat May 16 14:44:48, status close
Sat May 16 14:44:28, status open
Sat May 16 12:33:53, status close
Sat May 16 12:33:49, status open
Sat May 16 12:05:09, status close
Sat May 16 12:05:09, status open
Sat May 16 12:05:08, status close
Sat May 16 12:05:06, status open
Sat May 16 11:47:06, status close
Sat May 16 11:47:02, status open
Sat May 16 10:53:09, status close
Sat May 16 10:53:06, status open
Sat May 16 10:50:09, status close
Sat May 16 10:50:06, status open
Fri May 15 12:04:24, status close
Fri May 15 12:03:58, no_close 5m
Fri May 15 11:59:56, no_close 1m
Fri May 15 11:58:56, status open
Thu May 14 20:01:07, status close
Thu May 14 20:00:08, status open
Thu May 14 17:45:38, status close
Thu May 14 17:45:35, status open
Thu May 14 16:05:43, status close
Thu May 14 16:05:23, status open
Thu May 14 14:48:22, status close
Thu May 14 14:47:24, status open
Thu May 14 14:47:22, status close
Thu May 14 14:46:55, status open
Thu May 14 13:19:45, status close
Thu May 14 13:19:08, status open
Thu May 14 13:16:53, status close
Thu May 14 13:16:41, status open
Thu May 14 13:15:45, status close
Thu May 14 13:15:36, status open
Wed May 13 17:14:38, status close
Wed May 13 17:11:17, no_close 1m
Wed May 13 17:10:16, status open
Wed May 13 14:12:38, status close
Wed May 13 14:12:36, status open
Wed May 13 13:34:35, status close
Wed May 13 13:34:30, status open
Wed May 13 12:46:26, status close
Wed May 13 12:46:10, status open
Wed May 13 12:43:40, status close
Wed May 13 12:43:14, status open
Wed May 13 10:47:53, status close
Wed May 13 10:47:51, status open
Wed May 13 10:47:47, status close
Wed May 13 10:47:44, status open
Wed May 13 10:45:52, status close
Wed May 13 10:45:24, status open
Wed May 13 09:58:38, status close
Wed May 13 09:58:23, status open
Wed May 13 09:56:56, status close
Wed May 13 09:56:45, status open
Tue May 12 18:38:37, status close
Tue May 12 18:38:35, status open
Tue May 12 18:34:45, status close
Tue May 12 18:34:42, status open
Tue May 12 15:51:49, status close
Tue May 12 15:51:41, status open
Tue May 12 14:43:53, status close
Tue May 12 14:42:29, no_close 1m
Tue May 12 14:41:30, status open
Tue May 12 10:41:05, status close
Tue May 12 10:41:02, status open
Tue May 12 09:37:26, status close
Tue May 12 09:36:43, no_close 5m
Tue May 12 09:32:40, no_close 1m
Tue May 12 09:31:41, status open
Tue May 12 09:05:22, status close
Tue May 12 09:05:14, status open
Mon May 11 16:59:54, status close
Mon May 11 16:59:44, status open
Mon May 11 15:09:06, status close
Mon May 11 15:08:34, status open
Mon May 11 15:08:23, status close
Mon May 11 15:07:54, status open
Mon May 11 15:05:57, status close
Mon May 11 15:05:52, status open
Mon May 11 13:08:45, status close
Mon May 11 13:06:14, no_close 1m
Mon May 11 13:05:13, status open
Mon May 11 10:55:02, status close
Mon May 11 10:53:52, no_close 1m
Mon May 11 10:52:52, status open
Mon May 11 09:46:12, status close
Mon May 11 09:46:08, status open
Sat May 9 17:58:33, status close
Sat May 9 17:58:30, status open
Sat May 9 17:10:03, status close
Sat May 9 17:09:38, status open
Sat May 9 16:20:20, status close
Sat May 9 16:19:47, status open
Sat May 9 16:18:06, status close
Sat May 9 16:17:49, status open
Sat May 9 14:49:28, status close
Sat May 9 14:47:25, no_close 1m
Sat May 9 14:46:27, status open
Sat May 9 14:39:26, status close
Sat May 9 14:39:19, status open
Fri May 8 21:01:22, status close
Fri May 8 21:01:05, no_close 1m
Fri May 8 21:00:06, status open
Fri May 8 18:43:25, status close
Fri May 8 18:43:09, status open
Fri May 8 17:28:58, status close
Fri May 8 17:28:42, status open
Fri May 8 17:28:41, status close
Fri May 8 17:28:36, status open
Fri May 8 17:25:59, status close
Fri May 8 17:25:21, status open
Fri May 8 16:12:06, status close
Fri May 8 16:12:01, status open
Fri May 8 16:11:22, status close
Fri May 8 16:11:21, status open
Fri May 8 15:33:12, status close
Fri May 8 15:33:06, status open
Fri May 8 14:56:01, status close
Fri May 8 14:55:57, status open
Fri May 8 14:53:35, status close
Fri May 8 14:53:15, status open
Fri May 8 13:36:44, status close
Fri May 8 13:36:43, status open
Fri May 8 13:36:12, status close
Fri May 8 13:36:06, status open
Fri May 8 13:35:13, status close
Fri May 8 13:35:09, status open
Fri May 8 11:32:54, status close
Fri May 8 11:32:43, status open

Contact: HomeGuardMi at Gmail.com     HG ver Nov-17